Darstellungsparameter: Aktuell verwendete Einstellungen:
Skalierung der Graphiken ... ?
xyx+y,   Skalierungsfaktor:      Skalierung: Modus: x, Faktor: 1
Darstellungszeitraum ... ?
Vom - - bis: - -   Zeitraum: 23.02.2020 - 07.03.2020
Min/Max/Avg-Anzeige ... ?
Zeige MMA aktuell
Zeige MMA Monat
Zeige MMA alles
Zeige --A aktuell
Zeige --A Monat
Zeige --A alles
Keine MMA-Anzeige
MMA:
Average (ber die Originaldaten)
MMA-Basis: 23.02.2020 - 07.03.2020
Quicknavigation für Darstellung... ?
Tage:      1T, 2T, 3T, 5T -1T -2T -3T -5T +1T +2T +3T +5T
Wochen: 1W, 2W, 3W -1W -2W -3W +1W +2W +3W
Monate: 1M, 3M, 6M -1M -3M -6M +1M +3M +6M
Jahre:    1J, 3J, 5J, 10J -1J -3J -5J -10J +1J +3J +5J +10J
Nutze für die Darstellung ... ?
Originaldaten oder Mittelwerte auf ...
Stundenbasis Tagesbasis Wochenbasis
Monatsbasis Jahresbasis      Datenbasis: Original-Daten
Darstellen als:
Statistik (Auto) Statistik J:M      Darstellung:
Zur Graphik,    zurück zur Übersicht aller Sensoren.
 
Tabellarische Datenbersicht: ?
 
Sensor: Nr:Datum:Temp:Abs-Feuchte:Windchill:Wind:
Aussen-T/F 1 23-02-2020 00:00:00 10.9 C 8.16 g/m*3 9.51 C 11.3 km/h
2 23-02-2020 00:05:00 11 C 8.11 g/m*3 8.42 C 22.5 km/h
3 23-02-2020 00:10:00 11 C 8.11 g/m*3 8.86 C 17.7 km/h
4 23-02-2020 00:15:00 11 C 8.11 g/m*3 9.02 C 16.1 km/h
5 23-02-2020 00:20:00 11 C 8.01 g/m*3 8.3 C 24.1 km/h
6 23-02-2020 00:25:00 11 C 8.11 g/m*3 9.21 C 14.5 km/h
7 23-02-2020 00:30:00 10.9 C 8.06 g/m*3 9.08 C 14.5 km/h
8 23-02-2020 00:35:00 10.8 C 8.11 g/m*3 8.96 C 14.5 km/h
9 23-02-2020 00:40:00 10.7 C 8.15 g/m*3 9.26 C 11.3 km/h
10 23-02-2020 00:45:00 10.6 C 8.2 g/m*3 8.92 C 12.9 km/h
11 23-02-2020 00:50:00 10.4 C 8.19 g/m*3 9.83 C 6.4 km/h
12 23-02-2020 00:55:00 10.3 C 8.33 g/m*3 9.04 C 9.7 km/h
13 23-02-2020 01:00:00 10.1 C 8.32 g/m*3 8.1 C 14.5 km/h
14 23-02-2020 01:05:00 10 C 8.36 g/m*3 8.68 C 9.7 km/h
15 23-02-2020 01:10:00 9.9 C 8.31 g/m*3 8.3 C 11.3 km/h
16 23-02-2020 01:15:00 9.9 C 8.31 g/m*3 7.16 C 20.9 km/h
17 23-02-2020 01:20:00 9.9 C 8.31 g/m*3 8.56 C 9.7 km/h
18 23-02-2020 01:25:00 9.8 C 8.35 g/m*3 8.75 C 8.1 km/h
19 23-02-2020 01:30:00 9.8 C 8.35 g/m*3 8.18 C 11.3 km/h
20 23-02-2020 01:35:00 9.8 C 8.35 g/m*3 8.45 C 9.7 km/h
21 23-02-2020 01:40:00 9.9 C 8.4 g/m*3 8.3 C 11.3 km/h
22 23-02-2020 01:45:00 9.9 C 8.31 g/m*3 7.66 C 16.1 km/h
23 23-02-2020 01:50:00 9.9 C 8.31 g/m*3 8.87 C 8.1 km/h
24 23-02-2020 01:55:00 10 C 8.36 g/m*3 8.99 C 8.1 km/h
25 23-02-2020 02:00:00 10 C 8.36 g/m*3 8.99 C 8.1 km/h
Sensor: Nr:Datum:Temp:Abs-Feuchte:Windchill:Wind:
Aussen-T/F 26 23-02-2020 02:05:00 10.1 C 8.42 g/m*3 8.54 C 11.3 km/h
27 23-02-2020 02:10:00 10.1 C 8.42 g/m*3 7.73 C 17.7 km/h
28 23-02-2020 02:15:00 10.1 C 8.42 g/m*3 8.54 C 11.3 km/h
29 23-02-2020 02:20:00 10 C 8.36 g/m*3 8.42 C 11.3 km/h
30 23-02-2020 02:25:00 10 C 8.27 g/m*3 8.42 C 11.3 km/h
31 23-02-2020 02:30:00 10 C 8.27 g/m*3 7.98 C 14.5 km/h
32 23-02-2020 02:35:00 10.1 C 8.32 g/m*3 8.8 C 9.7 km/h
33 23-02-2020 02:40:00 10.1 C 8.23 g/m*3 8.31 C 12.9 km/h
34 23-02-2020 02:45:00 10.2 C 8.18 g/m*3 7.7 C 19.3 km/h
35 23-02-2020 02:50:00 10.2 C 8.18 g/m*3 7.7 C 19.3 km/h
36 23-02-2020 02:55:00 10.3 C 8.14 g/m*3 8.34 C 14.5 km/h
37 23-02-2020 03:00:00 10.3 C 8.14 g/m*3 8.34 C 14.5 km/h
38 23-02-2020 03:05:00 10.3 C 8.14 g/m*3 8.16 C 16.1 km/h
39 23-02-2020 03:10:00 10.3 C 8.04 g/m*3 8.55 C 12.9 km/h
40 23-02-2020 03:15:00 10.3 C 8.04 g/m*3 7.82 C 19.3 km/h
41 23-02-2020 03:20:00 10.2 C 8.09 g/m*3 7.86 C 17.7 km/h
42 23-02-2020 03:25:00 10.2 C 8.09 g/m*3 8.03 C 16.1 km/h
43 23-02-2020 03:30:00 10.2 C 8.09 g/m*3 8.43 C 12.9 km/h
44 23-02-2020 03:35:00 10.2 C 8.09 g/m*3 8.92 C 9.7 km/h
45 23-02-2020 03:40:00 10.1 C 8.04 g/m*3 8.8 C 9.7 km/h
46 23-02-2020 03:45:00 10.1 C 8.13 g/m*3 8.31 C 12.9 km/h
47 23-02-2020 03:50:00 10.1 C 8.13 g/m*3 7.91 C 16.1 km/h
48 23-02-2020 03:55:00 10.1 C 8.04 g/m*3 8.31 C 12.9 km/h
49 23-02-2020 04:00:00 10.1 C 8.04 g/m*3 8.54 C 11.3 km/h
50 23-02-2020 04:05:00 10.1 C 7.94 g/m*3 7.91 C 16.1 km/h
Sensor: Nr:Datum:Temp:Abs-Feuchte:Windchill:Wind:
Aussen-T/F 51 23-02-2020 04:10:00 10.2 C 7.99 g/m*3 8.43 C 12.9 km/h
52 23-02-2020 04:15:00 10.2 C 7.9 g/m*3 8.92 C 9.7 km/h
53 23-02-2020 04:20:00 10.2 C 7.9 g/m*3 8.03 C 16.1 km/h
54 23-02-2020 04:25:00 10.3 C 7.95 g/m*3 8.55 C 12.9 km/h
55 23-02-2020 04:30:00 10.3 C 7.95 g/m*3 8.55 C 12.9 km/h
56 23-02-2020 04:35:00 10.3 C 7.95 g/m*3 7.98 C 17.7 km/h
57 23-02-2020 04:40:00 10.3 C 7.95 g/m*3 7.98 C 17.7 km/h
58 23-02-2020 04:45:00 10.4 C 8 g/m*3 8.11 C 17.7 km/h
59 23-02-2020 04:50:00 10.4 C 8.1 g/m*3 9.16 C 9.7 km/h
60 23-02-2020 04:55:00 10.3 C 8.04 g/m*3 8.55 C 12.9 km/h
61 23-02-2020 05:00:00 10.3 C 8.14 g/m*3 8.78 C 11.3 km/h
62 23-02-2020 05:05:00 10.3 C 8.14 g/m*3 8.78 C 11.3 km/h
63 23-02-2020 05:10:00 10.3 C 8.14 g/m*3 9.04 C 9.7 km/h
64 23-02-2020 05:15:00 10.3 C 8.14 g/m*3 8.55 C 12.9 km/h
65 23-02-2020 05:20:00 10.3 C 8.24 g/m*3 8.78 C 11.3 km/h
66 23-02-2020 05:25:00 10.3 C 8.24 g/m*3 9.04 C 9.7 km/h
67 23-02-2020 05:30:00 10.3 C 8.24 g/m*3 8.34 C 14.5 km/h
68 23-02-2020 05:35:00 10.4 C 8.29 g/m*3 7.8 C 20.9 km/h
69 23-02-2020 05:40:00 10.4 C 8.29 g/m*3 8.28 C 16.1 km/h
70 23-02-2020 05:45:00 10.4 C 8.19 g/m*3 7.8 C 20.9 km/h
71 23-02-2020 05:50:00 10.4 C 8.19 g/m*3 7.95 C 19.3 km/h
72 23-02-2020 05:55:00 10.4 C 8.29 g/m*3 7.95 C 19.3 km/h
73 23-02-2020 06:00:00 10.3 C 8.24 g/m*3 8.16 C 16.1 km/h
74 23-02-2020 06:05:00 10.3 C 8.24 g/m*3 8.55 C 12.9 km/h
75 23-02-2020 06:10:00 10.3 C 8.14 g/m*3 7.67 C 20.9 km/h
Sensor: Nr:Datum:Temp:Abs-Feuchte:Windchill:Wind:
Aussen-T/F 76 23-02-2020 06:15:00 10.3 C 8.14 g/m*3 9.72 C 6.4 km/h
77 23-02-2020 06:20:00 10.3 C 8.24 g/m*3 8.34 C 14.5 km/h
78 23-02-2020 06:25:00 10.2 C 8.18 g/m*3 8.22 C 14.5 km/h
79 23-02-2020 06:30:00 10.2 C 8.09 g/m*3 8.66 C 11.3 km/h
80 23-02-2020 06:35:00 10.3 C 8.14 g/m*3 8.34 C 14.5 km/h
81 23-02-2020 06:40:00 10.3 C 8.14 g/m*3 9.34 C 8.1 km/h
82 23-02-2020 06:45:00 10.3 C 8.14 g/m*3 9.04 C 9.7 km/h
83 23-02-2020 06:50:00 10.3 C 8.14 g/m*3 8.34 C 14.5 km/h
84 23-02-2020 06:55:00 10.3 C 8.24 g/m*3 8.78 C 11.3 km/h
85 23-02-2020 07:00:00 10.3 C 8.24 g/m*3 9.04 C 9.7 km/h
86 23-02-2020 07:05:00 10.2 C 8.18 g/m*3 9.22 C 8.1 km/h
87 23-02-2020 07:10:00 10.2 C 8.18 g/m*3 8.22 C 14.5 km/h
88 23-02-2020 07:15:00 10.2 C 8.28 g/m*3 8.92 C 9.7 km/h
89 23-02-2020 07:20:00 10.2 C 8.28 g/m*3 8.03 C 16.1 km/h
90 23-02-2020 07:25:00 10.2 C 8.28 g/m*3 7.7 C 19.3 km/h
91 23-02-2020 07:30:00 10.2 C 8.28 g/m*3 7.86 C 17.7 km/h
92 23-02-2020 07:35:00 10.3 C 8.33 g/m*3 8.55 C 12.9 km/h
93 23-02-2020 07:40:00 10.3 C 8.33 g/m*3 8.16 C 16.1 km/h
94 23-02-2020 07:45:00 10.3 C 8.43 g/m*3 7.53 C 22.5 km/h
95 23-02-2020 07:50:00 10.3 C 8.43 g/m*3 7.15 C 27.4 km/h
96 23-02-2020 07:55:00 10.3 C 8.43 g/m*3 7.15 C 27.4 km/h
97 23-02-2020 08:00:00 10.4 C 8.48 g/m*3 7.53 C 24.1 km/h
98 23-02-2020 08:05:00 10.5 C 8.53 g/m*3 7.65 C 24.1 km/h
99 23-02-2020 08:10:00 10.5 C 8.53 g/m*3 7.53 C 25.7 km/h
100 23-02-2020 08:15:00 10.4 C 8.48 g/m*3 8.28 C 16.1 km/h
Sensor: Nr:Datum:Temp:Abs-Feuchte:Windchill:Wind:
Aussen-T/F 101 23-02-2020 08:20:00 10.5 C 8.53 g/m*3 7.53 C 25.7 km/h
102 23-02-2020 08:25:00 10.5 C 8.53 g/m*3 7.79 C 22.5 km/h
103 23-02-2020 08:30:00 10.5 C 8.53 g/m*3 7.79 C 22.5 km/h
104 23-02-2020 08:35:00 10.6 C 8.59 g/m*3 7.91 C 22.5 km/h
105 23-02-2020 08:40:00 10.6 C 8.59 g/m*3 7.78 C 24.1 km/h
106 23-02-2020 08:45:00 10.6 C 8.59 g/m*3 8.2 C 19.3 km/h
107 23-02-2020 08:50:00 10.6 C 8.59 g/m*3 8.71 C 14.5 km/h
108 23-02-2020 08:55:00 10.6 C 8.59 g/m*3 8.71 C 14.5 km/h
109 23-02-2020 09:00:00 10.6 C 8.59 g/m*3 10.06 C 6.4 km/h
110 23-02-2020 09:05:00 10.6 C 8.59 g/m*3 8.92 C 12.9 km/h
111 23-02-2020 09:10:00 10.6 C 8.59 g/m*3 8.36 C 17.7 km/h
112 23-02-2020 09:15:00 10.6 C 8.59 g/m*3 8.71 C 14.5 km/h
113 23-02-2020 09:20:00 10.6 C 8.69 g/m*3 7.78 C 24.1 km/h
114 23-02-2020 09:25:00 10.6 C 8.59 g/m*3 8.53 C 16.1 km/h
115 23-02-2020 09:30:00 10.5 C 8.63 g/m*3 8.4 C 16.1 km/h
116 23-02-2020 09:35:00 10.5 C 8.63 g/m*3 8.23 C 17.7 km/h
117 23-02-2020 09:40:00 10.6 C 8.69 g/m*3 7.78 C 24.1 km/h
118 23-02-2020 09:45:00 10.6 C 8.69 g/m*3 8.05 C 20.9 km/h
119 23-02-2020 09:50:00 10.6 C 8.69 g/m*3 7.66 C 25.7 km/h
120 23-02-2020 09:55:00 10.6 C 8.69 g/m*3 8.36 C 17.7 km/h
121 23-02-2020 10:00:00 10.6 C 8.69 g/m*3 8.2 C 19.3 km/h
122 23-02-2020 10:05:00 10.6 C 8.69 g/m*3 7.66 C 25.7 km/h
123 23-02-2020 10:10:00 10.7 C 8.74 g/m*3 8.84 C 14.5 km/h
124 23-02-2020 10:15:00 10.7 C 8.74 g/m*3 8.04 C 22.5 km/h
125 23-02-2020 10:20:00 10.8 C 8.7 g/m*3 8.04 C 24.1 km/h
Sensor: Nr:Datum:Temp:Abs-Feuchte:Windchill:Wind:
Aussen-T/F 126 23-02-2020 10:25:00 10.8 C 8.7 g/m*3 8.3 C 20.9 km/h
127 23-02-2020 10:30:00 11 C 8.71 g/m*3 8.3 C 24.1 km/h
128 23-02-2020 10:35:00 11.1 C 8.76 g/m*3 11.1 C 25.7 km/h
129 23-02-2020 10:40:00 11.1 C 8.76 g/m*3 11.1 C 17.7 km/h
130 23-02-2020 10:45:00 11.2 C 8.82 g/m*3 11.2 C 19.3 km/h
131 23-02-2020 10:50:00 11.2 C 8.72 g/m*3 11.2 C 27.4 km/h
132 23-02-2020 10:55:00 11.2 C 8.72 g/m*3 11.2 C 25.7 km/h
133 23-02-2020 11:00:00 11.2 C 8.72 g/m*3 11.2 C 27.4 km/h
134 23-02-2020 11:05:00 11.2 C 8.72 g/m*3 11.2 C 20.9 km/h
135 23-02-2020 11:10:00 11.3 C 8.77 g/m*3 11.3 C 20.9 km/h
136 23-02-2020 11:15:00 11.3 C 8.77 g/m*3 11.3 C 35.4 km/h
137 23-02-2020 11:20:00 11.3 C 8.77 g/m*3 11.3 C 17.7 km/h
138 23-02-2020 11:25:00 11.3 C 8.77 g/m*3 11.3 C 14.5 km/h
139 23-02-2020 11:30:00 11.3 C 8.77 g/m*3 11.3 C 22.5 km/h
140 23-02-2020 11:35:00 11.3 C 8.87 g/m*3 11.3 C 14.5 km/h
141 23-02-2020 11:40:00 11.4 C 8.83 g/m*3 11.4 C 22.5 km/h
142 23-02-2020 11:45:00 11.4 C 8.83 g/m*3 11.4 C 17.7 km/h
143 23-02-2020 11:50:00 11.4 C 8.83 g/m*3 11.4 C 16.1 km/h
144 23-02-2020 11:55:00 11.5 C 8.88 g/m*3 11.5 C 20.9 km/h
145 23-02-2020 12:00:00 11.6 C 8.94 g/m*3 11.6 C 20.9 km/h
146 23-02-2020 12:05:00 11.6 C 8.94 g/m*3 11.6 C 19.3 km/h
147 23-02-2020 12:10:00 11.7 C 8.99 g/m*3 11.7 C 29 km/h
148 23-02-2020 12:15:00 11.7 C 8.99 g/m*3 11.7 C 22.5 km/h
149 23-02-2020 12:20:00 11.8 C 8.95 g/m*3 11.8 C 24.1 km/h
150 23-02-2020 12:25:00 11.8 C 8.95 g/m*3 11.8 C 35.4 km/h
Sensor: Nr:Datum:Temp:Abs-Feuchte:Windchill:Wind:
Aussen-T/F 151 23-02-2020 12:30:00 11.8 C 8.95 g/m*3 11.8 C 29 km/h
152 23-02-2020 12:35:00 11.8 C 8.95 g/m*3 11.8 C 22.5 km/h
153 23-02-2020 12:40:00 11.8 C 8.95 g/m*3 11.8 C 24.1 km/h
154 23-02-2020 12:45:00 11.9 C 9 g/m*3 11.9 C 24.1 km/h
155 23-02-2020 12:50:00 11.9 C 9 g/m*3 11.9 C 17.7 km/h
156 23-02-2020 12:55:00 11.9 C 9 g/m*3 11.9 C 27.4 km/h
157 23-02-2020 13:00:00 11.9 C 9 g/m*3 11.9 C 25.7 km/h
158 23-02-2020 13:05:00 12 C 8.95 g/m*3 12 C 19.3 km/h
159 23-02-2020 13:10:00 12.1 C 9.01 g/m*3 12.1 C 20.9 km/h
160 23-02-2020 13:15:00 12 C 8.95 g/m*3 12 C 20.9 km/h
161 23-02-2020 13:20:00 12.1 C 9.01 g/m*3 12.1 C 25.7 km/h
162 23-02-2020 13:25:00 12 C 8.95 g/m*3 12 C 24.1 km/h
163 23-02-2020 13:30:00 12 C 8.95 g/m*3 12 C 22.5 km/h
164 23-02-2020 13:35:00 12 C 8.95 g/m*3 12 C 24.1 km/h
165 23-02-2020 13:40:00 12.1 C 9.01 g/m*3 12.1 C 20.9 km/h
166 23-02-2020 13:45:00 12.1 C 9.01 g/m*3 12.1 C 19.3 km/h
167 23-02-2020 13:50:00 12.1 C 9.01 g/m*3 12.1 C 25.7 km/h
168 23-02-2020 13:55:00 12 C 8.95 g/m*3 12 C 29 km/h
169 23-02-2020 14:00:00 12 C 8.95 g/m*3 12 C 30.6 km/h
170 23-02-2020 14:05:00 12.1 C 9.01 g/m*3 12.1 C 35.4 km/h
171 23-02-2020 14:10:00 12.1 C 9.12 g/m*3 12.1 C 20.9 km/h
172 23-02-2020 14:15:00 12 C 9.06 g/m*3 12 C 16.1 km/h
173 23-02-2020 14:20:00 12.1 C 9.12 g/m*3 12.1 C 19.3 km/h
174 23-02-2020 14:25:00 12 C 9.06 g/m*3 12 C 16.1 km/h
175 23-02-2020 14:30:00 12 C 9.06 g/m*3 12 C 19.3 km/h
Sensor: Nr:Datum:Temp:Abs-Feuchte:Windchill:Wind:
Aussen-T/F 176 23-02-2020 14:35:00 12 C 9.06 g/m*3 12 C 27.4 km/h
177 23-02-2020 14:40:00 12.1 C 9.12 g/m*3 12.1 C 17.7 km/h
178 23-02-2020 14:45:00 12.1 C 9.12 g/m*3 12.1 C 27.4 km/h
179 23-02-2020 14:50:00 12.1 C 9.22 g/m*3 12.1 C 29 km/h
180 23-02-2020 14:55:00 12.1 C 9.22 g/m*3 12.1 C 25.7 km/h
181 23-02-2020 15:00:00 12.1 C 9.22 g/m*3 12.1 C 25.7 km/h
182 23-02-2020 15:05:00 12.1 C 9.22 g/m*3 12.1 C 19.3 km/h
183 23-02-2020 15:10:00 12.2 C 9.28 g/m*3 12.2 C 22.5 km/h
184 23-02-2020 15:15:00 12.2 C 9.28 g/m*3 12.2 C 22.5 km/h
185 23-02-2020 15:20:00 12.2 C 9.28 g/m*3 12.2 C 25.7 km/h
186 23-02-2020 15:25:00 12.2 C 9.28 g/m*3 12.2 C 33.8 km/h
187 23-02-2020 15:30:00 12.2 C 9.28 g/m*3 12.2 C 22.5 km/h
188 23-02-2020 15:35:00 12.2 C 9.28 g/m*3 12.2 C 22.5 km/h
189 23-02-2020 15:40:00 12.2 C 9.28 g/m*3 12.2 C 19.3 km/h
190 23-02-2020 15:45:00 12.2 C 9.28 g/m*3 12.2 C 19.3 km/h
191 23-02-2020 15:50:00 12.2 C 9.28 g/m*3 12.2 C 22.5 km/h
192 23-02-2020 15:55:00 12.1 C 9.22 g/m*3 12.1 C 24.1 km/h
193 23-02-2020 16:00:00 12.1 C 9.22 g/m*3 12.1 C 17.7 km/h
194 23-02-2020 16:05:00 12.1 C 9.22 g/m*3 12.1 C 20.9 km/h
195 23-02-2020 16:10:00 12.1 C 9.33 g/m*3 12.1 C 17.7 km/h
196 23-02-2020 16:15:00 12.1 C 9.22 g/m*3 12.1 C 17.7 km/h
197 23-02-2020 16:20:00 12.1 C 9.33 g/m*3 12.1 C 20.9 km/h
198 23-02-2020 16:25:00 12.1 C 9.33 g/m*3 12.1 C 19.3 km/h
199 23-02-2020 16:30:00 12.1 C 9.33 g/m*3 12.1 C 20.9 km/h
200 23-02-2020 16:35:00 12.1 C 9.33 g/m*3 12.1 C 12.9 km/h
Sensor: Nr:Datum:Temp:Abs-Feuchte:Windchill:Wind:
Aussen-T/F 201 23-02-2020 16:40:00 12.1 C 9.33 g/m*3 12.1 C 17.7 km/h
202 23-02-2020 16:45:00 12.1 C 9.33 g/m*3 12.1 C 22.5 km/h
203 23-02-2020 16:50:00 12.1 C 9.33 g/m*3 12.1 C 17.7 km/h
204 23-02-2020 16:55:00 12.1 C 9.22 g/m*3 12.1 C 16.1 km/h
205 23-02-2020 17:00:00 12.1 C 9.33 g/m*3 12.1 C 19.3 km/h
206 23-02-2020 17:05:00 12.1 C 9.22 g/m*3 12.1 C 19.3 km/h
207 23-02-2020 17:10:00 12.2 C 9.28 g/m*3 12.2 C 16.1 km/h
208 23-02-2020 17:15:00 12.2 C 9.39 g/m*3 12.2 C 16.1 km/h
209 23-02-2020 17:20:00 12.1 C 9.33 g/m*3 12.1 C 22.5 km/h
210 23-02-2020 17:25:00 12.1 C 9.44 g/m*3 12.1 C 14.5 km/h
211 23-02-2020 17:30:00 11.9 C 9.32 g/m*3 11.9 C 16.1 km/h
212 23-02-2020 17:35:00 11.8 C 9.37 g/m*3 11.8 C 14.5 km/h
213 23-02-2020 17:40:00 11.7 C 9.41 g/m*3 11.7 C 9.7 km/h
214 23-02-2020 17:45:00 11.6 C 9.46 g/m*3 11.6 C 30.6 km/h
215 23-02-2020 17:50:00 11.5 C 9.4 g/m*3 11.5 C 22.5 km/h
216 23-02-2020 17:55:00 11.5 C 9.4 g/m*3 11.5 C 17.7 km/h
217 23-02-2020 18:00:00 11.4 C 9.34 g/m*3 11.4 C 14.5 km/h
218 23-02-2020 18:05:00 11.4 C 9.34 g/m*3 11.4 C 12.9 km/h
219 23-02-2020 18:10:00 11.5 C 9.5 g/m*3 11.5 C 17.7 km/h
220 23-02-2020 18:15:00 11.5 C 9.4 g/m*3 11.5 C 12.9 km/h
221 23-02-2020 18:20:00 11.4 C 9.44 g/m*3 11.4 C 14.5 km/h
222 23-02-2020 18:25:00 11.4 C 9.44 g/m*3 11.4 C 14.5 km/h
223 23-02-2020 18:30:00 11.3 C 9.49 g/m*3 11.3 C 8.1 km/h
224 23-02-2020 18:35:00 11.3 C 9.49 g/m*3 11.3 C 16.1 km/h
225 23-02-2020 18:40:00 11.3 C 9.49 g/m*3 11.3 C 17.7 km/h
Sensor: Nr:Datum:Temp:Abs-Feuchte:Windchill:Wind:
Aussen-T/F 226 23-02-2020 18:45:00 11.2 C 9.53 g/m*3 11.2 C 12.9 km/h
227 23-02-2020 18:50:00 11.2 C 9.53 g/m*3 11.2 C 12.9 km/h
228 23-02-2020 18:55:00 11.2 C 9.53 g/m*3 11.2 C 11.3 km/h
229 23-02-2020 19:00:00 11.2 C 9.53 g/m*3 11.2 C 8.1 km/h
230 23-02-2020 19:05:00 11.2 C 9.53 g/m*3 11.2 C 12.9 km/h
231 23-02-2020 19:10:00 11.2 C 9.53 g/m*3 11.2 C 16.1 km/h
232 23-02-2020 19:15:00 11.2 C 9.53 g/m*3 11.2 C 14.5 km/h
233 23-02-2020 19:20:00 11.2 C 9.53 g/m*3 11.2 C 6.4 km/h
234 23-02-2020 19:25:00 11.3 C 9.59 g/m*3 11.3 C 16.1 km/h
235 23-02-2020 19:30:00 11.4 C 9.65 g/m*3 11.4 C 19.3 km/h
236 23-02-2020 19:35:00 10.7 C 8.94 g/m*3 7.79 C 25.7 km/h
237 23-02-2020 19:40:00 10.1 C 8.61 g/m*3 7.73 C 17.7 km/h
238 23-02-2020 19:45:00 9.7 C 8.48 g/m*3 6.91 C 20.9 km/h
239 23-02-2020 19:50:00 9.4 C 8.32 g/m*3 7.24 C 14.5 km/h
240 23-02-2020 19:55:00 9.2 C 8.22 g/m*3 6.61 C 17.7 km/h
241 23-02-2020 20:00:00 9 C 8.11 g/m*3 6.36 C 17.7 km/h
242 23-02-2020 20:05:00 8.8 C 8.01 g/m*3 5.93 C 19.3 km/h
243 23-02-2020 20:10:00 8.7 C 7.96 g/m*3 6.6 C 12.9 km/h
244 23-02-2020 20:15:00 8.7 C 7.96 g/m*3 7.46 C 8.1 km/h
245 23-02-2020 20:20:00 8.6 C 7.91 g/m*3 5.86 C 17.7 km/h
246 23-02-2020 20:25:00 8.6 C 7.82 g/m*3 6.05 C 16.1 km/h
247 23-02-2020 20:30:00 8.5 C 7.77 g/m*3 7.22 C 8.1 km/h
248 23-02-2020 20:35:00 8.5 C 7.77 g/m*3 6.13 C 14.5 km/h
249 23-02-2020 20:40:00 8.5 C 7.77 g/m*3 5.92 C 16.1 km/h
250 23-02-2020 20:45:00 8.5 C 7.77 g/m*3 6.13 C 14.5 km/h
Sensor: Nr:Datum:Temp:Abs-Feuchte:Windchill:Wind:
Aussen-T/F 251 23-02-2020 20:50:00 8.4 C 7.63 g/m*3 5.61 C 17.7 km/h
252 23-02-2020 20:55:00 8.4 C 7.63 g/m*3 5.8 C 16.1 km/h
253 23-02-2020 21:00:00 8.4 C 7.63 g/m*3 5.11 C 22.5 km/h
254 23-02-2020 21:05:00 8.4 C 7.63 g/m*3 5.43 C 19.3 km/h
255 23-02-2020 21:10:00 8.4 C 7.55 g/m*3 6.24 C 12.9 km/h
256 23-02-2020 21:15:00 8.4 C 7.55 g/m*3 5.61 C 17.7 km/h
257 23-02-2020 21:20:00 8.3 C 7.5 g/m*3 5.31 C 19.3 km/h
258 23-02-2020 21:25:00 8.2 C 7.37 g/m*3 6.25 C 11.3 km/h
259 23-02-2020 21:30:00 8.3 C 7.42 g/m*3 6.37 C 11.3 km/h
260 23-02-2020 21:35:00 8.3 C 7.33 g/m*3 6.37 C 11.3 km/h
261 23-02-2020 21:40:00 8.3 C 7.33 g/m*3 6.37 C 11.3 km/h
262 23-02-2020 21:45:00 8.3 C 7.33 g/m*3 6.37 C 11.3 km/h
263 23-02-2020 21:50:00 8.2 C 7.29 g/m*3 5.01 C 20.9 km/h
264 23-02-2020 21:55:00 8.2 C 7.37 g/m*3 5.76 C 14.5 km/h
265 23-02-2020 22:00:00 8.2 C 7.37 g/m*3 6.25 C 11.3 km/h
266 23-02-2020 22:05:00 8.2 C 7.37 g/m*3 5.99 C 12.9 km/h
267 23-02-2020 22:10:00 8.2 C 7.29 g/m*3 5.18 C 19.3 km/h
268 23-02-2020 22:15:00 8.3 C 7.25 g/m*3 5.89 C 14.5 km/h
269 23-02-2020 22:20:00 8.3 C 7.25 g/m*3 6.99 C 8.1 km/h
270 23-02-2020 22:25:00 8.3 C 7.16 g/m*3 5.68 C 16.1 km/h
271 23-02-2020 22:30:00 8.2 C 7.03 g/m*3 4.86 C 22.5 km/h
272 23-02-2020 22:35:00 8.2 C 6.95 g/m*3 5.76 C 14.5 km/h
273 23-02-2020 22:40:00 8.2 C 6.95 g/m*3 5.99 C 12.9 km/h
274 23-02-2020 22:45:00 8.1 C 6.91 g/m*3 6.13 C 11.3 km/h
275 23-02-2020 22:50:00 8 C 6.78 g/m*3 6.01 C 11.3 km/h
Sensor: Nr:Datum:Temp:Abs-Feuchte:Windchill:Wind:
Aussen-T/F 276 23-02-2020 22:55:00 7.9 C 6.74 g/m*3 6.18 C 9.7 km/h
277 23-02-2020 23:00:00 7.8 C 6.61 g/m*3 5.51 C 12.9 km/h
278 23-02-2020 23:05:00 7.8 C 6.61 g/m*3 6.4 C 8.1 km/h
279 23-02-2020 23:10:00 7.7 C 6.65 g/m*3 5.65 C 11.3 km/h
280 23-02-2020 23:15:00 7.6 C 6.69 g/m*3 7.6 C 1.6 km/h
281 23-02-2020 23:20:00 7.5 C 6.72 g/m*3 6.05 C 8.1 km/h
282 23-02-2020 23:25:00 7.4 C 6.6 g/m*3 6.37 C 6.4 km/h
283 23-02-2020 23:30:00 7.4 C 6.36 g/m*3 5.28 C 11.3 km/h
284 23-02-2020 23:35:00 7.4 C 6.36 g/m*3 4.56 C 16.1 km/h
285 23-02-2020 23:40:00 7.5 C 6.32 g/m*3 6.05 C 8.1 km/h
286 23-02-2020 23:45:00 7.5 C 6.24 g/m*3 6.48 C 6.4 km/h
287 23-02-2020 23:50:00 7.5 C 6.24 g/m*3 6.05 C 8.1 km/h
288 23-02-2020 23:55:00 7.5 C 6.4 g/m*3 7.5 C 3.2 km/h
289 24-02-2020 00:00:00 7.4 C 6.2 g/m*3 6.37 C 6.4 km/h
290 24-02-2020 00:05:00 7.4 C 6.28 g/m*3 7.4 C 4.8 km/h
291 24-02-2020 00:10:00 7.3 C 6.16 g/m*3 7.3 C 3.2 km/h
292 24-02-2020 00:15:00 7.3 C 6.32 g/m*3 7.3 C 1.6 km/h
293 24-02-2020 00:20:00 7.2 C 6.28 g/m*3 7.2 C 1.6 km/h
294 24-02-2020 00:25:00 7.1 C 6.24 g/m*3 7.1 C 3.2 km/h
295 24-02-2020 00:30:00 7.1 C 6.32 g/m*3 6.02 C 6.4 km/h
296 24-02-2020 00:35:00 7.1 C 6.24 g/m*3 6.02 C 6.4 km/h
297 24-02-2020 00:40:00 7 C 6.28 g/m*3 7 C 3.2 km/h
298 24-02-2020 00:45:00 6.9 C 6.24 g/m*3 5.79 C 6.4 km/h
299 24-02-2020 00:50:00 6.9 C 6.24 g/m*3 6.9 C 4.8 km/h
300 24-02-2020 00:55:00 6.9 C 6.24 g/m*3 4.99 C 9.7 km/h
Sensor: Nr:Datum:Temp:Abs-Feuchte:Windchill:Wind:
Aussen-T/F 301 24-02-2020 01:00:00 6.9 C 6.24 g/m*3 6.9 C 4.8 km/h
302 24-02-2020 01:05:00 6.8 C 6.27 g/m*3 6.8 C 4.8 km/h
303 24-02-2020 01:10:00 6.6 C 6.19 g/m*3 6.6 C 4.8 km/h
304 24-02-2020 01:15:00 6.4 C 6.11 g/m*3 6.4 C 4.8 km/h
305 24-02-2020 01:20:00 6.3 C 6.14 g/m*3 6.3 C 3.2 km/h
306 24-02-2020 01:25:00 6.3 C 6.14 g/m*3 4.64 C 8.1 km/h
307 24-02-2020 01:30:00 6.2 C 6.1 g/m*3 6.2 C 4.8 km/h
308 24-02-2020 01:35:00 6.2 C 6.18 g/m*3 6.2 C 1.6 km/h
309 24-02-2020 01:40:00 6.1 C 6.14 g/m*3 6.1 C 4.8 km/h
310 24-02-2020 01:45:00 6.1 C 6.14 g/m*3 4.4 C 8.1 km/h
311 24-02-2020 01:50:00 6.1 C 6.14 g/m*3 6.1 C 3.2 km/h
312 24-02-2020 01:55:00 5.9 C 6.06 g/m*3 5.9 C 3.2 km/h
313 24-02-2020 02:00:00 5.8 C 6.02 g/m*3 5.8 C 3.2 km/h
314 24-02-2020 02:05:00 5.8 C 6.02 g/m*3 5.8 C 3.2 km/h
315 24-02-2020 02:10:00 5.7 C 5.98 g/m*3 5.7 C 3.2 km/h
316 24-02-2020 02:15:00 5.6 C 5.94 g/m*3 5.6 C 1.6 km/h
317 24-02-2020 02:20:00 5.4 C 5.93 g/m*3 5.4 C 0 km/h
318 24-02-2020 02:25:00 5.3 C 5.89 g/m*3 5.3 C 0 km/h
319 24-02-2020 02:30:00 5.1 C 5.88 g/m*3 5.1 C 0 km/h
320 24-02-2020 02:35:00 4.9 C 5.81 g/m*3 4.9 C 0 km/h
321 24-02-2020 02:40:00 4.8 C 5.83 g/m*3 4.8 C 4.8 km/h
322 24-02-2020 02:45:00 4.8 C 5.83 g/m*3 4.8 C 0 km/h
323 24-02-2020 02:50:00 4.7 C 5.86 g/m*3 4.7 C 1.6 km/h
324 24-02-2020 02:55:00 4.7 C 5.86 g/m*3 4.7 C 3.2 km/h
325 24-02-2020 03:00:00 4.7 C 5.86 g/m*3 4.7 C 3.2 km/h
Sensor: Nr:Datum:Temp:Abs-Feuchte:Windchill:Wind:
Aussen-T/F 326 24-02-2020 03:05:00 4.8 C 5.9 g/m*3 4.8 C 1.6 km/h
327 24-02-2020 03:10:00 4.9 C 5.94 g/m*3 4.9 C 3.2 km/h
328 24-02-2020 03:15:00 5.1 C 5.88 g/m*3 3.23 C 8.1 km/h
329 24-02-2020 03:20:00 5.3 C 5.96 g/m*3 5.3 C 1.6 km/h
330 24-02-2020 03:25:00 5.4 C 6 g/m*3 5.4 C 0 km/h
331 24-02-2020 03:30:00 5.4 C 6 g/m*3 5.4 C 0 km/h
332 24-02-2020 03:35:00 5.4 C 6 g/m*3 5.4 C 0 km/h
333 24-02-2020 03:40:00 5.3 C 5.89 g/m*3 5.3 C 0 km/h
334 24-02-2020 03:45:00 5.3 C 5.89 g/m*3 5.3 C 3.2 km/h
335 24-02-2020 03:50:00 5.3 C 5.89 g/m*3 5.3 C 1.6 km/h
336 24-02-2020 03:55:00 5.2 C 5.85 g/m*3 5.2 C 0 km/h
337 24-02-2020 04:00:00 5.2 C 5.85 g/m*3 5.2 C 1.6 km/h
338 24-02-2020 04:05:00 5.2 C 5.85 g/m*3 5.2 C 0 km/h
339 24-02-2020 04:10:00 5.2 C 5.85 g/m*3 5.2 C 0 km/h
340 24-02-2020 04:15:00 5.2 C 5.92 g/m*3 5.2 C 0 km/h
341 24-02-2020 04:20:00 5.2 C 5.92 g/m*3 5.2 C 1.6 km/h
342 24-02-2020 04:25:00 5.1 C 5.95 g/m*3 5.1 C 1.6 km/h
343 24-02-2020 04:30:00 5.1 C 5.95 g/m*3 5.1 C 0 km/h
344 24-02-2020 04:35:00 5.1 C 6.02 g/m*3 5.1 C 0 km/h
345 24-02-2020 04:40:00 5 C 5.98 g/m*3 5 C 0 km/h
346 24-02-2020 04:45:00 4.9 C 5.94 g/m*3 4.9 C 0 km/h
347 24-02-2020 04:50:00 4.9 C 5.94 g/m*3 4.9 C 3.2 km/h
348 24-02-2020 04:55:00 4.8 C 5.97 g/m*3 4.8 C 0 km/h
349 24-02-2020 05:00:00 4.8 C 5.97 g/m*3 4.8 C 0 km/h
350 24-02-2020 05:05:00 4.7 C 6 g/m*3 4.7 C 0 km/h
Sensor: Nr:Datum:Temp:Abs-Feuchte:Windchill:Wind:
Aussen-T/F 351 24-02-2020 05:10:00 4.7 C 6 g/m*3 4.7 C 0 km/h
352 24-02-2020 05:15:00 4.7 C 6 g/m*3 4.7 C 0 km/h
353 24-02-2020 05:20:00 4.7 C 6 g/m*3 4.7 C 0 km/h
354 24-02-2020 05:25:00 4.7 C 6.06 g/m*3 4.7 C 0 km/h
355 24-02-2020 05:30:00 4.7 C 6.06 g/m*3 4.7 C 0 km/h
356 24-02-2020 05:35:00 4.7 C 6.06 g/m*3 4.7 C 0 km/h
357 24-02-2020 05:40:00 4.7 C 6.06 g/m*3 4.7 C 0 km/h
358 24-02-2020 05:45:00 4.6 C 6.02 g/m*3 4.6 C 0 km/h
359 24-02-2020 05:50:00 4.6 C 6.02 g/m*3 4.6 C 0 km/h
360 24-02-2020 05:55:00 4.6 C 6.02 g/m*3 4.6 C 0 km/h
361 24-02-2020 06:00:00 4.6 C 6.02 g/m*3 4.6 C 0 km/h
362 24-02-2020 06:05:00 4.6 C 6.02 g/m*3 4.6 C 0 km/h
363 24-02-2020 06:10:00 4.7 C 6.13 g/m*3 4.7 C 0 km/h
364 24-02-2020 06:15:00 4.7 C 6.13 g/m*3 4.7 C 0 km/h
365 24-02-2020 06:20:00 4.7 C 6.13 g/m*3 4.7 C 0 km/h
366 24-02-2020 06:25:00 4.7 C 6.13 g/m*3 4.7 C 0 km/h
367 24-02-2020 06:30:00 4.7 C 6.13 g/m*3 4.7 C 0 km/h
368 24-02-2020 06:35:00 4.7 C 6.13 g/m*3 4.7 C 0 km/h
369 24-02-2020 06:40:00 4.7 C 6.13 g/m*3 4.7 C 0 km/h
370 24-02-2020 06:45:00 4.7 C 6.13 g/m*3 4.7 C 0 km/h
371 24-02-2020 06:50:00 4.7 C 6.13 g/m*3 4.7 C 0 km/h
372 24-02-2020 06:55:00 4.7 C 6.13 g/m*3 4.7 C 0 km/h
373 24-02-2020 07:00:00 4.8 C 6.17 g/m*3 4.8 C 0 km/h
374 24-02-2020 07:05:00 4.8 C 6.17 g/m*3 4.8 C 1.6 km/h
375 24-02-2020 07:10:00 4.8 C 6.17 g/m*3 4.8 C 0 km/h
Sensor: Nr:Datum:Temp:Abs-Feuchte:Windchill:Wind:
Aussen-T/F 376 24-02-2020 07:15:00 4.8 C 6.17 g/m*3 4.8 C 0 km/h
377 24-02-2020 07:20:00 4.8 C 6.17 g/m*3 4.8 C 0 km/h
378 24-02-2020 07:25:00 4.9 C 6.21 g/m*3 4.9 C 0 km/h
379 24-02-2020 07:30:00 4.9 C 6.21 g/m*3 4.9 C 0 km/h
380 24-02-2020 07:35:00 4.9 C 6.21 g/m*3 4.9 C 0 km/h
381 24-02-2020 07:40:00 4.9 C 6.21 g/m*3 4.9 C 0 km/h
382 24-02-2020 07:45:00 4.9 C 6.21 g/m*3 4.9 C 0 km/h
383 24-02-2020 07:50:00 4.9 C 6.21 g/m*3 4.9 C 3.2 km/h
384 24-02-2020 07:55:00 4.9 C 6.14 g/m*3 4.9 C 1.6 km/h
385 24-02-2020 08:00:00 5.1 C 6.29 g/m*3 5.1 C 1.6 km/h
386 24-02-2020 08:05:00 5.1 C 6.29 g/m*3 5.1 C 1.6 km/h
387 24-02-2020 08:10:00 5.2 C 6.27 g/m*3 5.2 C 3.2 km/h
388 24-02-2020 08:15:00 5.3 C 6.31 g/m*3 3.46 C 8.1 km/h
389 24-02-2020 08:20:00 5.5 C 6.32 g/m*3 4.17 C 6.4 km/h
390 24-02-2020 08:25:00 5.6 C 6.36 g/m*3 4.29 C 6.4 km/h
391 24-02-2020 08:30:00 5.7 C 6.4 g/m*3 5.7 C 3.2 km/h
392 24-02-2020 08:35:00 5.8 C 6.45 g/m*3 5.8 C 3.2 km/h
393 24-02-2020 08:40:00 5.9 C 6.42 g/m*3 5.9 C 3.2 km/h
394 24-02-2020 08:45:00 6 C 6.39 g/m*3 6 C 1.6 km/h
395 24-02-2020 08:50:00 6.1 C 6.43 g/m*3 6.1 C 0 km/h
396 24-02-2020 08:55:00 6.1 C 6.36 g/m*3 6.1 C 1.6 km/h
397 24-02-2020 09:00:00 6.2 C 6.4 g/m*3 6.2 C 3.2 km/h
398 24-02-2020 09:05:00 6.3 C 6.44 g/m*3 6.3 C 0 km/h
399 24-02-2020 09:10:00 6.3 C 6.44 g/m*3 6.3 C 0 km/h
400 24-02-2020 09:15:00 6.4 C 6.41 g/m*3 6.4 C 3.2 km/h
Sensor: Nr:Datum:Temp:Abs-Feuchte:Windchill:Wind:
Aussen-T/F 401 24-02-2020 09:20:00 6.5 C 6.45 g/m*3 6.5 C 0 km/h
402 24-02-2020 09:25:00 6.6 C 6.49 g/m*3 6.6 C 0 km/h
403 24-02-2020 09:30:00 6.6 C 6.49 g/m*3 6.6 C 0 km/h
404 24-02-2020 09:35:00 6.6 C 6.49 g/m*3 6.6 C 3.2 km/h
405 24-02-2020 09:40:00 6.6 C 6.49 g/m*3 6.6 C 4.8 km/h
406 24-02-2020 09:45:00 6.6 C 6.49 g/m*3 6.6 C 0 km/h
407 24-02-2020 09:50:00 6.6 C 6.49 g/m*3 6.6 C 3.2 km/h
408 24-02-2020 09:55:00 6.6 C 6.49 g/m*3 6.6 C 4.8 km/h
409 24-02-2020 10:00:00 6.6 C 6.57 g/m*3 6.6 C 4.8 km/h
410 24-02-2020 10:05:00 6.6 C 6.57 g/m*3 6.6 C 3.2 km/h
411 24-02-2020 10:10:00 6.6 C 6.57 g/m*3 6.6 C 3.2 km/h
412 24-02-2020 10:15:00 6.7 C 6.69 g/m*3 6.7 C 0 km/h
413 24-02-2020 10:20:00 6.6 C 6.64 g/m*3 6.6 C 1.6 km/h
414 24-02-2020 10:25:00 6.6 C 6.72 g/m*3 6.6 C 0 km/h
415 24-02-2020 10:30:00 6.6 C 6.72 g/m*3 6.6 C 0 km/h
416 24-02-2020 10:35:00 6.5 C 6.75 g/m*3 6.5 C 0 km/h
417 24-02-2020 10:40:00 6.5 C 6.75 g/m*3 6.5 C 0 km/h
418 24-02-2020 10:45:00 6.4 C 6.71 g/m*3 6.4 C 1.6 km/h
419 24-02-2020 10:50:00 6.3 C 6.74 g/m*3 6.3 C 0 km/h
420 24-02-2020 10:55:00 6.3 C 6.81 g/m*3 6.3 C 3.2 km/h
421 24-02-2020 11:00:00 6.3 C 6.81 g/m*3 6.3 C 0 km/h
422 24-02-2020 11:05:00 6.3 C 6.88 g/m*3 6.3 C 0 km/h
423 24-02-2020 11:10:00 6.4 C 6.93 g/m*3 6.4 C 1.6 km/h
424 24-02-2020 11:15:00 6.4 C 6.93 g/m*3 6.4 C 4.8 km/h
425 24-02-2020 11:20:00 6.4 C 6.93 g/m*3 6.4 C 3.2 km/h
Sensor: Nr:Datum:Temp:Abs-Feuchte:Windchill:Wind:
Aussen-T/F 426 24-02-2020 11:25:00 6.4 C 6.93 g/m*3 6.4 C 1.6 km/h
427 24-02-2020 11:30:00 6.4 C 6.93 g/m*3 6.4 C 0 km/h
428 24-02-2020 11:35:00 6.4 C 6.93 g/m*3 6.4 C 0 km/h
429 24-02-2020 11:40:00 6.4 C 6.93 g/m*3 6.4 C 0 km/h
430 24-02-2020 11:45:00 6.4 C 6.93 g/m*3 6.4 C 0 km/h
431 24-02-2020 11:50:00 6.4 C 6.93 g/m*3 6.4 C 1.6 km/h
432 24-02-2020 11:55:00 6.5 C 6.97 g/m*3 6.5 C 1.6 km/h
433 24-02-2020 12:00:00 6.5 C 7.05 g/m*3 6.5 C 1.6 km/h
434 24-02-2020 12:05:00 6.6 C 7.1 g/m*3 6.6 C 0 km/h
435 24-02-2020 12:10:00 6.6 C 7.1 g/m*3 6.6 C 0 km/h
436 24-02-2020 12:15:00 6.7 C 7.14 g/m*3 6.7 C 0 km/h
437 24-02-2020 12:20:00 6.8 C 7.19 g/m*3 6.8 C 0 km/h
438 24-02-2020 12:25:00 6.8 C 7.27 g/m*3 6.8 C 1.6 km/h
439 24-02-2020 12:30:00 6.8 C 7.19 g/m*3 6.8 C 1.6 km/h
440 24-02-2020 12:35:00 6.9 C 7.31 g/m*3 6.9 C 3.2 km/h
441 24-02-2020 12:40:00 7.1 C 7.41 g/m*3 7.1 C 3.2 km/h
442 24-02-2020 12:45:00 7.2 C 7.46 g/m*3 7.2 C 3.2 km/h
443 24-02-2020 12:50:00 7.3 C 7.51 g/m*3 7.3 C 3.2 km/h
444 24-02-2020 12:55:00 7.3 C 7.51 g/m*3 7.3 C 0 km/h
445 24-02-2020 13:00:00 7.3 C 7.51 g/m*3 7.3 C 0 km/h
446 24-02-2020 13:05:00 7.4 C 7.55 g/m*3 7.4 C 0 km/h
447 24-02-2020 13:10:00 7.5 C 7.6 g/m*3 7.5 C 0 km/h
448 24-02-2020 13:15:00 7.7 C 7.7 g/m*3 7.7 C 0 km/h
449 24-02-2020 13:20:00 7.8 C 7.83 g/m*3 7.8 C 0 km/h
450 24-02-2020 13:25:00 7.9 C 7.8 g/m*3 7.9 C 0 km/h
Sensor: Nr:Datum:Temp:Abs-Feuchte:Windchill:Wind:
Aussen-T/F 451 24-02-2020 13:30:00 8.1 C 7.99 g/m*3 8.1 C 1.6 km/h
452 24-02-2020 13:35:00 8.1 C 7.9 g/m*3 8.1 C 0 km/h
453 24-02-2020 13:40:00 8.2 C 7.96 g/m*3 8.2 C 3.2 km/h
454 24-02-2020 13:45:00 8.2 C 7.96 g/m*3 8.2 C 0 km/h
455 24-02-2020 13:50:00 8.3 C 8.01 g/m*3 8.3 C 0 km/h
456 24-02-2020 13:55:00 8.4 C 8.06 g/m*3 8.4 C 0 km/h
457 24-02-2020 14:00:00 8.4 C 8.06 g/m*3 8.4 C 0 km/h
458 24-02-2020 14:05:00 8.6 C 8.25 g/m*3 8.6 C 0 km/h
459 24-02-2020 14:10:00 8.7 C 8.3 g/m*3 8.7 C 4.8 km/h
460 24-02-2020 14:15:00 8.9 C 8.41 g/m*3 8.9 C 3.2 km/h
461 24-02-2020 14:20:00 9.1 C 8.52 g/m*3 8.33 C 6.4 km/h
462 24-02-2020 14:25:00 9.2 C 8.57 g/m*3 9.2 C 4.8 km/h
463 24-02-2020 14:30:00 9.4 C 8.68 g/m*3 7.97 C 9.7 km/h
464 24-02-2020 14:35:00 9.6 C 8.79 g/m*3 9.6 C 3.2 km/h
465 24-02-2020 14:40:00 9.8 C 8.91 g/m*3 8.75 C 8.1 km/h
466 24-02-2020 14:45:00 10.1 C 9.08 g/m*3 9.1 C 8.1 km/h
467 24-02-2020 14:50:00 10.4 C 9.16 g/m*3 9.16 C 9.7 km/h
468 24-02-2020 14:55:00 10.7 C 9.23 g/m*3 8.65 C 16.1 km/h
469 24-02-2020 15:00:00 10.8 C 9.19 g/m*3 9.16 C 12.9 km/h
470 24-02-2020 15:05:00 10.9 C 9.25 g/m*3 9.28 C 12.9 km/h
471 24-02-2020 15:10:00 10.9 C 9.15 g/m*3 8.43 C 20.9 km/h
472 24-02-2020 15:15:00 10.9 C 9.15 g/m*3 8.73 C 17.7 km/h
473 24-02-2020 15:20:00 11 C 9.21 g/m*3 8.86 C 17.7 km/h
474 24-02-2020 15:25:00 11 C 9.21 g/m*3 8.86 C 17.7 km/h
475 24-02-2020 15:30:00 11.1 C 9.27 g/m*3 11.1 C 17.7 km/h
Sensor: Nr:Datum:Temp:Abs-Feuchte:Windchill:Wind:
Aussen-T/F 476 24-02-2020 15:35:00 11.2 C 9.33 g/m*3 11.2 C 16.1 km/h
477 24-02-2020 15:40:00 11.3 C 9.28 g/m*3 11.3 C 25.7 km/h
478 24-02-2020 15:45:00 11.4 C 9.34 g/m*3 11.4 C 25.7 km/h
479 24-02-2020 15:50:00 11.5 C 9.3 g/m*3 11.5 C 22.5 km/h
480 24-02-2020 15:55:00 11.6 C 9.35 g/m*3 11.6 C 24.1 km/h
481 24-02-2020 16:00:00 11.7 C 9.41 g/m*3 11.7 C 24.1 km/h
482 24-02-2020 16:05:00 11.7 C 9.41 g/m*3 11.7 C 16.1 km/h
483 24-02-2020 16:10:00 11.8 C 9.37 g/m*3 11.8 C 22.5 km/h
484 24-02-2020 16:15:00 11.9 C 9.43 g/m*3 11.9 C 19.3 km/h
485 24-02-2020 16:20:00 11.9 C 9.32 g/m*3 11.9 C 19.3 km/h
486 24-02-2020 16:25:00 12 C 9.38 g/m*3 12 C 25.7 km/h
487 24-02-2020 16:30:00 12.1 C 9.44 g/m*3 12.1 C 19.3 km/h
488 24-02-2020 16:35:00 12.1 C 9.44 g/m*3 12.1 C 16.1 km/h
489 24-02-2020 16:40:00 12 C 9.38 g/m*3 12 C 25.7 km/h
490 24-02-2020 16:45:00 11.9 C 9.32 g/m*3 11.9 C 27.4 km/h
491 24-02-2020 16:50:00 11.9 C 9.32 g/m*3 11.9 C 24.1 km/h
492 24-02-2020 16:55:00 11.8 C 9.26 g/m*3 11.8 C 19.3 km/h
493 24-02-2020 17:00:00 11.8 C 9.26 g/m*3 11.8 C 33.8 km/h
494 24-02-2020 17:05:00 11.8 C 9.16 g/m*3 11.8 C 16.1 km/h
495 24-02-2020 17:10:00 11.8 C 9.16 g/m*3 11.8 C 14.5 km/h
496 24-02-2020 17:15:00 11.7 C 9.1 g/m*3 11.7 C 24.1 km/h
497 24-02-2020 17:20:00 11.7 C 8.99 g/m*3 11.7 C 24.1 km/h
498 24-02-2020 17:25:00 11.7 C 8.99 g/m*3 11.7 C 25.7 km/h
499 24-02-2020 17:30:00 11.7 C 8.89 g/m*3 11.7 C 25.7 km/h
500 24-02-2020 17:35:00 11.6 C 8.73 g/m*3 11.6 C 25.7 km/h
Sensor: Nr:Datum:Temp:Abs-Feuchte:Windchill:Wind:
Aussen-T/F 501 24-02-2020 17:40:00 11.6 C 8.73 g/m*3 11.6 C 27.4 km/h
502 24-02-2020 17:45:00 11.6 C 8.73 g/m*3 11.6 C 17.7 km/h
503 24-02-2020 17:50:00 11.6 C 8.63 g/m*3 11.6 C 33.8 km/h
504 24-02-2020 17:55:00 11.6 C 8.63 g/m*3 11.6 C 30.6 km/h
505 24-02-2020 18:00:00 11.6 C 8.63 g/m*3 11.6 C 24.1 km/h
506 24-02-2020 18:05:00 11.5 C 8.47 g/m*3 11.5 C 27.4 km/h
507 24-02-2020 18:10:00 11.5 C 8.47 g/m*3 11.5 C 27.4 km/h
508 24-02-2020 18:15:00 11.5 C 8.47 g/m*3 11.5 C 19.3 km/h
509 24-02-2020 18:20:00 11.4 C 8.52 g/m*3 11.4 C 25.7 km/h
510 24-02-2020 18:25:00 11.4 C 8.52 g/m*3 11.4 C 16.1 km/h
511 24-02-2020 18:30:00 11.4 C 8.52 g/m*3 11.4 C 20.9 km/h
512 24-02-2020 18:35:00 11.3 C 8.47 g/m*3 11.3 C 24.1 km/h
513 24-02-2020 18:40:00 11.3 C 8.47 g/m*3 11.3 C 22.5 km/h
514 24-02-2020 18:45:00 11.2 C 8.41 g/m*3 11.2 C 19.3 km/h
515 24-02-2020 18:50:00 11.2 C 8.41 g/m*3 11.2 C 20.9 km/h
516 24-02-2020 18:55:00 11.2 C 8.41 g/m*3 11.2 C 25.7 km/h
517 24-02-2020 19:00:00 11.2 C 8.41 g/m*3 11.2 C 19.3 km/h
518 24-02-2020 19:05:00 11.2 C 8.31 g/m*3 11.2 C 19.3 km/h
519 24-02-2020 19:10:00 11.2 C 8.31 g/m*3 11.2 C 20.9 km/h
520 24-02-2020 19:15:00 11.2 C 8.31 g/m*3 11.2 C 9.7 km/h
521 24-02-2020 19:20:00 11.2 C 8.31 g/m*3 11.2 C 14.5 km/h
522 24-02-2020 19:25:00 11.2 C 8.31 g/m*3 11.2 C 25.7 km/h
523 24-02-2020 19:30:00 11.3 C 8.36 g/m*3 11.3 C 17.7 km/h
524 24-02-2020 19:35:00 11.3 C 8.26 g/m*3 11.3 C 12.9 km/h
525 24-02-2020 19:40:00 11.3 C 8.26 g/m*3 11.3 C 14.5 km/h
Sensor: Nr:Datum:Temp:Abs-Feuchte:Windchill:Wind:
Aussen-T/F 526 24-02-2020 19:45:00 11.3 C 8.26 g/m*3 11.3 C 17.7 km/h
527 24-02-2020 19:50:00 11.4 C 8.21 g/m*3 11.4 C 17.7 km/h
528 24-02-2020 19:55:00 11.4 C 8.21 g/m*3 11.4 C 20.9 km/h
529 24-02-2020 20:00:00 11.4 C 8.21 g/m*3 11.4 C 22.5 km/h
530 24-02-2020 20:05:00 11.4 C 8.21 g/m*3 11.4 C 16.1 km/h
531 24-02-2020 20:10:00 11.4 C 8.11 g/m*3 11.4 C 17.7 km/h
532 24-02-2020 20:15:00 11.4 C 8.11 g/m*3 11.4 C 25.7 km/h
533 24-02-2020 20:20:00 11.4 C 8.11 g/m*3 11.4 C 16.1 km/h
534 24-02-2020 20:25:00 11.4 C 8.01 g/m*3 11.4 C 22.5 km/h
535 24-02-2020 20:30:00 11.4 C 8.01 g/m*3 11.4 C 14.5 km/h
536 24-02-2020 20:35:00 11.5 C 8.06 g/m*3 11.5 C 22.5 km/h
537 24-02-2020 20:40:00 11.4 C 8.01 g/m*3 11.4 C 16.1 km/h
538 24-02-2020 20:45:00 11.4 C 8.01 g/m*3 11.4 C 16.1 km/h
539 24-02-2020 20:50:00 11.4 C 8.11 g/m*3 11.4 C 20.9 km/h
540 24-02-2020 20:55:00 11.4 C 8.11 g/m*3 11.4 C 17.7 km/h
541 24-02-2020 21:00:00 11.3 C 8.06 g/m*3 11.3 C 19.3 km/h
542 24-02-2020 21:05:00 11.3 C 8.16 g/m*3 11.3 C 19.3 km/h
543 24-02-2020 21:10:00 11.3 C 8.16 g/m*3 11.3 C 14.5 km/h
544 24-02-2020 21:15:00 11.2 C 8.21 g/m*3 11.2 C 12.9 km/h
545 24-02-2020 21:20:00 11.2 C 8.21 g/m*3 11.2 C 14.5 km/h
546 24-02-2020 21:25:00 11.1 C 8.16 g/m*3 11.1 C 16.1 km/h
547 24-02-2020 21:30:00 11.1 C 8.26 g/m*3 11.1 C 22.5 km/h
548 24-02-2020 21:35:00 11.1 C 8.26 g/m*3 11.1 C 17.7 km/h
549 24-02-2020 21:40:00 11.1 C 8.26 g/m*3 11.1 C 30.6 km/h
550 24-02-2020 21:45:00 11.1 C 8.26 g/m*3 11.1 C 17.7 km/h
Sensor: Nr:Datum:Temp:Abs-Feuchte:Windchill:Wind:
Aussen-T/F 551 24-02-2020 21:50:00 11.1 C 8.26 g/m*3 11.1 C 20.9 km/h
552 24-02-2020 21:55:00 11.1 C 8.26 g/m*3 11.1 C 12.9 km/h
553 24-02-2020 22:00:00 11.1 C 8.26 g/m*3 11.1 C 17.7 km/h
554 24-02-2020 22:05:00 11.1 C 8.26 g/m*3 11.1 C 22.5 km/h
555 24-02-2020 22:10:00 11.1 C 8.26 g/m*3 11.1 C 14.5 km/h
556 24-02-2020 22:15:00 11.1 C 8.26 g/m*3 11.1 C 25.7 km/h
557 24-02-2020 22:20:00 11.1 C 8.26 g/m*3 11.1 C 19.3 km/h
558 24-02-2020 22:25:00 11.2 C 8.31 g/m*3 11.2 C 20.9 km/h
559 24-02-2020 22:30:00 11.2 C 8.31 g/m*3 11.2 C 16.1 km/h
560 24-02-2020 22:35:00 11.2 C 8.31 g/m*3 11.2 C 17.7 km/h
561 24-02-2020 22:40:00 11.1 C 8.26 g/m*3 11.1 C 20.9 km/h
562 24-02-2020 22:45:00 11.2 C 8.31 g/m*3 11.2 C 17.7 km/h
563 24-02-2020 22:50:00 11.2 C 8.31 g/m*3 11.2 C 25.7 km/h
564 24-02-2020 22:55:00 11.2 C 8.31 g/m*3 11.2 C 24.1 km/h
565 24-02-2020 23:00:00 11.2 C 8.31 g/m*3 11.2 C 20.9 km/h
566 24-02-2020 23:05:00 11.2 C 8.31 g/m*3 11.2 C 25.7 km/h
567 24-02-2020 23:10:00 11.2 C 8.31 g/m*3 11.2 C 14.5 km/h
568 24-02-2020 23:15:00 11.2 C 8.41 g/m*3 11.2 C 19.3 km/h
569 24-02-2020 23:20:00 11.2 C 8.41 g/m*3 11.2 C 20.9 km/h
570 24-02-2020 23:25:00 11.2 C 8.41 g/m*3 11.2 C 20.9 km/h
571 24-02-2020 23:30:00 11.2 C 8.41 g/m*3 11.2 C 29 km/h
572 24-02-2020 23:35:00 11.2 C 8.41 g/m*3 11.2 C 19.3 km/h
573 24-02-2020 23:40:00 11.2 C 8.41 g/m*3 11.2 C 24.1 km/h
574 24-02-2020 23:45:00 11.1 C 8.36 g/m*3 11.1 C 20.9 km/h
575 24-02-2020 23:50:00 11.1 C 8.46 g/m*3 11.1 C 22.5 km/h
Sensor: Nr:Datum:Temp:Abs-Feuchte:Windchill:Wind:
Aussen-T/F 576 24-02-2020 23:55:00 11.1 C 8.46 g/m*3 11.1 C 24.1 km/h
577 25-02-2020 00:00:00 11.1 C 8.46 g/m*3 11.1 C 14.5 km/h
578 25-02-2020 00:05:00 11 C 8.41 g/m*3 9.02 C 16.1 km/h
579 25-02-2020 00:10:00 11 C 8.51 g/m*3 8.86 C 17.7 km/h
580 25-02-2020 00:15:00 11 C 8.51 g/m*3 9.63 C 11.3 km/h
581 25-02-2020 00:20:00 10.9 C 8.45 g/m*3 9.51 C 11.3 km/h
582 25-02-2020 00:25:00 10.9 C 8.45 g/m*3 8.9 C 16.1 km/h
583 25-02-2020 00:30:00 10.8 C 8.4 g/m*3 9.93 C 8.1 km/h
584 25-02-2020 00:35:00 10.8 C 8.5 g/m*3 10.8 C 4.8 km/h
585 25-02-2020 00:40:00 10.8 C 8.5 g/m*3 8.96 C 14.5 km/h
586 25-02-2020 00:45:00 10.8 C 8.5 g/m*3 8.61 C 17.7 km/h
587 25-02-2020 00:50:00 10.8 C 8.5 g/m*3 8.45 C 19.3 km/h
588 25-02-2020 00:55:00 10.8 C 8.5 g/m*3 9.16 C 12.9 km/h
589 25-02-2020 01:00:00 10.8 C 8.5 g/m*3 9.16 C 12.9 km/h
590 25-02-2020 01:05:00 10.8 C 8.5 g/m*3 9.16 C 12.9 km/h
591 25-02-2020 01:10:00 10.8 C 8.5 g/m*3 8.96 C 14.5 km/h
592 25-02-2020 01:15:00 10.8 C 8.5 g/m*3 9.38 C 11.3 km/h
593 25-02-2020 01:20:00 10.8 C 8.5 g/m*3 9.16 C 12.9 km/h
594 25-02-2020 01:25:00 10.8 C 8.5 g/m*3 8.96 C 14.5 km/h
595 25-02-2020 01:30:00 10.8 C 8.5 g/m*3 8.78 C 16.1 km/h
596 25-02-2020 01:35:00 10.8 C 8.5 g/m*3 9.16 C 12.9 km/h
597 25-02-2020 01:40:00 10.8 C 8.5 g/m*3 9.38 C 11.3 km/h
598 25-02-2020 01:45:00 10.8 C 8.5 g/m*3 8.45 C 19.3 km/h
599 25-02-2020 01:50:00 10.8 C 8.5 g/m*3 9.38 C 11.3 km/h
600 25-02-2020 01:55:00 10.8 C 8.5 g/m*3 8.3 C 20.9 km/h
Sensor: Nr:Datum:Temp:Abs-Feuchte:Windchill:Wind:
Aussen-T/F 601 25-02-2020 02:00:00 10.8 C 8.5 g/m*3 7.92 C 25.7 km/h
602 25-02-2020 02:05:00 10.8 C 8.5 g/m*3 9.16 C 12.9 km/h
603 25-02-2020 02:10:00 10.8 C 8.5 g/m*3 9.16 C 12.9 km/h
604 25-02-2020 02:15:00 10.7 C 8.45 g/m*3 9.26 C 11.3 km/h
605 25-02-2020 02:20:00 10.7 C 8.55 g/m*3 9.26 C 11.3 km/h
606 25-02-2020 02:25:00 10.7 C 8.55 g/m*3 9.52 C 9.7 km/h
607 25-02-2020 02:30:00 10.7 C 8.55 g/m*3 9.04 C 12.9 km/h
608 25-02-2020 02:35:00 10.7 C 8.55 g/m*3 9.26 C 11.3 km/h
609 25-02-2020 02:40:00 10.7 C 8.55 g/m*3 9.04 C 12.9 km/h
610 25-02-2020 02:45:00 10.7 C 8.55 g/m*3 9.04 C 12.9 km/h
611 25-02-2020 02:50:00 10.6 C 8.49 g/m*3 9.4 C 9.7 km/h
612 25-02-2020 02:55:00 10.6 C 8.49 g/m*3 8.92 C 12.9 km/h
613 25-02-2020 03:00:00 10.6 C 8.49 g/m*3 9.14 C 11.3 km/h
614 25-02-2020 03:05:00 10.6 C 8.49 g/m*3 9.4 C 9.7 km/h
615 25-02-2020 03:10:00 10.5 C 8.53 g/m*3 9.28 C 9.7 km/h
616 25-02-2020 03:15:00 10.4 C 8.48 g/m*3 9.46 C 8.1 km/h
617 25-02-2020 03:20:00 10.4 C 8.48 g/m*3 9.46 C 8.1 km/h
618 25-02-2020 03:25:00 10.3 C 8.43 g/m*3 8.78 C 11.3 km/h
619 25-02-2020 03:30:00 10.3 C 8.43 g/m*3 9.34 C 8.1 km/h
620 25-02-2020 03:35:00 10.3 C 8.43 g/m*3 8.55 C 12.9 km/h
621 25-02-2020 03:40:00 10.3 C 8.43 g/m*3 8.55 C 12.9 km/h
622 25-02-2020 03:45:00 10.3 C 8.43 g/m*3 9.04 C 9.7 km/h
623 25-02-2020 03:50:00 10.3 C 8.43 g/m*3 9.72 C 6.4 km/h
624 25-02-2020 03:55:00 10.3 C 8.43 g/m*3 8.34 C 14.5 km/h
625 25-02-2020 04:00:00 10.3 C 8.43 g/m*3 8.34 C 14.5 km/h
Sensor: Nr:Datum:Temp:Abs-Feuchte:Windchill:Wind:
Aussen-T/F 626 25-02-2020 04:05:00 10.3 C 8.43 g/m*3 9.04 C 9.7 km/h
627 25-02-2020 04:10:00 10.3 C 8.43 g/m*3 8.34 C 14.5 km/h
628 25-02-2020 04:15:00 10.3 C 8.43 g/m*3 9.04 C 9.7 km/h
629 25-02-2020 04:20:00 10.3 C 8.43 g/m*3 9.34 C 8.1 km/h
630 25-02-2020 04:25:00 10.3 C 8.43 g/m*3 7.67 C 20.9 km/h
631 25-02-2020 04:30:00 10.3 C 8.43 g/m*3 8.34 C 14.5 km/h
632 25-02-2020 04:35:00 10.3 C 8.33 g/m*3 8.78 C 11.3 km/h
633 25-02-2020 04:40:00 10.3 C 8.33 g/m*3 8.78 C 11.3 km/h
634 25-02-2020 04:45:00 10.3 C 8.33 g/m*3 8.16 C 16.1 km/h
635 25-02-2020 04:50:00 10.3 C 8.33 g/m*3 8.78 C 11.3 km/h
636 25-02-2020 04:55:00 10.3 C 8.33 g/m*3 8.55 C 12.9 km/h
637 25-02-2020 05:00:00 10.2 C 8.28 g/m*3 8.22 C 14.5 km/h
638 25-02-2020 05:05:00 10.2 C 8.28 g/m*3 8.22 C 14.5 km/h
639 25-02-2020 05:10:00 10.2 C 8.28 g/m*3 8.22 C 14.5 km/h
640 25-02-2020 05:15:00 10.2 C 8.28 g/m*3 8.92 C 9.7 km/h
641 25-02-2020 05:20:00 10.2 C 8.28 g/m*3 8.22 C 14.5 km/h
642 25-02-2020 05:25:00 10.1 C 8.23 g/m*3 8.31 C 12.9 km/h
643 25-02-2020 05:30:00 10.1 C 8.32 g/m*3 8.1 C 14.5 km/h
644 25-02-2020 05:35:00 10.1 C 8.32 g/m*3 7.91 C 16.1 km/h
645 25-02-2020 05:40:00 10.1 C 8.23 g/m*3 7.73 C 17.7 km/h
646 25-02-2020 05:45:00 10.1 C 8.23 g/m*3 8.54 C 11.3 km/h
647 25-02-2020 05:50:00 10.1 C 8.23 g/m*3 8.54 C 11.3 km/h
648 25-02-2020 05:55:00 10.1 C 8.23 g/m*3 8.31 C 12.9 km/h
649 25-02-2020 06:00:00 10.1 C 8.23 g/m*3 8.1 C 14.5 km/h
650 25-02-2020 06:05:00 10.1 C 8.23 g/m*3 7.28 C 22.5 km/h
Sensor: Nr:Datum:Temp:Abs-Feuchte:Windchill:Wind:
Aussen-T/F 651 25-02-2020 06:10:00 10.1 C 8.23 g/m*3 7.91 C 16.1 km/h
652 25-02-2020 06:15:00 10 C 8.17 g/m*3 7.61 C 17.7 km/h
653 25-02-2020 06:20:00 10 C 8.17 g/m*3 7.15 C 22.5 km/h
654 25-02-2020 06:25:00 9.9 C 8.12 g/m*3 7.32 C 19.3 km/h
655 25-02-2020 06:30:00 9.9 C 8.12 g/m*3 7.66 C 16.1 km/h
656 25-02-2020 06:35:00 9.9 C 8.12 g/m*3 7.66 C 16.1 km/h
657 25-02-2020 06:40:00 9.8 C 8.07 g/m*3 6.89 C 22.5 km/h
658 25-02-2020 06:45:00 9.8 C 8.07 g/m*3 7.54 C 16.1 km/h
659 25-02-2020 06:50:00 9.8 C 8.16 g/m*3 6.17 C 32.2 km/h
660 25-02-2020 06:55:00 9.7 C 8.11 g/m*3 6.04 C 32.2 km/h
661 25-02-2020 07:00:00 9.7 C 8.11 g/m*3 6.5 C 25.7 km/h
662 25-02-2020 07:05:00 9.7 C 8.11 g/m*3 7.07 C 19.3 km/h
663 25-02-2020 07:10:00 9.7 C 8.11 g/m*3 6.77 C 22.5 km/h
664 25-02-2020 07:15:00 9.6 C 8.06 g/m*3 7.94 C 11.3 km/h
665 25-02-2020 07:20:00 9.6 C 8.06 g/m*3 7.48 C 14.5 km/h
666 25-02-2020 07:25:00 9.6 C 8.15 g/m*3 7.7 C 12.9 km/h
667 25-02-2020 07:30:00 9.5 C 8.1 g/m*3 7.82 C 11.3 km/h
668 25-02-2020 07:35:00 9.5 C 8.1 g/m*3 8.09 C 9.7 km/h
669 25-02-2020 07:40:00 9.4 C 8.14 g/m*3 7.24 C 14.5 km/h
670 25-02-2020 07:45:00 9.3 C 8.09 g/m*3 7.85 C 9.7 km/h
671 25-02-2020 07:50:00 9.3 C 8.18 g/m*3 7.85 C 9.7 km/h
672 25-02-2020 07:55:00 9.2 C 8.13 g/m*3 7.73 C 9.7 km/h
673 25-02-2020 08:00:00 9.1 C 8.16 g/m*3 7.61 C 9.7 km/h
674 25-02-2020 08:05:00 9.1 C 8.16 g/m*3 7.93 C 8.1 km/h
675 25-02-2020 08:10:00 8.9 C 8.15 g/m*3 7.69 C 8.1 km/h
Sensor: Nr:Datum:Temp:Abs-Feuchte:Windchill:Wind:
Aussen-T/F 676 25-02-2020 08:15:00 8.9 C 8.15 g/m*3 7.69 C 8.1 km/h
677 25-02-2020 08:20:00 8.8 C 8.09 g/m*3 7.25 C 9.7 km/h
678 25-02-2020 08:25:00 8.8 C 8.18 g/m*3 7.98 C 6.4 km/h
679 25-02-2020 08:30:00 8.7 C 8.13 g/m*3 7.13 C 9.7 km/h
680 25-02-2020 08:35:00 8.7 C 8.13 g/m*3 6.85 C 11.3 km/h
681 25-02-2020 08:40:00 8.7 C 8.13 g/m*3 7.46 C 8.1 km/h
682 25-02-2020 08:45:00 8.7 C 8.13 g/m*3 8.7 C 4.8 km/h
683 25-02-2020 08:50:00 8.7 C 8.13 g/m*3 8.7 C 3.2 km/h
684 25-02-2020 08:55:00 8.7 C 8.13 g/m*3 8.7 C 4.8 km/h
685 25-02-2020 09:00:00 8.7 C 8.13 g/m*3 8.7 C 4.8 km/h
686 25-02-2020 09:05:00 8.8 C 8.18 g/m*3 8.8 C 3.2 km/h
687 25-02-2020 09:10:00 8.8 C 8.18 g/m*3 8.8 C 4.8 km/h
688 25-02-2020 09:15:00 8.7 C 8.13 g/m*3 8.7 C 4.8 km/h
689 25-02-2020 09:20:00 8.7 C 8.13 g/m*3 8.7 C 1.6 km/h
690 25-02-2020 09:25:00 8.7 C 8.13 g/m*3 7.87 C 6.4 km/h
691 25-02-2020 09:30:00 8.7 C 8.13 g/m*3 7.87 C 6.4 km/h
692 25-02-2020 09:35:00 8.7 C 8.13 g/m*3 8.7 C 4.8 km/h
693 25-02-2020 09:40:00 8.8 C 8.18 g/m*3 8.8 C 1.6 km/h
694 25-02-2020 09:45:00 8.8 C 8.09 g/m*3 7.25 C 9.7 km/h
695 25-02-2020 09:50:00 8.7 C 7.96 g/m*3 7.13 C 9.7 km/h
696 25-02-2020 09:55:00 8.5 C 7.68 g/m*3 6.36 C 12.9 km/h
697 25-02-2020 10:00:00 8.4 C 7.47 g/m*3 5.8 C 16.1 km/h
698 25-02-2020 10:05:00 8.4 C 7.21 g/m*3 6.01 C 14.5 km/h
699 25-02-2020 10:10:00 8.4 C 7.13 g/m*3 6.49 C 11.3 km/h
700 25-02-2020 10:15:00 8.4 C 7.13 g/m*3 6.01 C 14.5 km/h
Sensor: Nr:Datum:Temp:Abs-Feuchte:Windchill:Wind:
Aussen-T/F 701 25-02-2020 10:20:00 8.4 C 7.13 g/m*3 6.49 C 11.3 km/h
702 25-02-2020 10:25:00 8.4 C 7.21 g/m*3 7.11 C 8.1 km/h
703 25-02-2020 10:30:00 8.4 C 7.21 g/m*3 6.78 C 9.7 km/h
704 25-02-2020 10:35:00 8.6 C 7.22 g/m*3 6.25 C 14.5 km/h
705 25-02-2020 10:40:00 8.7 C 7.18 g/m*3 6.38 C 14.5 km/h
706 25-02-2020 10:45:00 8.8 C 7.14 g/m*3 6.3 C 16.1 km/h
707 25-02-2020 10:50:00 9 C 7.23 g/m*3 6.54 C 16.1 km/h
708 25-02-2020 10:55:00 9.2 C 7.32 g/m*3 7.21 C 12.9 km/h
709 25-02-2020 11:00:00 9.3 C 7.19 g/m*3 6.56 C 19.3 km/h
710 25-02-2020 11:05:00 9.3 C 7.1 g/m*3 7.12 C 14.5 km/h
711 25-02-2020 11:10:00 9.2 C 7.05 g/m*3 6.99 C 14.5 km/h
712 25-02-2020 11:15:00 8.9 C 7.01 g/m*3 6.62 C 14.5 km/h
713 25-02-2020 11:20:00 8.7 C 6.92 g/m*3 6.6 C 12.9 km/h
714 25-02-2020 11:25:00 8.6 C 6.79 g/m*3 6.05 C 16.1 km/h
715 25-02-2020 11:30:00 8.6 C 6.7 g/m*3 7.01 C 9.7 km/h
716 25-02-2020 11:35:00 8.5 C 6.57 g/m*3 6.13 C 14.5 km/h
717 25-02-2020 11:40:00 8.4 C 6.62 g/m*3 7.11 C 8.1 km/h
718 25-02-2020 11:45:00 8.4 C 6.62 g/m*3 6.78 C 9.7 km/h
719 25-02-2020 11:50:00 8.4 C 6.62 g/m*3 6.24 C 12.9 km/h
720 25-02-2020 11:55:00 8.5 C 6.57 g/m*3 7.22 C 8.1 km/h
721 25-02-2020 12:00:00 8.6 C 6.53 g/m*3 7.34 C 8.1 km/h
722 25-02-2020 12:05:00 8.7 C 6.75 g/m*3 8.7 C 3.2 km/h
723 25-02-2020 12:10:00 8.9 C 6.66 g/m*3 7.37 C 9.7 km/h
724 25-02-2020 12:15:00 9.2 C 6.61 g/m*3 8.05 C 8.1 km/h
725 25-02-2020 12:20:00 9.6 C 6.78 g/m*3 8.21 C 9.7 km/h
Sensor: Nr:Datum:Temp:Abs-Feuchte:Windchill:Wind:
Aussen-T/F 726 25-02-2020 12:25:00 9.8 C 6.49 g/m*3 8.45 C 9.7 km/h
727 25-02-2020 12:30:00 9.9 C 6.44 g/m*3 7.16 C 20.9 km/h
728 25-02-2020 12:35:00 9.9 C 6.44 g/m*3 7.48 C 17.7 km/h
729 25-02-2020 12:40:00 9.9 C 6.44 g/m*3 7.02 C 22.5 km/h
730 25-02-2020 12:45:00 9.9 C 6.35 g/m*3 7.48 C 17.7 km/h
731 25-02-2020 12:50:00 9.9 C 6.35 g/m*3 7.16 C 20.9 km/h
732 25-02-2020 12:55:00 9.9 C 6.63 g/m*3 7.48 C 17.7 km/h
733 25-02-2020 13:00:00 9.9 C 6.63 g/m*3 7.48 C 17.7 km/h
734 25-02-2020 13:05:00 9.9 C 6.72 g/m*3 7.85 C 14.5 km/h
735 25-02-2020 13:10:00 9.9 C 6.82 g/m*3 7.48 C 17.7 km/h
736 25-02-2020 13:15:00 10.1 C 6.9 g/m*3 8.1 C 14.5 km/h
737 25-02-2020 13:20:00 10.2 C 6.85 g/m*3 7.86 C 17.7 km/h
738 25-02-2020 13:25:00 10.3 C 6.9 g/m*3 8.55 C 12.9 km/h
739 25-02-2020 13:30:00 10.2 C 6.76 g/m*3 7.7 C 19.3 km/h
740 25-02-2020 13:35:00 10.2 C 6.66 g/m*3 8.22 C 14.5 km/h
741 25-02-2020 13:40:00 10.3 C 6.51 g/m*3 7.98 C 17.7 km/h
742 25-02-2020 13:45:00 10.3 C 6.51 g/m*3 7.27 C 25.7 km/h
743 25-02-2020 13:50:00 10.3 C 6.51 g/m*3 7.67 C 20.9 km/h
744 25-02-2020 13:55:00 10.2 C 6.38 g/m*3 7.7 C 19.3 km/h
745 25-02-2020 14:00:00 10.3 C 6.7 g/m*3 7.98 C 17.7 km/h
746 25-02-2020 14:05:00 10.5 C 6.5 g/m*3 8.23 C 17.7 km/h
747 25-02-2020 14:10:00 10.5 C 6.5 g/m*3 8.59 C 14.5 km/h
748 25-02-2020 14:15:00 10.4 C 6.17 g/m*3 7.95 C 19.3 km/h
749 25-02-2020 14:20:00 10.3 C 6.22 g/m*3 7.53 C 22.5 km/h
750 25-02-2020 14:25:00 10.2 C 6.38 g/m*3 8.03 C 16.1 km/h
Sensor: Nr:Datum:Temp:Abs-Feuchte:Windchill:Wind:
Aussen-T/F 751 25-02-2020 14:30:00 10.1 C 6.34 g/m*3 7.28 C 22.5 km/h
752 25-02-2020 14:35:00 10.1 C 6.43 g/m*3 7.91 C 16.1 km/h
753 25-02-2020 14:40:00 10.2 C 6.38 g/m*3 7.7 C 19.3 km/h
754 25-02-2020 14:45:00 10.3 C 6.42 g/m*3 7.67 C 20.9 km/h
755 25-02-2020 14:50:00 10.3 C 6.51 g/m*3 8.55 C 12.9 km/h
756 25-02-2020 14:55:00 10.2 C 6.57 g/m*3 8.03 C 16.1 km/h
757 25-02-2020 15:00:00 10.1 C 6.62 g/m*3 8.54 C 11.3 km/h
758 25-02-2020 15:05:00 9.9 C 6.63 g/m*3 8.87 C 8.1 km/h
759 25-02-2020 15:10:00 9.8 C 6.49 g/m*3 8.75 C 8.1 km/h
760 25-02-2020 15:15:00 9.8 C 6.59 g/m*3 8.75 C 8.1 km/h
761 25-02-2020 15:20:00 9.9 C 6.54 g/m*3 8.06 C 12.9 km/h
762 25-02-2020 15:25:00 10 C 6.48 g/m*3 7.98 C 14.5 km/h
763 25-02-2020 15:30:00 10.1 C 6.34 g/m*3 7.28 C 22.5 km/h
764 25-02-2020 15:35:00 10.2 C 6.19 g/m*3 7.7 C 19.3 km/h
765 25-02-2020 15:40:00 10.3 C 6.22 g/m*3 7.98 C 17.7 km/h
766 25-02-2020 15:45:00 10.4 C 6.17 g/m*3 7.95 C 19.3 km/h
767 25-02-2020 15:50:00 10.4 C 6.36 g/m*3 9.16 C 9.7 km/h
768 25-02-2020 15:55:00 10.6 C 6.44 g/m*3 9.14 C 11.3 km/h
769 25-02-2020 16:00:00 10.7 C 6.48 g/m*3 9.52 C 9.7 km/h
770 25-02-2020 16:05:00 10.6 C 6.54 g/m*3 9.69 C 8.1 km/h
771 25-02-2020 16:10:00 10.4 C 6.46 g/m*3 8.67 C 12.9 km/h
772 25-02-2020 16:15:00 10.3 C 6.42 g/m*3 9.04 C 9.7 km/h
773 25-02-2020 16:20:00 10.3 C 6.42 g/m*3 8.78 C 11.3 km/h
774 25-02-2020 16:25:00 10.2 C 6.28 g/m*3 8.66 C 11.3 km/h
775 25-02-2020 16:30:00 10.2 C 6.19 g/m*3 8.22 C 14.5 km/h
Sensor: Nr:Datum:Temp:Abs-Feuchte:Windchill:Wind:
Aussen-T/F 776 25-02-2020 16:35:00 10.2 C 6.19 g/m*3 8.43 C 12.9 km/h
777 25-02-2020 16:40:00 10.3 C 6.32 g/m*3 8.78 C 11.3 km/h
778 25-02-2020 16:45:00 10.6 C 6.34 g/m*3 8.92 C 12.9 km/h
779 25-02-2020 16:50:00 10.8 C 6.33 g/m*3 8.61 C 17.7 km/h
780 25-02-2020 16:55:00 10.6 C 6.05 g/m*3 8.71 C 14.5 km/h
781 25-02-2020 17:00:00 10.3 C 6.13 g/m*3 7.98 C 17.7 km/h
782 25-02-2020 17:05:00 10.2 C 6.28 g/m*3 8.43 C 12.9 km/h
783 25-02-2020 17:10:00 10.1 C 6.34 g/m*3 9.48 C 6.4 km/h
784 25-02-2020 17:15:00 10.2 C 6.57 g/m*3 9.6 C 6.4 km/h
785 25-02-2020 17:20:00 10.3 C 6.51 g/m*3 8.78 C 11.3 km/h
786 25-02-2020 17:25:00 10.2 C 6.57 g/m*3 8.66 C 11.3 km/h
787 25-02-2020 17:30:00 10 C 6.48 g/m*3 7.78 C 16.1 km/h
788 25-02-2020 17:35:00 9.8 C 6.31 g/m*3 7.36 C 17.7 km/h
789 25-02-2020 17:40:00 9.6 C 6.32 g/m*3 7.48 C 14.5 km/h
790 25-02-2020 17:45:00 9.4 C 6.33 g/m*3 7.7 C 11.3 km/h
791 25-02-2020 17:50:00 9.2 C 6.25 g/m*3 7.73 C 9.7 km/h
792 25-02-2020 17:55:00 9.2 C 6.43 g/m*3 6.99 C 14.5 km/h
793 25-02-2020 18:00:00 9.1 C 6.39 g/m*3 6.87 C 14.5 km/h
794 25-02-2020 18:05:00 9.1 C 6.39 g/m*3 6.87 C 14.5 km/h
795 25-02-2020 18:10:00 9.1 C 6.3 g/m*3 7.09 C 12.9 km/h
796 25-02-2020 18:15:00 9 C 6.35 g/m*3 7.21 C 11.3 km/h
797 25-02-2020 18:20:00 8.9 C 6.31 g/m*3 7.69 C 8.1 km/h
798 25-02-2020 18:25:00 8.8 C 6.35 g/m*3 8.8 C 4.8 km/h
799 25-02-2020 18:30:00 8.8 C 6.35 g/m*3 8.8 C 4.8 km/h
800 25-02-2020 18:35:00 8.7 C 6.4 g/m*3 7.46 C 8.1 km/h
Sensor: Nr:Datum:Temp:Abs-Feuchte:Windchill:Wind:
Aussen-T/F 801 25-02-2020 18:40:00 8.7 C 6.4 g/m*3 7.46 C 8.1 km/h
802 25-02-2020 18:45:00 8.7 C 6.4 g/m*3 7.46 C 8.1 km/h
803 25-02-2020 18:50:00 8.7 C 6.4 g/m*3 6.38 C 14.5 km/h
804 25-02-2020 18:55:00 8.6 C 6.44 g/m*3 6.48 C 12.9 km/h
805 25-02-2020 19:00:00 8.3 C 6.49 g/m*3 6.66 C 9.7 km/h
806 25-02-2020 19:05:00 8.1 C 6.57 g/m*3 8.1 C 4.8 km/h
807 25-02-2020 19:10:00 7.8 C 6.45 g/m*3 6.4 C 8.1 km/h
808 25-02-2020 19:15:00 7.6 C 6.53 g/m*3 7.6 C 3.2 km/h
809 25-02-2020 19:20:00 7.4 C 6.44 g/m*3 7.4 C 4.8 km/h
810 25-02-2020 19:25:00 7.3 C 6.4 g/m*3 7.3 C 3.2 km/h
811 25-02-2020 19:30:00 7.2 C 6.44 g/m*3 7.2 C 3.2 km/h
812 25-02-2020 19:35:00 7.1 C 6.47 g/m*3 7.1 C 0 km/h
813 25-02-2020 19:40:00 7.1 C 6.63 g/m*3 7.1 C 0 km/h
814 25-02-2020 19:45:00 7.1 C 6.71 g/m*3 7.1 C 0 km/h
815 25-02-2020 19:50:00 7 C 6.66 g/m*3 7 C 0 km/h
816 25-02-2020 19:55:00 6.9 C 6.7 g/m*3 6.9 C 1.6 km/h
817 25-02-2020 20:00:00 6.8 C 6.65 g/m*3 6.8 C 1.6 km/h
818 25-02-2020 20:05:00 6.7 C 6.69 g/m*3 6.7 C 0 km/h
819 25-02-2020 20:10:00 6.6 C 6.72 g/m*3 6.6 C 3.2 km/h
820 25-02-2020 20:15:00 6.5 C 6.67 g/m*3 6.5 C 1.6 km/h
821 25-02-2020 20:20:00 6.4 C 6.71 g/m*3 6.4 C 0 km/h
822 25-02-2020 20:25:00 6.4 C 6.71 g/m*3 6.4 C 1.6 km/h
823 25-02-2020 20:30:00 6.4 C 6.71 g/m*3 6.4 C 3.2 km/h
824 25-02-2020 20:35:00 6.4 C 6.71 g/m*3 6.4 C 3.2 km/h
825 25-02-2020 20:40:00 6.4 C 6.71 g/m*3 6.4 C 4.8 km/h
Sensor: Nr:Datum:Temp:Abs-Feuchte:Windchill:Wind:
Aussen-T/F 826 25-02-2020 20:45:00 6.5 C 6.75 g/m*3 6.5 C 3.2 km/h
827 25-02-2020 20:50:00 6.6 C 6.79 g/m*3 4.63 C 9.7 km/h
828 25-02-2020 20:55:00 6.8 C 6.81 g/m*3 4.04 C 14.5 km/h
829 25-02-2020 21:00:00 6.8 C 6.81 g/m*3 5.22 C 8.1 km/h
830 25-02-2020 21:05:00 6.8 C 6.73 g/m*3 6.8 C 3.2 km/h
831 25-02-2020 21:10:00 6.7 C 6.69 g/m*3 6.7 C 3.2 km/h
832 25-02-2020 21:15:00 6.6 C 6.72 g/m*3 6.6 C 1.6 km/h
833 25-02-2020 21:20:00 6.4 C 6.63 g/m*3 5.21 C 6.4 km/h
834 25-02-2020 21:25:00 6.3 C 6.59 g/m*3 6.3 C 3.2 km/h
835 25-02-2020 21:30:00 6.3 C 6.66 g/m*3 6.3 C 4.8 km/h
836 25-02-2020 21:35:00 6.2 C 6.62 g/m*3 6.2 C 1.6 km/h
837 25-02-2020 21:40:00 6.1 C 6.58 g/m*3 6.1 C 4.8 km/h
838 25-02-2020 21:45:00 6.1 C 6.58 g/m*3 3.43 C 12.9 km/h
839 25-02-2020 21:50:00 6.1 C 6.28 g/m*3 2.18 C 22.5 km/h
840 25-02-2020 21:55:00 6.2 C 6.1 g/m*3 3.07 C 16.1 km/h
841 25-02-2020 22:00:00 6.2 C 6.03 g/m*3 3.56 C 12.9 km/h
842 25-02-2020 22:05:00 6.2 C 5.88 g/m*3 2.48 C 20.9 km/h
843 25-02-2020 22:10:00 6.2 C 5.81 g/m*3 2.15 C 24.1 km/h
844 25-02-2020 22:15:00 6.2 C 5.74 g/m*3 2.86 C 17.7 km/h
845 25-02-2020 22:20:00 6.1 C 5.77 g/m*3 1.86 C 25.7 km/h
846 25-02-2020 22:25:00 6 C 5.59 g/m*3 2.82 C 16.1 km/h
847 25-02-2020 22:30:00 5.9 C 5.55 g/m*3 2.93 C 14.5 km/h
848 25-02-2020 22:35:00 5.8 C 5.52 g/m*3 3.07 C 12.9 km/h
849 25-02-2020 22:40:00 5.7 C 5.55 g/m*3 5.7 C 3.2 km/h
850 25-02-2020 22:45:00 5.5 C 5.55 g/m*3 5.5 C 4.8 km/h
Sensor: Nr:Datum:Temp:Abs-Feuchte:Windchill:Wind:
Aussen-T/F 851 25-02-2020 22:50:00 5.3 C 5.54 g/m*3 3.46 C 8.1 km/h
852 25-02-2020 22:55:00 5.2 C 5.51 g/m*3 3.82 C 6.4 km/h
853 25-02-2020 23:00:00 5 C 5.5 g/m*3 3.59 C 6.4 km/h
854 25-02-2020 23:05:00 4.9 C 5.47 g/m*3 2.99 C 8.1 km/h
855 25-02-2020 23:10:00 4.8 C 5.5 g/m*3 3.36 C 6.4 km/h
856 25-02-2020 23:15:00 4.7 C 5.53 g/m*3 4.7 C 1.6 km/h
857 25-02-2020 23:20:00 4.6 C 5.49 g/m*3 4.6 C 3.2 km/h
858 25-02-2020 23:25:00 4.6 C 5.56 g/m*3 3.13 C 6.4 km/h
859 25-02-2020 23:30:00 4.7 C 5.6 g/m*3 4.7 C 4.8 km/h
860 25-02-2020 23:35:00 4.8 C 5.63 g/m*3 4.8 C 4.8 km/h
861 25-02-2020 23:40:00 4.9 C 5.6 g/m*3 2.61 C 9.7 km/h
862 25-02-2020 23:45:00 5.2 C 5.65 g/m*3 3.34 C 8.1 km/h
863 25-02-2020 23:50:00 5.4 C 5.65 g/m*3 3.2 C 9.7 km/h
864 25-02-2020 23:55:00 5.6 C 5.73 g/m*3 3.11 C 11.3 km/h
865 26-02-2020 00:00:00 5.7 C 5.76 g/m*3 5.7 C 4.8 km/h
866 26-02-2020 00:05:00 5.7 C 5.76 g/m*3 5.7 C 1.6 km/h
867 26-02-2020 00:10:00 5.7 C 5.84 g/m*3 5.7 C 1.6 km/h
868 26-02-2020 00:15:00 5.7 C 5.84 g/m*3 5.7 C 0 km/h
869 26-02-2020 00:20:00 5.7 C 5.91 g/m*3 5.7 C 0 km/h
870 26-02-2020 00:25:00 5.6 C 5.87 g/m*3 5.6 C 0 km/h
871 26-02-2020 00:30:00 5.6 C 5.8 g/m*3 5.6 C 0 km/h
872 26-02-2020 00:35:00 5.6 C 5.8 g/m*3 5.6 C 1.6 km/h
873 26-02-2020 00:40:00 5.6 C 5.8 g/m*3 3.11 C 11.3 km/h
874 26-02-2020 00:45:00 5.8 C 5.87 g/m*3 3.36 C 11.3 km/h
875 26-02-2020 00:50:00 5.8 C 5.8 g/m*3 4.05 C 8.1 km/h
Sensor: Nr:Datum:Temp:Abs-Feuchte:Windchill:Wind:
Aussen-T/F 876 26-02-2020 00:55:00 5.9 C 5.91 g/m*3 4.63 C 6.4 km/h
877 26-02-2020 01:00:00 5.9 C 5.91 g/m*3 5.9 C 3.2 km/h
878 26-02-2020 01:05:00 6 C 5.95 g/m*3 4.75 C 6.4 km/h
879 26-02-2020 01:10:00 6 C 6.02 g/m*3 3.31 C 12.9 km/h
880 26-02-2020 01:15:00 6 C 6.02 g/m*3 4.28 C 8.1 km/h
881 26-02-2020 01:20:00 6 C 6.02 g/m*3 3.06 C 14.5 km/h
882 26-02-2020 01:25:00 6 C 6.1 g/m*3 3.31 C 12.9 km/h
883 26-02-2020 01:30:00 6 C 6.1 g/m*3 2.23 C 20.9 km/h
884 26-02-2020 01:35:00 5.9 C 6.06 g/m*3 2.93 C 14.5 km/h
885 26-02-2020 01:40:00 5.9 C 6.06 g/m*3 3.48 C 11.3 km/h
886 26-02-2020 01:45:00 5.8 C 6.02 g/m*3 2.81 C 14.5 km/h
887 26-02-2020 01:50:00 5.7 C 5.98 g/m*3 2.95 C 12.9 km/h
888 26-02-2020 01:55:00 5.6 C 5.87 g/m*3 2.11 C 17.7 km/h
889 26-02-2020 02:00:00 5.6 C 5.8 g/m*3 2.83 C 12.9 km/h
890 26-02-2020 02:05:00 5.6 C 5.8 g/m*3 2.11 C 17.7 km/h
891 26-02-2020 02:10:00 5.6 C 5.8 g/m*3 2.83 C 12.9 km/h
892 26-02-2020 02:15:00 5.6 C 5.73 g/m*3 3.44 C 9.7 km/h
893 26-02-2020 02:20:00 5.6 C 5.73 g/m*3 3.11 C 11.3 km/h
894 26-02-2020 02:25:00 5.6 C 5.8 g/m*3 3.81 C 8.1 km/h
895 26-02-2020 02:30:00 5.6 C 5.8 g/m*3 3.44 C 9.7 km/h
896 26-02-2020 02:35:00 5.6 C 5.73 g/m*3 2.57 C 14.5 km/h
897 26-02-2020 02:40:00 5.6 C 5.73 g/m*3 3.44 C 9.7 km/h
898 26-02-2020 02:45:00 5.5 C 5.55 g/m*3 2.2 C 16.1 km/h
899 26-02-2020 02:50:00 5.5 C 5.55 g/m*3 1.99 C 17.7 km/h
900 26-02-2020 02:55:00 5.5 C 5.55 g/m*3 2.7 C 12.9 km/h
Sensor: Nr:Datum:Temp:Abs-Feuchte:Windchill:Wind:
Aussen-T/F 901 26-02-2020 03:00:00 5.4 C 5.44 g/m*3 1.86 C 17.7 km/h
902 26-02-2020 03:05:00 5.4 C 5.44 g/m*3 3.2 C 9.7 km/h
903 26-02-2020 03:10:00 5.3 C 5.41 g/m*3 2.2 C 14.5 km/h
904 26-02-2020 03:15:00 5.3 C 5.41 g/m*3 2.46 C 12.9 km/h
905 26-02-2020 03:20:00 5.3 C 5.41 g/m*3 2.2 C 14.5 km/h
906 26-02-2020 03:25:00 5.2 C 5.44 g/m*3 2.63 C 11.3 km/h
907 26-02-2020 03:30:00 5.1 C 5.34 g/m*3 2.22 C 12.9 km/h
908 26-02-2020 03:35:00 4.9 C 5.27 g/m*3 1.97 C 12.9 km/h
909 26-02-2020 03:40:00 4.7 C 5.2 g/m*3 2.76 C 8.1 km/h
910 26-02-2020 03:45:00 4.6 C 5.16 g/m*3 2.25 C 9.7 km/h
911 26-02-2020 03:50:00 4.5 C 5.19 g/m*3 1.79 C 11.3 km/h
912 26-02-2020 03:55:00 4.5 C 5.26 g/m*3 1.79 C 11.3 km/h
913 26-02-2020 04:00:00 4.4 C 5.22 g/m*3 1.67 C 11.3 km/h
914 26-02-2020 04:05:00 4.4 C 5.29 g/m*3 1.09 C 14.5 km/h
915 26-02-2020 04:10:00 4.4 C 5.29 g/m*3 1.67 C 11.3 km/h
916 26-02-2020 04:15:00 4.4 C 5.29 g/m*3 1.09 C 14.5 km/h
917 26-02-2020 04:20:00 4.4 C 5.29 g/m*3 1.09 C 14.5 km/h
918 26-02-2020 04:25:00 4.4 C 5.29 g/m*3 1.36 C 12.9 km/h
919 26-02-2020 04:30:00 4.4 C 5.29 g/m*3 1.36 C 12.9 km/h
920 26-02-2020 04:35:00 4.4 C 5.29 g/m*3 0.4 C 19.3 km/h
921 26-02-2020 04:40:00 4.3 C 5.25 g/m*3 1.55 C 11.3 km/h
922 26-02-2020 04:45:00 4.3 C 5.25 g/m*3 0.49 C 17.7 km/h
923 26-02-2020 04:50:00 4.3 C 5.25 g/m*3 0.49 C 17.7 km/h
924 26-02-2020 04:55:00 4.3 C 5.25 g/m*3 1.89 C 9.7 km/h
925 26-02-2020 05:00:00 4.4 C 5.29 g/m*3 1.36 C 12.9 km/h
Sensor: Nr:Datum:Temp:Abs-Feuchte:Windchill:Wind:
Aussen-T/F 926 26-02-2020 05:05:00 4.4 C 5.22 g/m*3 0.84 C 16.1 km/h
927 26-02-2020 05:10:00 4.4 C 5.16 g/m*3 0.61 C 17.7 km/h
928 26-02-2020 05:15:00 4.5 C 5.19 g/m*3 0.52 C 19.3 km/h
929 26-02-2020 05:20:00 4.5 C 5.19 g/m*3 0.14 C 22.5 km/h
930 26-02-2020 05:25:00 4.5 C 5.19 g/m*3 -0.2 C 25.7 km/h
931 26-02-2020 05:30:00 4.5 C 5.19 g/m*3 0.14 C 22.5 km/h
932 26-02-2020 05:35:00 4.4 C 5.16 g/m*3 1.67 C 11.3 km/h
933 26-02-2020 05:40:00 4.4 C 5.16 g/m*3 1.67 C 11.3 km/h
934 26-02-2020 05:45:00 4.4 C 5.16 g/m*3 0.4 C 19.3 km/h
935 26-02-2020 05:50:00 4.3 C 5.12 g/m*3 0.27 C 19.3 km/h
936 26-02-2020 05:55:00 4.3 C 5.06 g/m*3 0.49 C 17.7 km/h
937 26-02-2020 06:00:00 4.3 C 5.12 g/m*3 0.97 C 14.5 km/h
938 26-02-2020 06:05:00 4.3 C 5.06 g/m*3 -0.46 C 25.7 km/h
939 26-02-2020 06:10:00 4.3 C 4.99 g/m*3 0.27 C 19.3 km/h
940 26-02-2020 06:15:00 4.4 C 5.03 g/m*3 0.4 C 19.3 km/h
941 26-02-2020 06:20:00 4.4 C 5.03 g/m*3 0.01 C 22.5 km/h
942 26-02-2020 06:25:00 4.4 C 5.09 g/m*3 0.61 C 17.7 km/h
943 26-02-2020 06:30:00 4.3 C 5.06 g/m*3 0.72 C 16.1 km/h
944 26-02-2020 06:35:00 4.2 C 5.03 g/m*3 -1.18 C 32.2 km/h
945 26-02-2020 06:40:00 4.2 C 4.96 g/m*3 -1.18 C 32.2 km/h
946 26-02-2020 06:45:00 4.2 C 4.96 g/m*3 -0.24 C 22.5 km/h
947 26-02-2020 06:50:00 4.2 C 5.03 g/m*3 0.36 C 17.7 km/h
948 26-02-2020 06:55:00 4.2 C 5.03 g/m*3 0.36 C 17.7 km/h
949 26-02-2020 07:00:00 4.1 C 4.99 g/m*3 0.24 C 17.7 km/h
950 26-02-2020 07:05:00 4.1 C 4.99 g/m*3 -0.71 C 25.7 km/h
Sensor: Nr:Datum:Temp:Abs-Feuchte:Windchill:Wind:
Aussen-T/F 951 26-02-2020 07:10:00 4.1 C 5.06 g/m*3 0.72 C 14.5 km/h
952 26-02-2020 07:15:00 4 C 5.02 g/m*3 0.11 C 17.7 km/h
953 26-02-2020 07:20:00 3.9 C 4.99 g/m*3 -0.23 C 19.3 km/h
954 26-02-2020 07:25:00 3.9 C 5.05 g/m*3 -0.01 C 17.7 km/h
955 26-02-2020 07:30:00 3.9 C 5.05 g/m*3 0.47 C 14.5 km/h
956 26-02-2020 07:35:00 3.8 C 5.08 g/m*3 0.63 C 12.9 km/h
957 26-02-2020 07:40:00 3.9 C 5.12 g/m*3 0.75 C 12.9 km/h
958 26-02-2020 07:45:00 3.9 C 5.12 g/m*3 0.75 C 12.9 km/h
959 26-02-2020 07:50:00 3.9 C 5.12 g/m*3 -0.01 C 17.7 km/h
960 26-02-2020 07:55:00 3.9 C 5.12 g/m*3 -1.58 C 32.2 km/h
961 26-02-2020 08:00:00 4 C 5.15 g/m*3 -0.31 C 20.9 km/h
962 26-02-2020 08:05:00 4 C 5.15 g/m*3 0.6 C 14.5 km/h
963 26-02-2020 08:10:00 4 C 5.15 g/m*3 -0.11 C 19.3 km/h
964 26-02-2020 08:15:00 4 C 5.15 g/m*3 0.34 C 16.1 km/h
965 26-02-2020 08:20:00 4 C 5.15 g/m*3 0.6 C 14.5 km/h
966 26-02-2020 08:25:00 4.1 C 5.12 g/m*3 0.02 C 19.3 km/h
967 26-02-2020 08:30:00 4.1 C 5.12 g/m*3 1.31 C 11.3 km/h
968 26-02-2020 08:35:00 4.1 C 5.12 g/m*3 0.02 C 19.3 km/h
969 26-02-2020 08:40:00 4.2 C 5.15 g/m*3 -0.42 C 24.1 km/h
970 26-02-2020 08:45:00 4.2 C 5.15 g/m*3 -0.05 C 20.9 km/h
971 26-02-2020 08:50:00 4.2 C 5.15 g/m*3 0.15 C 19.3 km/h
972 26-02-2020 08:55:00 4.2 C 5.22 g/m*3 -0.05 C 20.9 km/h
973 26-02-2020 09:00:00 4.1 C 5.18 g/m*3 0.72 C 14.5 km/h
974 26-02-2020 09:05:00 4 C 5.21 g/m*3 -0.31 C 20.9 km/h
975 26-02-2020 09:10:00 3.9 C 5.24 g/m*3 -0.62 C 22.5 km/h
Sensor: Nr:Datum:Temp:Abs-Feuchte:Windchill:Wind:
Aussen-T/F 976 26-02-2020 09:15:00 3.8 C 5.21 g/m*3 -0.36 C 19.3 km/h
977 26-02-2020 09:20:00 3.8 C 5.27 g/m*3 -0.14 C 17.7 km/h
978 26-02-2020 09:25:00 3.7 C 5.23 g/m*3 -0.48 C 19.3 km/h
979 26-02-2020 09:30:00 3.7 C 5.3 g/m*3 0.23 C 14.5 km/h
980 26-02-2020 09:35:00 3.7 C 5.3 g/m*3 0.23 C 14.5 km/h
981 26-02-2020 09:40:00 3.8 C 5.33 g/m*3 0.35 C 14.5 km/h
982 26-02-2020 09:45:00 4 C 5.4 g/m*3 0.88 C 12.9 km/h
983 26-02-2020 09:50:00 4.2 C 5.41 g/m*3 0.15 C 19.3 km/h
984 26-02-2020 09:55:00 4.2 C 5.35 g/m*3 0.15 C 19.3 km/h
985 26-02-2020 10:00:00 4.3 C 5.45 g/m*3 0.72 C 16.1 km/h
986 26-02-2020 10:05:00 4.2 C 5.41 g/m*3 0.84 C 14.5 km/h
987 26-02-2020 10:10:00 4.2 C 5.41 g/m*3 0.36 C 17.7 km/h
988 26-02-2020 10:15:00 4.2 C 5.41 g/m*3 0.59 C 16.1 km/h
989 26-02-2020 10:20:00 4.2 C 5.41 g/m*3 0.15 C 19.3 km/h
990 26-02-2020 10:25:00 4.2 C 5.48 g/m*3 0.36 C 17.7 km/h
991 26-02-2020 10:30:00 4.1 C 5.5 g/m*3 0.02 C 19.3 km/h
992 26-02-2020 10:35:00 4.2 C 5.48 g/m*3 0.36 C 17.7 km/h
993 26-02-2020 10:40:00 4.2 C 5.54 g/m*3 0.36 C 17.7 km/h
994 26-02-2020 10:45:00 4.3 C 5.51 g/m*3 -0.46 C 25.7 km/h
995 26-02-2020 10:50:00 4.4 C 5.55 g/m*3 1.09 C 14.5 km/h
996 26-02-2020 10:55:00 4.6 C 5.56 g/m*3 1.09 C 16.1 km/h
997 26-02-2020 11:00:00 4.7 C 5.6 g/m*3 0.78 C 19.3 km/h
998 26-02-2020 11:05:00 4.8 C 5.57 g/m*3 0.9 C 19.3 km/h
999 26-02-2020 11:10:00 4.9 C 5.54 g/m*3 1.03 C 19.3 km/h
1000 26-02-2020 11:15:00 5 C 5.5 g/m*3 1.58 C 16.1 km/h
Sensor: Nr:Datum:Temp:Abs-Feuchte:Windchill:Wind:
Aussen-T/F 1001 26-02-2020 11:20:00 5.1 C 5.47 g/m*3 0.91 C 22.5 km/h
1002 26-02-2020 11:25:00 5.2 C 5.58 g/m*3 1.61 C 17.7 km/h
1003 26-02-2020 11:30:00 5.3 C 5.61 g/m*3 1.96 C 16.1 km/h
1004 26-02-2020 11:35:00 5.4 C 5.58 g/m*3 2.32 C 14.5 km/h
1005 26-02-2020 11:40:00 5.5 C 5.55 g/m*3 1.59 C 20.9 km/h
1006 26-02-2020 11:45:00 5.6 C 5.59 g/m*3 1.72 C 20.9 km/h
1007 26-02-2020 11:50:00 5.6 C 5.59 g/m*3 1.72 C 20.9 km/h
1008 26-02-2020 11:55:00 5.7 C 5.55 g/m*3 2.24 C 17.7 km/h
1009 26-02-2020 12:00:00 5.9 C 5.7 g/m*3 2.29 C 19.3 km/h
1010 26-02-2020 12:05:00 6 C 5.66 g/m*3 3.06 C 14.5 km/h
1011 26-02-2020 12:10:00 6.1 C 5.7 g/m*3 2.54 C 19.3 km/h
1012 26-02-2020 12:15:00 6.1 C 5.7 g/m*3 2.54 C 19.3 km/h
1013 26-02-2020 12:20:00 6.2 C 5.74 g/m*3 3.07 C 16.1 km/h
1014 26-02-2020 12:25:00 6.1 C 5.55 g/m*3 2.18 C 22.5 km/h
1015 26-02-2020 12:30:00 6.1 C 5.63 g/m*3 2.35 C 20.9 km/h
1016 26-02-2020 12:35:00 6 C 5.59 g/m*3 2.23 C 20.9 km/h
1017 26-02-2020 12:40:00 5.9 C 5.55 g/m*3 2.29 C 19.3 km/h
1018 26-02-2020 12:45:00 5.9 C 5.55 g/m*3 1.93 C 22.5 km/h
1019 26-02-2020 12:50:00 5.9 C 5.48 g/m*3 2.29 C 19.3 km/h
1020 26-02-2020 12:55:00 6.1 C 5.55 g/m*3 2.73 C 17.7 km/h
1021 26-02-2020 13:00:00 6.3 C 5.55 g/m*3 2.98 C 17.7 km/h
1022 26-02-2020 13:05:00 6.4 C 5.59 g/m*3 2.73 C 20.9 km/h
1023 26-02-2020 13:10:00 6.3 C 5.48 g/m*3 2.61 C 20.9 km/h
1024 26-02-2020 13:15:00 6.3 C 5.55 g/m*3 3.2 C 16.1 km/h
1025 26-02-2020 13:20:00 6.3 C 5.55 g/m*3 2.79 C 19.3 km/h
Sensor: Nr:Datum:Temp:Abs-Feuchte:Windchill:Wind:
Aussen-T/F 1026 26-02-2020 13:25:00 6.1 C 5.63 g/m*3 1.86 C 25.7 km/h
1027 26-02-2020 13:30:00 5.8 C 5.66 g/m*3 2.36 C 17.7 km/h
1028 26-02-2020 13:35:00 5.7 C 5.55 g/m*3 2.03 C 19.3 km/h
1029 26-02-2020 13:40:00 5.7 C 5.62 g/m*3 1.5 C 24.1 km/h
1030 26-02-2020 13:45:00 5.7 C 5.69 g/m*3 2.95 C 12.9 km/h
1031 26-02-2020 13:50:00 5.8 C 5.73 g/m*3 2.81 C 14.5 km/h
1032 26-02-2020 13:55:00 5.7 C 5.62 g/m*3 2.03 C 19.3 km/h
1033 26-02-2020 14:00:00 5.7 C 5.69 g/m*3 2.03 C 19.3 km/h
1034 26-02-2020 14:05:00 5.7 C 5.76 g/m*3 1.85 C 20.9 km/h
1035 26-02-2020 14:10:00 5.6 C 5.73 g/m*3 2.11 C 17.7 km/h
1036 26-02-2020 14:15:00 5.6 C 5.73 g/m*3 2.57 C 14.5 km/h
1037 26-02-2020 14:20:00 5.7 C 5.76 g/m*3 2.69 C 14.5 km/h
1038 26-02-2020 14:25:00 5.6 C 5.73 g/m*3 2.83 C 12.9 km/h
1039 26-02-2020 14:30:00 5.6 C 5.73 g/m*3 1.72 C 20.9 km/h
1040 26-02-2020 14:35:00 5.6 C 5.8 g/m*3 2.11 C 17.7 km/h
1041 26-02-2020 14:40:00 5.7 C 5.91 g/m*3 2.95 C 12.9 km/h
1042 26-02-2020 14:45:00 5.8 C 5.8 g/m*3 1.97 C 20.9 km/h
1043 26-02-2020 14:50:00 5.8 C 5.8 g/m*3 3.07 C 12.9 km/h
1044 26-02-2020 14:55:00 5.9 C 5.77 g/m*3 2.7 C 16.1 km/h
1045 26-02-2020 15:00:00 5.9 C 5.77 g/m*3 2.29 C 19.3 km/h
1046 26-02-2020 15:05:00 6.1 C 5.92 g/m*3 2.73 C 17.7 km/h
1047 26-02-2020 15:10:00 6 C 5.88 g/m*3 2.82 C 16.1 km/h
1048 26-02-2020 15:15:00 6.1 C 5.92 g/m*3 3.72 C 11.3 km/h
1049 26-02-2020 15:20:00 6.2 C 5.88 g/m*3 3.56 C 12.9 km/h
1050 26-02-2020 15:25:00 6.3 C 5.85 g/m*3 3.2 C 16.1 km/h
Sensor: Nr:Datum:Temp:Abs-Feuchte:Windchill:Wind:
Aussen-T/F 1051 26-02-2020 15:30:00 6.5 C 5.85 g/m*3 1.6 C 35.4 km/h
1052 26-02-2020 15:35:00 6.7 C 5.85 g/m*3 3.69 C 16.1 km/h
1053 26-02-2020 15:40:00 6.6 C 5.74 g/m*3 3.17 C 19.3 km/h
1054 26-02-2020 15:45:00 6.5 C 5.55 g/m*3 2.69 C 22.5 km/h
1055 26-02-2020 15:50:00 6.3 C 5.55 g/m*3 2.61 C 20.9 km/h
1056 26-02-2020 15:55:00 6.2 C 5.44 g/m*3 2.86 C 17.7 km/h
1057 26-02-2020 16:00:00 6.1 C 5.41 g/m*3 2.35 C 20.9 km/h
1058 26-02-2020 16:05:00 6.1 C 5.48 g/m*3 2.73 C 17.7 km/h
1059 26-02-2020 16:10:00 6.1 C 5.33 g/m*3 2.54 C 19.3 km/h
1060 26-02-2020 16:15:00 6.1 C 5.48 g/m*3 3.18 C 14.5 km/h
1061 26-02-2020 16:20:00 6 C 5.44 g/m*3 2.61 C 17.7 km/h
1062 26-02-2020 16:25:00 5.9 C 5.41 g/m*3 2.93 C 14.5 km/h
1063 26-02-2020 16:30:00 5.9 C 5.41 g/m*3 2.1 C 20.9 km/h
1064 26-02-2020 16:35:00 5.9 C 5.41 g/m*3 3.19 C 12.9 km/h
1065 26-02-2020 16:40:00 5.8 C 5.37 g/m*3 1.8 C 22.5 km/h
1066 26-02-2020 16:45:00 5.9 C 5.41 g/m*3 2.93 C 14.5 km/h
1067 26-02-2020 16:50:00 5.9 C 5.41 g/m*3 2.7 C 16.1 km/h
1068 26-02-2020 16:55:00 5.9 C 5.48 g/m*3 2.93 C 14.5 km/h
1069 26-02-2020 17:00:00 5.8 C 5.44 g/m*3 2.16 C 19.3 km/h
1070 26-02-2020 17:05:00 5.8 C 5.44 g/m*3 3.07 C 12.9 km/h
1071 26-02-2020 17:10:00 5.8 C 5.37 g/m*3 2.81 C 14.5 km/h
1072 26-02-2020 17:15:00 5.7 C 5.34 g/m*3 2.45 C 16.1 km/h
1073 26-02-2020 17:20:00 5.6 C 5.3 g/m*3 2.11 C 17.7 km/h
1074 26-02-2020 17:25:00 5.6 C 5.3 g/m*3 2.83 C 12.9 km/h
1075 26-02-2020 17:30:00 5.6 C 5.3 g/m*3 1.72 C 20.9 km/h
Sensor: Nr:Datum:Temp:Abs-Feuchte:Windchill:Wind:
Aussen-T/F 1076 26-02-2020 17:35:00 5.5 C 5.27 g/m*3 2.7 C 12.9 km/h
1077 26-02-2020 17:40:00 5.4 C 5.23 g/m*3 1.66 C 19.3 km/h
1078 26-02-2020 17:45:00 5.4 C 5.23 g/m*3 2.32 C 14.5 km/h
1079 26-02-2020 17:50:00 5.3 C 5.27 g/m*3 3.08 C 9.7 km/h
1080 26-02-2020 17:55:00 5.1 C 5.27 g/m*3 2.22 C 12.9 km/h
1081 26-02-2020 18:00:00 4.9 C 5.27 g/m*3 2.61 C 9.7 km/h
1082 26-02-2020 18:05:00 4.8 C 5.23 g/m*3 2.15 C 11.3 km/h
1083 26-02-2020 18:10:00 4.7 C 5.26 g/m*3 2.76 C 8.1 km/h
1084 26-02-2020 18:15:00 4.6 C 5.23 g/m*3 2.25 C 9.7 km/h
1085 26-02-2020 18:20:00 4.4 C 5.22 g/m*3 1.67 C 11.3 km/h
1086 26-02-2020 18:25:00 4.4 C 5.22 g/m*3 1.09 C 14.5 km/h
1087 26-02-2020 18:30:00 4.4 C 5.16 g/m*3 1.67 C 11.3 km/h
1088 26-02-2020 18:35:00 4.4 C 5.22 g/m*3 2.01 C 9.7 km/h
1089 26-02-2020 18:40:00 4.4 C 5.22 g/m*3 1.36 C 12.9 km/h
1090 26-02-2020 18:45:00 4.4 C 5.22 g/m*3 1.09 C 14.5 km/h
1091 26-02-2020 18:50:00 4.5 C 5.26 g/m*3 1.79 C 11.3 km/h
1092 26-02-2020 18:55:00 4.5 C 5.26 g/m*3 1.79 C 11.3 km/h
1093 26-02-2020 19:00:00 4.6 C 5.29 g/m*3 2.64 C 8.1 km/h
1094 26-02-2020 19:05:00 4.5 C 5.26 g/m*3 1.79 C 11.3 km/h
1095 26-02-2020 19:10:00 4.5 C 5.26 g/m*3 2.13 C 9.7 km/h
1096 26-02-2020 19:15:00 4.5 C 5.32 g/m*3 2.13 C 9.7 km/h
1097 26-02-2020 19:20:00 4.5 C 5.32 g/m*3 2.13 C 9.7 km/h
1098 26-02-2020 19:25:00 4.5 C 5.39 g/m*3 3.02 C 6.4 km/h
1099 26-02-2020 19:30:00 4.4 C 5.35 g/m*3 2.01 C 9.7 km/h
1100 26-02-2020 19:35:00 4.4 C 5.35 g/m*3 4.4 C 4.8 km/h
Sensor: Nr:Datum:Temp:Abs-Feuchte:Windchill:Wind:
Aussen-T/F 1101 26-02-2020 19:40:00 4.4 C 5.35 g/m*3 2.9 C 6.4 km/h
1102 26-02-2020 19:45:00 4.3 C 5.38 g/m*3 2.78 C 6.4 km/h
1103 26-02-2020 19:50:00 4.3 C 5.38 g/m*3 1.89 C 9.7 km/h
1104 26-02-2020 19:55:00 4.2 C 5.35 g/m*3 1.77 C 9.7 km/h
1105 26-02-2020 20:00:00 4.2 C 5.35 g/m*3 2.67 C 6.4 km/h
1106 26-02-2020 20:05:00 4.1 C 5.31 g/m*3 2.05 C 8.1 km/h
1107 26-02-2020 20:10:00 3.9 C 5.24 g/m*3 2.32 C 6.4 km/h
1108 26-02-2020 20:15:00 3.8 C 5.21 g/m*3 1.7 C 8.1 km/h
1109 26-02-2020 20:20:00 3.8 C 5.21 g/m*3 0.63 C 12.9 km/h
1110 26-02-2020 20:25:00 3.9 C 5.24 g/m*3 1.41 C 9.7 km/h
1111 26-02-2020 20:30:00 4 C 5.21 g/m*3 1.18 C 11.3 km/h
1112 26-02-2020 20:35:00 4.1 C 5.25 g/m*3 1.65 C 9.7 km/h
1113 26-02-2020 20:40:00 4.1 C 5.25 g/m*3 2.55 C 6.4 km/h
1114 26-02-2020 20:45:00 4.1 C 5.25 g/m*3 2.05 C 8.1 km/h
1115 26-02-2020 20:50:00 4.1 C 5.25 g/m*3 1.65 C 9.7 km/h
1116 26-02-2020 20:55:00 4.1 C 5.31 g/m*3 1.65 C 9.7 km/h
1117 26-02-2020 21:00:00 4.1 C 5.31 g/m*3 1 C 12.9 km/h
1118 26-02-2020 21:05:00 4.1 C 5.31 g/m*3 1.65 C 9.7 km/h
1119 26-02-2020 21:10:00 4.1 C 5.38 g/m*3 1.31 C 11.3 km/h
1120 26-02-2020 21:15:00 4.1 C 5.31 g/m*3 2.55 C 6.4 km/h
1121 26-02-2020 21:20:00 4.1 C 5.31 g/m*3 4.1 C 3.2 km/h
1122 26-02-2020 21:25:00 4 C 5.34 g/m*3 2.44 C 6.4 km/h
1123 26-02-2020 21:30:00 3.9 C 5.31 g/m*3 1.82 C 8.1 km/h
1124 26-02-2020 21:35:00 3.9 C 5.24 g/m*3 2.32 C 6.4 km/h
1125 26-02-2020 21:40:00 3.9 C 5.31 g/m*3 2.32 C 6.4 km/h
Sensor: Nr:Datum:Temp:Abs-Feuchte:Windchill:Wind:
Aussen-T/F 1126 26-02-2020 21:45:00 3.9 C 5.31 g/m*3 3.9 C 4.8 km/h
1127 26-02-2020 21:50:00 3.9 C 5.31 g/m*3 1.82 C 8.1 km/h
1128 26-02-2020 21:55:00 3.9 C 5.31 g/m*3 2.32 C 6.4 km/h
1129 26-02-2020 22:00:00 3.9 C 5.31 g/m*3 1.41 C 9.7 km/h
1130 26-02-2020 22:05:00 3.9 C 5.31 g/m*3 3.9 C 4.8 km/h
1131 26-02-2020 22:10:00 3.9 C 5.31 g/m*3 1.82 C 8.1 km/h
1132 26-02-2020 22:15:00 3.9 C 5.31 g/m*3 2.32 C 6.4 km/h
1133 26-02-2020 22:20:00 3.9 C 5.37 g/m*3 3.9 C 4.8 km/h
1134 26-02-2020 22:25:00 3.9 C 5.37 g/m*3 3.9 C 4.8 km/h
1135 26-02-2020 22:30:00 3.9 C 5.37 g/m*3 3.9 C 4.8 km/h
1136 26-02-2020 22:35:00 3.9 C 5.37 g/m*3 2.32 C 6.4 km/h
1137 26-02-2020 22:40:00 3.9 C 5.37 g/m*3 0.75 C 12.9 km/h
1138 26-02-2020 22:45:00 3.9 C 5.43 g/m*3 2.32 C 6.4 km/h
1139 26-02-2020 22:50:00 3.9 C 5.43 g/m*3 3.9 C 4.8 km/h
1140 26-02-2020 22:55:00 3.9 C 5.43 g/m*3 1.41 C 9.7 km/h
1141 26-02-2020 23:00:00 3.9 C 5.43 g/m*3 1.06 C 11.3 km/h
1142 26-02-2020 23:05:00 3.9 C 5.43 g/m*3 1.06 C 11.3 km/h
1143 26-02-2020 23:10:00 3.8 C 5.46 g/m*3 2.21 C 6.4 km/h
1144 26-02-2020 23:15:00 3.8 C 5.46 g/m*3 3.8 C 3.2 km/h
1145 26-02-2020 23:20:00 3.7 C 5.42 g/m*3 1.58 C 8.1 km/h
1146 26-02-2020 23:25:00 3.7 C 5.36 g/m*3 1.58 C 8.1 km/h
1147 26-02-2020 23:30:00 3.6 C 5.32 g/m*3 3.6 C 4.8 km/h
1148 26-02-2020 23:35:00 3.5 C 5.29 g/m*3 0.94 C 9.7 km/h
1149 26-02-2020 23:40:00 3.4 C 5.31 g/m*3 0.82 C 9.7 km/h
1150 26-02-2020 23:45:00 3.4 C 5.31 g/m*3 0.82 C 9.7 km/h
Sensor: Nr:Datum:Temp:Abs-Feuchte:Windchill:Wind:
Aussen-T/F 1151 26-02-2020 23:50:00 3.4 C 5.31 g/m*3 0.82 C 9.7 km/h
1152 26-02-2020 23:55:00 3.4 C 5.31 g/m*3 0.82 C 9.7 km/h
1153 27-02-2020 00:00:00 3.4 C 5.25 g/m*3 1.75 C 6.4 km/h
1154 27-02-2020 00:05:00 3.4 C 5.25 g/m*3 -0.14 C 14.5 km/h
1155 27-02-2020 00:10:00 3.4 C 5.25 g/m*3 1.23 C 8.1 km/h
1156 27-02-2020 00:15:00 3.5 C 5.29 g/m*3 0.58 C 11.3 km/h
1157 27-02-2020 00:20:00 3.5 C 5.29 g/m*3 1.34 C 8.1 km/h
1158 27-02-2020 00:25:00 3.5 C 5.29 g/m*3 3.5 C 4.8 km/h
1159 27-02-2020 00:30:00 3.4 C 5.25 g/m*3 3.4 C 4.8 km/h
1160 27-02-2020 00:35:00 3.5 C 5.29 g/m*3 0.58 C 11.3 km/h
1161 27-02-2020 00:40:00 3.6 C 5.32 g/m*3 1.98 C 6.4 km/h
1162 27-02-2020 00:45:00 3.6 C 5.32 g/m*3 1.98 C 6.4 km/h
1163 27-02-2020 00:50:00 3.6 C 5.32 g/m*3 1.06 C 9.7 km/h
1164 27-02-2020 00:55:00 3.6 C 5.32 g/m*3 1.46 C 8.1 km/h
1165 27-02-2020 01:00:00 3.5 C 5.29 g/m*3 3.5 C 4.8 km/h
1166 27-02-2020 01:05:00 3.4 C 5.25 g/m*3 3.4 C 4.8 km/h
1167 27-02-2020 01:10:00 3.3 C 5.22 g/m*3 3.3 C 3.2 km/h
1168 27-02-2020 01:15:00 3.2 C 5.18 g/m*3 3.2 C 3.2 km/h
1169 27-02-2020 01:20:00 3.1 C 5.15 g/m*3 1.4 C 6.4 km/h
1170 27-02-2020 01:25:00 3 C 5.11 g/m*3 0.76 C 8.1 km/h
1171 27-02-2020 01:30:00 2.9 C 5.14 g/m*3 2.9 C 3.2 km/h
1172 27-02-2020 01:35:00 2.8 C 5.1 g/m*3 2.8 C 4.8 km/h
1173 27-02-2020 01:40:00 2.7 C 5.07 g/m*3 2.7 C 4.8 km/h
1174 27-02-2020 01:45:00 2.7 C 5.13 g/m*3 2.7 C 3.2 km/h
1175 27-02-2020 01:50:00 2.8 C 5.16 g/m*3 1.05 C 6.4 km/h
Sensor: Nr:Datum:Temp:Abs-Feuchte:Windchill:Wind:
Aussen-T/F 1176 27-02-2020 01:55:00 2.8 C 5.16 g/m*3 0.52 C 8.1 km/h
1177 27-02-2020 02:00:00 3 C 5.23 g/m*3 0.76 C 8.1 km/h
1178 27-02-2020 02:05:00 3.1 C 5.21 g/m*3 0.87 C 8.1 km/h
1179 27-02-2020 02:10:00 3.2 C 5.24 g/m*3 0.99 C 8.1 km/h
1180 27-02-2020 02:15:00 3.1 C 5.21 g/m*3 0.46 C 9.7 km/h
1181 27-02-2020 02:20:00 3.2 C 5.24 g/m*3 -0.1 C 12.9 km/h
1182 27-02-2020 02:25:00 3.3 C 5.28 g/m*3 0.02 C 12.9 km/h
1183 27-02-2020 02:30:00 3.3 C 5.22 g/m*3 -0.76 C 17.7 km/h
1184 27-02-2020 02:35:00 3.3 C 5.22 g/m*3 1.63 C 6.4 km/h
1185 27-02-2020 02:40:00 3.2 C 5.18 g/m*3 0.58 C 9.7 km/h
1186 27-02-2020 02:45:00 3.2 C 5.24 g/m*3 0.58 C 9.7 km/h
1187 27-02-2020 02:50:00 3.2 C 5.24 g/m*3 0.99 C 8.1 km/h
1188 27-02-2020 02:55:00 3.2 C 5.24 g/m*3 0.22 C 11.3 km/h
1189 27-02-2020 03:00:00 3.4 C 5.31 g/m*3 0.46 C 11.3 km/h
1190 27-02-2020 03:05:00 3.6 C 5.32 g/m*3 0.11 C 14.5 km/h
1191 27-02-2020 03:10:00 3.7 C 5.36 g/m*3 0.82 C 11.3 km/h
1192 27-02-2020 03:15:00 3.7 C 5.42 g/m*3 0.51 C 12.9 km/h
1193 27-02-2020 03:20:00 3.7 C 5.48 g/m*3 0.51 C 12.9 km/h
1194 27-02-2020 03:25:00 3.6 C 5.51 g/m*3 1.98 C 6.4 km/h
1195 27-02-2020 03:30:00 3.5 C 5.47 g/m*3 1.34 C 8.1 km/h
1196 27-02-2020 03:35:00 3.4 C 5.44 g/m*3 0.82 C 9.7 km/h
1197 27-02-2020 03:40:00 3.4 C 5.44 g/m*3 0.46 C 11.3 km/h
1198 27-02-2020 03:45:00 3.4 C 5.44 g/m*3 0.46 C 11.3 km/h
1199 27-02-2020 03:50:00 3.4 C 5.44 g/m*3 0.46 C 11.3 km/h
1200 27-02-2020 03:55:00 3.4 C 5.44 g/m*3 0.46 C 11.3 km/h
Sensor: Nr:Datum:Temp:Abs-Feuchte:Windchill:Wind:
Aussen-T/F 1201 27-02-2020 04:00:00 3.4 C 5.44 g/m*3 0.46 C 11.3 km/h
1202 27-02-2020 04:05:00 3.4 C 5.44 g/m*3 1.23 C 8.1 km/h
1203 27-02-2020 04:10:00 3.4 C 5.44 g/m*3 1.23 C 8.1 km/h
1204 27-02-2020 04:15:00 3.3 C 5.4 g/m*3 1.63 C 6.4 km/h
1205 27-02-2020 04:20:00 3.3 C 5.4 g/m*3 -0.26 C 14.5 km/h
1206 27-02-2020 04:25:00 3.3 C 5.4 g/m*3 0.7 C 9.7 km/h
1207 27-02-2020 04:30:00 3.3 C 5.4 g/m*3 0.34 C 11.3 km/h
1208 27-02-2020 04:35:00 3.3 C 5.4 g/m*3 0.7 C 9.7 km/h
1209 27-02-2020 04:40:00 3.3 C 5.34 g/m*3 0.7 C 9.7 km/h
1210 27-02-2020 04:45:00 3.3 C 5.34 g/m*3 1.63 C 6.4 km/h
1211 27-02-2020 04:50:00 3.2 C 5.3 g/m*3 1.51 C 6.4 km/h
1212 27-02-2020 04:55:00 3.1 C 5.27 g/m*3 0.46 C 9.7 km/h
1213 27-02-2020 05:00:00 3 C 5.23 g/m*3 3 C 3.2 km/h
1214 27-02-2020 05:05:00 2.9 C 5.26 g/m*3 2.9 C 4.8 km/h
1215 27-02-2020 05:10:00 2.8 C 5.22 g/m*3 2.8 C 4.8 km/h
1216 27-02-2020 05:15:00 2.8 C 5.22 g/m*3 2.8 C 4.8 km/h
1217 27-02-2020 05:20:00 2.8 C 5.22 g/m*3 1.05 C 6.4 km/h
1218 27-02-2020 05:25:00 2.7 C 5.19 g/m*3 2.7 C 4.8 km/h
1219 27-02-2020 05:30:00 2.7 C 5.19 g/m*3 2.7 C 4.8 km/h
1220 27-02-2020 05:35:00 2.6 C 5.21 g/m*3 2.6 C 4.8 km/h
1221 27-02-2020 05:40:00 2.6 C 5.21 g/m*3 2.6 C 4.8 km/h
1222 27-02-2020 05:45:00 2.6 C 5.21 g/m*3 0.82 C 6.4 km/h
1223 27-02-2020 05:50:00 2.6 C 5.21 g/m*3 0.29 C 8.1 km/h
1224 27-02-2020 05:55:00 2.6 C 5.21 g/m*3 0.82 C 6.4 km/h
1225 27-02-2020 06:00:00 2.6 C 5.21 g/m*3 0.29 C 8.1 km/h
Sensor: Nr:Datum:Temp:Abs-Feuchte:Windchill:Wind:
Aussen-T/F 1226 27-02-2020 06:05:00 2.6 C 5.15 g/m*3 2.6 C 4.8 km/h
1227 27-02-2020 06:10:00 2.6 C 5.15 g/m*3 0.29 C 8.1 km/h
1228 27-02-2020 06:15:00 2.6 C 5.15 g/m*3 -0.5 C 11.3 km/h
1229 27-02-2020 06:20:00 2.7 C 5.19 g/m*3 -0.02 C 9.7 km/h
1230 27-02-2020 06:25:00 2.7 C 5.13 g/m*3 0.94 C 6.4 km/h
1231 27-02-2020 06:30:00 2.8 C 5.16 g/m*3 0.52 C 8.1 km/h
1232 27-02-2020 06:35:00 2.8 C 5.16 g/m*3 0.52 C 8.1 km/h
1233 27-02-2020 06:40:00 2.8 C 5.1 g/m*3 -0.88 C 14.5 km/h
1234 27-02-2020 06:45:00 2.8 C 5.1 g/m*3 0.52 C 8.1 km/h
1235 27-02-2020 06:50:00 2.8 C 5.1 g/m*3 1.05 C 6.4 km/h
1236 27-02-2020 06:55:00 2.9 C 5.14 g/m*3 1.17 C 6.4 km/h
1237 27-02-2020 07:00:00 2.9 C 5.14 g/m*3 0.22 C 9.7 km/h
1238 27-02-2020 07:05:00 2.9 C 5.14 g/m*3 2.9 C 4.8 km/h
1239 27-02-2020 07:10:00 3 C 5.17 g/m*3 1.28 C 6.4 km/h
1240 27-02-2020 07:15:00 3.1 C 5.21 g/m*3 1.4 C 6.4 km/h
1241 27-02-2020 07:20:00 3.1 C 5.21 g/m*3 3.1 C 1.6 km/h
1242 27-02-2020 07:25:00 3.1 C 5.21 g/m*3 3.1 C 3.2 km/h
1243 27-02-2020 07:30:00 3.1 C 5.27 g/m*3 3.1 C 3.2 km/h
1244 27-02-2020 07:35:00 3.1 C 5.27 g/m*3 3.1 C 3.2 km/h
1245 27-02-2020 07:40:00 3.1 C 5.27 g/m*3 0.46 C 9.7 km/h
1246 27-02-2020 07:45:00 3.2 C 5.24 g/m*3 3.2 C 0 km/h
1247 27-02-2020 07:50:00 3.2 C 5.24 g/m*3 3.2 C 3.2 km/h
1248 27-02-2020 07:55:00 3.2 C 5.24 g/m*3 3.2 C 3.2 km/h
1249 27-02-2020 08:00:00 3.2 C 5.3 g/m*3 3.2 C 0 km/h
1250 27-02-2020 08:05:00 3.3 C 5.34 g/m*3 3.3 C 1.6 km/h
Sensor: Nr:Datum:Temp:Abs-Feuchte:Windchill:Wind:
Aussen-T/F 1251 27-02-2020 08:10:00 3.3 C 5.34 g/m*3 3.3 C 0 km/h
1252 27-02-2020 08:15:00 3.3 C 5.34 g/m*3 3.3 C 0 km/h
1253 27-02-2020 08:20:00 3.4 C 5.44 g/m*3 3.4 C 0 km/h
1254 27-02-2020 08:25:00 3.4 C 5.44 g/m*3 3.4 C 0 km/h
1255 27-02-2020 08:30:00 3.5 C 5.47 g/m*3 3.5 C 0 km/h
1256 27-02-2020 08:35:00 3.6 C 5.51 g/m*3 3.6 C 0 km/h
1257 27-02-2020 08:40:00 3.7 C 5.55 g/m*3 3.7 C 0 km/h
1258 27-02-2020 08:45:00 3.7 C 5.55 g/m*3 3.7 C 1.6 km/h
1259 27-02-2020 08:50:00 3.8 C 5.52 g/m*3 3.8 C 1.6 km/h
1260 27-02-2020 08:55:00 3.9 C 5.49 g/m*3 3.9 C 1.6 km/h
1261 27-02-2020 09:00:00 4 C 5.53 g/m*3 4 C 0 km/h
1262 27-02-2020 09:05:00 4.2 C 5.54 g/m*3 2.67 C 6.4 km/h
1263 27-02-2020 09:10:00 4.3 C 5.58 g/m*3 4.3 C 3.2 km/h
1264 27-02-2020 09:15:00 4.4 C 5.62 g/m*3 4.4 C 3.2 km/h
1265 27-02-2020 09:20:00 4.5 C 5.65 g/m*3 4.5 C 0 km/h
1266 27-02-2020 09:25:00 4.6 C 5.62 g/m*3 4.6 C 4.8 km/h
1267 27-02-2020 09:30:00 4.7 C 5.6 g/m*3 4.7 C 3.2 km/h
1268 27-02-2020 09:35:00 4.8 C 5.57 g/m*3 3.36 C 6.4 km/h
1269 27-02-2020 09:40:00 4.8 C 5.57 g/m*3 4.8 C 3.2 km/h
1270 27-02-2020 09:45:00 4.9 C 5.6 g/m*3 4.9 C 3.2 km/h
1271 27-02-2020 09:50:00 4.9 C 5.6 g/m*3 4.9 C 1.6 km/h
1272 27-02-2020 09:55:00 5.1 C 5.68 g/m*3 5.1 C 1.6 km/h
1273 27-02-2020 10:00:00 5.1 C 5.68 g/m*3 5.1 C 3.2 km/h
1274 27-02-2020 10:05:00 5.2 C 5.65 g/m*3 5.2 C 3.2 km/h
1275 27-02-2020 10:10:00 5.2 C 5.65 g/m*3 5.2 C 4.8 km/h
Sensor: Nr:Datum:Temp:Abs-Feuchte:Windchill:Wind:
Aussen-T/F 1276 27-02-2020 10:15:00 5.2 C 5.58 g/m*3 3.34 C 8.1 km/h
1277 27-02-2020 10:20:00 5.3 C 5.61 g/m*3 5.3 C 4.8 km/h
1278 27-02-2020 10:25:00 5.3 C 5.61 g/m*3 5.3 C 0 km/h
1279 27-02-2020 10:30:00 5.3 C 5.54 g/m*3 5.3 C 4.8 km/h
1280 27-02-2020 10:35:00 5.4 C 5.58 g/m*3 5.4 C 1.6 km/h
1281 27-02-2020 10:40:00 5.4 C 5.58 g/m*3 5.4 C 4.8 km/h
1282 27-02-2020 10:45:00 5.5 C 5.69 g/m*3 5.5 C 3.2 km/h
1283 27-02-2020 10:50:00 5.5 C 5.62 g/m*3 5.5 C 0 km/h
1284 27-02-2020 10:55:00 5.6 C 5.66 g/m*3 5.6 C 3.2 km/h
1285 27-02-2020 11:00:00 5.5 C 5.62 g/m*3 3.7 C 8.1 km/h
1286 27-02-2020 11:05:00 5.4 C 5.58 g/m*3 4.06 C 6.4 km/h
1287 27-02-2020 11:10:00 5.4 C 5.65 g/m*3 4.06 C 6.4 km/h
1288 27-02-2020 11:15:00 5.3 C 5.61 g/m*3 3.94 C 6.4 km/h
1289 27-02-2020 11:20:00 5.3 C 5.68 g/m*3 3.94 C 6.4 km/h
1290 27-02-2020 11:25:00 5.1 C 5.68 g/m*3 1.95 C 14.5 km/h
1291 27-02-2020 11:30:00 4.9 C 5.67 g/m*3 2.61 C 9.7 km/h
1292 27-02-2020 11:35:00 4.7 C 5.66 g/m*3 4.7 C 1.6 km/h
1293 27-02-2020 11:40:00 4.7 C 5.66 g/m*3 4.7 C 1.6 km/h
1294 27-02-2020 11:45:00 4.6 C 5.69 g/m*3 4.6 C 3.2 km/h
1295 27-02-2020 11:50:00 4.6 C 5.76 g/m*3 4.6 C 1.6 km/h
1296 27-02-2020 11:55:00 4.6 C 5.76 g/m*3 4.6 C 4.8 km/h
1297 27-02-2020 12:00:00 4.6 C 5.76 g/m*3 2.64 C 8.1 km/h
1298 27-02-2020 12:05:00 4.6 C 5.82 g/m*3 4.6 C 4.8 km/h
1299 27-02-2020 12:10:00 4.6 C 5.82 g/m*3 4.6 C 4.8 km/h
1300 27-02-2020 12:15:00 4.6 C 5.82 g/m*3 4.6 C 4.8 km/h
Sensor: Nr:Datum:Temp:Abs-Feuchte:Windchill:Wind:
Aussen-T/F 1301 27-02-2020 12:20:00 4.6 C 5.89 g/m*3 3.13 C 6.4 km/h
1302 27-02-2020 12:25:00 4.6 C 5.89 g/m*3 3.13 C 6.4 km/h
1303 27-02-2020 12:30:00 4.5 C 5.85 g/m*3 4.5 C 4.8 km/h
1304 27-02-2020 12:35:00 4.4 C 5.81 g/m*3 2.9 C 6.4 km/h
1305 27-02-2020 12:40:00 4.4 C 5.81 g/m*3 2.01 C 9.7 km/h
1306 27-02-2020 12:45:00 4.3 C 5.77 g/m*3 4.3 C 4.8 km/h
1307 27-02-2020 12:50:00 4.3 C 5.84 g/m*3 2.78 C 6.4 km/h
1308 27-02-2020 12:55:00 4.2 C 5.8 g/m*3 2.67 C 6.4 km/h
1309 27-02-2020 13:00:00 4.1 C 5.76 g/m*3 4.1 C 3.2 km/h
1310 27-02-2020 13:05:00 4.1 C 5.76 g/m*3 4.1 C 3.2 km/h
1311 27-02-2020 13:10:00 4 C 5.79 g/m*3 4 C 4.8 km/h
1312 27-02-2020 13:15:00 3.9 C 5.75 g/m*3 3.9 C 1.6 km/h
1313 27-02-2020 13:20:00 3.9 C 5.75 g/m*3 3.9 C 1.6 km/h
1314 27-02-2020 13:25:00 3.8 C 5.71 g/m*3 1.7 C 8.1 km/h
1315 27-02-2020 13:30:00 3.7 C 5.73 g/m*3 3.7 C 4.8 km/h
1316 27-02-2020 13:35:00 3.6 C 5.69 g/m*3 3.6 C 4.8 km/h
1317 27-02-2020 13:40:00 3.5 C 5.6 g/m*3 3.5 C 4.8 km/h
1318 27-02-2020 13:45:00 3.4 C 5.62 g/m*3 3.4 C 4.8 km/h
1319 27-02-2020 13:50:00 3.4 C 5.62 g/m*3 1.23 C 8.1 km/h
1320 27-02-2020 13:55:00 3.3 C 5.58 g/m*3 3.3 C 3.2 km/h
1321 27-02-2020 14:00:00 3.3 C 5.64 g/m*3 1.11 C 8.1 km/h
1322 27-02-2020 14:05:00 3.3 C 5.64 g/m*3 3.3 C 4.8 km/h
1323 27-02-2020 14:10:00 3.3 C 5.64 g/m*3 0.34 C 11.3 km/h
1324 27-02-2020 14:15:00 3.3 C 5.64 g/m*3 1.11 C 8.1 km/h
1325 27-02-2020 14:20:00 3.3 C 5.64 g/m*3 1.63 C 6.4 km/h
Sensor: Nr:Datum:Temp:Abs-Feuchte:Windchill:Wind:
Aussen-T/F 1326 27-02-2020 14:25:00 3.3 C 5.64 g/m*3 1.11 C 8.1 km/h
1327 27-02-2020 14:30:00 3.2 C 5.6 g/m*3 0.99 C 8.1 km/h
1328 27-02-2020 14:35:00 3.2 C 5.66 g/m*3 3.2 C 4.8 km/h
1329 27-02-2020 14:40:00 3.2 C 5.66 g/m*3 3.2 C 4.8 km/h
1330 27-02-2020 14:45:00 3.2 C 5.6 g/m*3 1.51 C 6.4 km/h
1331 27-02-2020 14:50:00 3.1 C 5.63 g/m*3 1.4 C 6.4 km/h
1332 27-02-2020 14:55:00 3.1 C 5.57 g/m*3 1.4 C 6.4 km/h
1333 27-02-2020 15:00:00 3.1 C 5.63 g/m*3 -0.22 C 12.9 km/h
1334 27-02-2020 15:05:00 3.1 C 5.63 g/m*3 0.87 C 8.1 km/h
1335 27-02-2020 15:10:00 3.1 C 5.63 g/m*3 3.1 C 4.8 km/h
1336 27-02-2020 15:15:00 3.1 C 5.63 g/m*3 1.4 C 6.4 km/h
1337 27-02-2020 15:20:00 3 C 5.59 g/m*3 1.28 C 6.4 km/h
1338 27-02-2020 15:25:00 3 C 5.59 g/m*3 0.76 C 8.1 km/h
1339 27-02-2020 15:30:00 3 C 5.59 g/m*3 3 C 4.8 km/h
1340 27-02-2020 15:35:00 3 C 5.59 g/m*3 3 C 3.2 km/h
1341 27-02-2020 15:40:00 2.9 C 5.55 g/m*3 0.64 C 8.1 km/h
1342 27-02-2020 15:45:00 2.9 C 5.55 g/m*3 2.9 C 1.6 km/h
1343 27-02-2020 15:50:00 2.8 C 5.51 g/m*3 0.52 C 8.1 km/h
1344 27-02-2020 15:55:00 2.8 C 5.51 g/m*3 -0.26 C 11.3 km/h
1345 27-02-2020 16:00:00 2.7 C 5.48 g/m*3 2.7 C 3.2 km/h
1346 27-02-2020 16:05:00 2.6 C 5.44 g/m*3 2.6 C 3.2 km/h
1347 27-02-2020 16:10:00 2.6 C 5.44 g/m*3 2.6 C 1.6 km/h
1348 27-02-2020 16:15:00 2.5 C 5.4 g/m*3 2.5 C 0 km/h
1349 27-02-2020 16:20:00 2.4 C 5.37 g/m*3 2.4 C 0 km/h
1350 27-02-2020 16:25:00 2.3 C 5.33 g/m*3 2.3 C 0 km/h
Sensor: Nr:Datum:Temp:Abs-Feuchte:Windchill:Wind:
Aussen-T/F 1351 27-02-2020 16:30:00 2.2 C 5.29 g/m*3 2.2 C 0 km/h
1352 27-02-2020 16:35:00 2 C 5.22 g/m*3 2 C 0 km/h
1353 27-02-2020 16:40:00 1.8 C 5.15 g/m*3 1.8 C 0 km/h
1354 27-02-2020 16:45:00 1.7 C 5.12 g/m*3 1.7 C 0 km/h
1355 27-02-2020 16:50:00 1.6 C 5.08 g/m*3 1.6 C 0 km/h
1356 27-02-2020 16:55:00 1.5 C 5.05 g/m*3 1.5 C 0 km/h
1357 27-02-2020 17:00:00 1.4 C 5.01 g/m*3 1.4 C 0 km/h
1358 27-02-2020 17:05:00 1.3 C 4.98 g/m*3 1.3 C 1.6 km/h
1359 27-02-2020 17:10:00 1.3 C 4.98 g/m*3 1.3 C 1.6 km/h
1360 27-02-2020 17:15:00 1.2 C 4.95 g/m*3 1.2 C 0 km/h
1361 27-02-2020 17:20:00 1.2 C 4.95 g/m*3 1.2 C 0 km/h
1362 27-02-2020 17:25:00 1.2 C 4.95 g/m*3 1.2 C 0 km/h
1363 27-02-2020 17:30:00 1.1 C 4.91 g/m*3 1.1 C 0 km/h
1364 27-02-2020 17:35:00 1.1 C 4.96 g/m*3 1.1 C 1.6 km/h
1365 27-02-2020 17:40:00 1.1 C 4.96 g/m*3 1.1 C 0 km/h
1366 27-02-2020 17:45:00 1.1 C 4.96 g/m*3 1.1 C 0 km/h
1367 27-02-2020 17:50:00 1.1 C 4.96 g/m*3 1.1 C 1.6 km/h
1368 27-02-2020 17:55:00 1.1 C 4.96 g/m*3 1.1 C 0 km/h
1369 27-02-2020 18:00:00 1.1 C 4.96 g/m*3 1.1 C 1.6 km/h
1370 27-02-2020 18:05:00 1.1 C 4.96 g/m*3 1.1 C 1.6 km/h
1371 27-02-2020 18:10:00 1.1 C 4.96 g/m*3 1.1 C 0 km/h
1372 27-02-2020 18:15:00 1.1 C 4.96 g/m*3 1.1 C 0 km/h
1373 27-02-2020 18:20:00 1.1 C 4.96 g/m*3 1.1 C 0 km/h
1374 27-02-2020 18:25:00 1.1 C 4.96 g/m*3 1.1 C 1.6 km/h
1375 27-02-2020 18:30:00 1.2 C 5.05 g/m*3 1.2 C 0 km/h
Sensor: Nr:Datum:Temp:Abs-Feuchte:Windchill:Wind:
Aussen-T/F 1376 27-02-2020 18:35:00 1.3 C 5.09 g/m*3 1.3 C 0 km/h
1377 27-02-2020 18:40:00 1.3 C 5.09 g/m*3 1.3 C 0 km/h
1378 27-02-2020 18:45:00 1.3 C 5.09 g/m*3 1.3 C 0 km/h
1379 27-02-2020 18:50:00 1.2 C 5 g/m*3 1.2 C 0 km/h
1380 27-02-2020 18:55:00 1.2 C 5 g/m*3 1.2 C 0 km/h
1381 27-02-2020 19:00:00 1.3 C 5.09 g/m*3 1.3 C 3.2 km/h
1382 27-02-2020 19:05:00 1.4 C 5.12 g/m*3 1.4 C 4.8 km/h
1383 27-02-2020 19:10:00 1.5 C 5.16 g/m*3 -1.83 C 11.3 km/h
1384 27-02-2020 19:15:00 1.6 C 5.19 g/m*3 -1.33 C 9.7 km/h
1385 27-02-2020 19:20:00 1.6 C 5.19 g/m*3 1.6 C 4.8 km/h
1386 27-02-2020 19:25:00 1.6 C 5.19 g/m*3 1.6 C 4.8 km/h
1387 27-02-2020 19:30:00 1.6 C 5.19 g/m*3 1.6 C 4.8 km/h
1388 27-02-2020 19:35:00 1.6 C 5.19 g/m*3 -0.89 C 8.1 km/h
1389 27-02-2020 19:40:00 1.7 C 5.23 g/m*3 -1.59 C 11.3 km/h
1390 27-02-2020 19:45:00 1.7 C 5.23 g/m*3 -0.22 C 6.4 km/h
1391 27-02-2020 19:50:00 1.7 C 5.23 g/m*3 -1.21 C 9.7 km/h
1392 27-02-2020 19:55:00 1.7 C 5.17 g/m*3 1.7 C 4.8 km/h
1393 27-02-2020 20:00:00 1.7 C 5.17 g/m*3 -1.21 C 9.7 km/h
1394 27-02-2020 20:05:00 1.8 C 5.21 g/m*3 -1.8 C 12.9 km/h
1395 27-02-2020 20:10:00 1.8 C 5.21 g/m*3 -0.1 C 6.4 km/h
1396 27-02-2020 20:15:00 1.8 C 5.21 g/m*3 1.8 C 4.8 km/h
1397 27-02-2020 20:20:00 1.7 C 5.17 g/m*3 -0.77 C 8.1 km/h
1398 27-02-2020 20:25:00 1.7 C 5.17 g/m*3 -1.21 C 9.7 km/h
1399 27-02-2020 20:30:00 1.7 C 5.17 g/m*3 1.7 C 3.2 km/h
1400 27-02-2020 20:35:00 1.7 C 5.17 g/m*3 -0.77 C 8.1 km/h
Sensor: Nr:Datum:Temp:Abs-Feuchte:Windchill:Wind:
Aussen-T/F 1401 27-02-2020 20:40:00 1.7 C 5.17 g/m*3 -1.21 C 9.7 km/h
1402 27-02-2020 20:45:00 1.7 C 5.17 g/m*3 1.7 C 3.2 km/h
1403 27-02-2020 20:50:00 1.7 C 5.17 g/m*3 1.7 C 4.8 km/h
1404 27-02-2020 20:55:00 1.7 C 5.17 g/m*3 1.7 C 0 km/h
1405 27-02-2020 21:00:00 1.6 C 5.14 g/m*3 -0.33 C 6.4 km/h
1406 27-02-2020 21:05:00 1.7 C 5.17 g/m*3 1.7 C 4.8 km/h
1407 27-02-2020 21:10:00 1.7 C 5.17 g/m*3 1.7 C 4.8 km/h
1408 27-02-2020 21:15:00 1.7 C 5.17 g/m*3 -0.22 C 6.4 km/h
1409 27-02-2020 21:20:00 1.7 C 5.17 g/m*3 1.7 C 4.8 km/h
1410 27-02-2020 21:25:00 1.7 C 5.17 g/m*3 1.7 C 3.2 km/h
1411 27-02-2020 21:30:00 1.7 C 5.17 g/m*3 -0.77 C 8.1 km/h
1412 27-02-2020 21:35:00 1.7 C 5.17 g/m*3 -0.77 C 8.1 km/h
1413 27-02-2020 21:40:00 1.7 C 5.17 g/m*3 -0.77 C 8.1 km/h
1414 27-02-2020 21:45:00 1.7 C 5.17 g/m*3 -0.22 C 6.4 km/h
1415 27-02-2020 21:50:00 1.7 C 5.17 g/m*3 1.7 C 3.2 km/h
1416 27-02-2020 21:55:00 1.7 C 5.17 g/m*3 1.7 C 3.2 km/h
1417 27-02-2020 22:00:00 1.7 C 5.17 g/m*3 1.7 C 3.2 km/h
1418 27-02-2020 22:05:00 1.7 C 5.17 g/m*3 1.7 C 1.6 km/h
1419 27-02-2020 22:10:00 1.7 C 5.17 g/m*3 1.7 C 3.2 km/h
1420 27-02-2020 22:15:00 1.6 C 5.14 g/m*3 1.6 C 0 km/h
1421 27-02-2020 22:20:00 1.6 C 5.14 g/m*3 1.6 C 1.6 km/h
1422 27-02-2020 22:25:00 1.6 C 5.14 g/m*3 1.6 C 1.6 km/h
1423 27-02-2020 22:30:00 1.6 C 5.19 g/m*3 1.6 C 4.8 km/h
1424 27-02-2020 22:35:00 1.7 C 5.23 g/m*3 -0.22 C 6.4 km/h
1425 27-02-2020 22:40:00 1.8 C 5.26 g/m*3 -0.1 C 6.4 km/h
Sensor: Nr:Datum:Temp:Abs-Feuchte:Windchill:Wind:
Aussen-T/F 1426 27-02-2020 22:45:00 1.9 C 5.3 g/m*3 0.01 C 6.4 km/h
1427 27-02-2020 22:50:00 1.9 C 5.3 g/m*3 1.9 C 3.2 km/h
1428 27-02-2020 22:55:00 1.9 C 5.3 g/m*3 0.01 C 6.4 km/h
1429 27-02-2020 23:00:00 1.9 C 5.3 g/m*3 0.01 C 6.4 km/h
1430 27-02-2020 23:05:00 2.1 C 5.37 g/m*3 2.1 C 4.8 km/h
1431 27-02-2020 23:10:00 2.1 C 5.37 g/m*3 0.24 C 6.4 km/h
1432 27-02-2020 23:15:00 2.2 C 5.35 g/m*3 -0.18 C 8.1 km/h
1433 27-02-2020 23:20:00 2.2 C 5.41 g/m*3 -0.18 C 8.1 km/h
1434 27-02-2020 23:25:00 2.3 C 5.39 g/m*3 -0.49 C 9.7 km/h
1435 27-02-2020 23:30:00 2.3 C 5.39 g/m*3 -0.87 C 11.3 km/h
1436 27-02-2020 23:35:00 2.4 C 5.42 g/m*3 -1.37 C 14.5 km/h
1437 27-02-2020 23:40:00 2.5 C 5.46 g/m*3 -0.62 C 11.3 km/h
1438 27-02-2020 23:45:00 2.5 C 5.46 g/m*3 -0.62 C 11.3 km/h
1439 27-02-2020 23:50:00 2.6 C 5.44 g/m*3 -1.39 C 16.1 km/h
1440 27-02-2020 23:55:00 2.6 C 5.44 g/m*3 0.29 C 8.1 km/h
1441 28-02-2020 00:00:00 2.7 C 5.48 g/m*3 -0.38 C 11.3 km/h
1442 28-02-2020 00:05:00 2.7 C 5.42 g/m*3 -0.38 C 11.3 km/h
1443 28-02-2020 00:10:00 2.7 C 5.42 g/m*3 -0.71 C 12.9 km/h
1444 28-02-2020 00:15:00 2.8 C 5.46 g/m*3 1.05 C 6.4 km/h
1445 28-02-2020 00:20:00 2.8 C 5.4 g/m*3 -0.88 C 14.5 km/h
1446 28-02-2020 00:25:00 2.8 C 5.4 g/m*3 1.05 C 6.4 km/h
1447 28-02-2020 00:30:00 2.8 C 5.4 g/m*3 1.05 C 6.4 km/h
1448 28-02-2020 00:35:00 2.8 C 5.4 g/m*3 2.8 C 3.2 km/h
1449 28-02-2020 00:40:00 2.8 C 5.4 g/m*3 2.8 C 4.8 km/h
1450 28-02-2020 00:45:00 2.7 C 5.42 g/m*3 2.7 C 3.2 km/h
Sensor: Nr:Datum:Temp:Abs-Feuchte:Windchill:Wind:
Aussen-T/F 1451 28-02-2020 00:50:00 2.7 C 5.42 g/m*3 -0.02 C 9.7 km/h
1452 28-02-2020 00:55:00 2.7 C 5.42 g/m*3 2.7 C 4.8 km/h
1453 28-02-2020 01:00:00 2.7 C 5.42 g/m*3 2.7 C 0 km/h
1454 28-02-2020 01:05:00 2.7 C 5.42 g/m*3 2.7 C 3.2 km/h
1455 28-02-2020 01:10:00 2.6 C 5.38 g/m*3 2.6 C 4.8 km/h
1456 28-02-2020 01:15:00 2.5 C 5.35 g/m*3 2.5 C 4.8 km/h
1457 28-02-2020 01:20:00 2.4 C 5.31 g/m*3 2.4 C 3.2 km/h
1458 28-02-2020 01:25:00 2.4 C 5.37 g/m*3 2.4 C 4.8 km/h
1459 28-02-2020 01:30:00 2.3 C 5.33 g/m*3 2.3 C 3.2 km/h
1460 28-02-2020 01:35:00 2.3 C 5.33 g/m*3 2.3 C 4.8 km/h
1461 28-02-2020 01:40:00 2.3 C 5.33 g/m*3 0.47 C 6.4 km/h
1462 28-02-2020 01:45:00 2.3 C 5.33 g/m*3 2.3 C 4.8 km/h
1463 28-02-2020 01:50:00 2.3 C 5.33 g/m*3 2.3 C 3.2 km/h
1464 28-02-2020 01:55:00 2.3 C 5.33 g/m*3 2.3 C 0 km/h
1465 28-02-2020 02:00:00 2.3 C 5.33 g/m*3 2.3 C 4.8 km/h
1466 28-02-2020 02:05:00 2.3 C 5.33 g/m*3 2.3 C 4.8 km/h
1467 28-02-2020 02:10:00 2.2 C 5.29 g/m*3 2.2 C 3.2 km/h
1468 28-02-2020 02:15:00 2.2 C 5.29 g/m*3 2.2 C 3.2 km/h
1469 28-02-2020 02:20:00 2.2 C 5.29 g/m*3 2.2 C 0 km/h
1470 28-02-2020 02:25:00 2.2 C 5.35 g/m*3 2.2 C 3.2 km/h
1471 28-02-2020 02:30:00 2.1 C 5.26 g/m*3 2.1 C 4.8 km/h
1472 28-02-2020 02:35:00 2.1 C 5.26 g/m*3 2.1 C 4.8 km/h
1473 28-02-2020 02:40:00 2.1 C 5.26 g/m*3 2.1 C 4.8 km/h
1474 28-02-2020 02:45:00 2.1 C 5.26 g/m*3 2.1 C 4.8 km/h
1475 28-02-2020 02:50:00 2.1 C 5.26 g/m*3 2.1 C 4.8 km/h
Sensor: Nr:Datum:Temp:Abs-Feuchte:Windchill:Wind:
Aussen-T/F 1476 28-02-2020 02:55:00 2.1 C 5.26 g/m*3 0.24 C 6.4 km/h
1477 28-02-2020 03:00:00 2.1 C 5.26 g/m*3 -0.3 C 8.1 km/h
1478 28-02-2020 03:05:00 2 C 5.22 g/m*3 2 C 4.8 km/h
1479 28-02-2020 03:10:00 2 C 5.22 g/m*3 2 C 4.8 km/h
1480 28-02-2020 03:15:00 2 C 5.22 g/m*3 2 C 4.8 km/h
1481 28-02-2020 03:20:00 2 C 5.22 g/m*3 2 C 4.8 km/h
1482 28-02-2020 03:25:00 1.9 C 5.19 g/m*3 1.9 C 3.2 km/h
1483 28-02-2020 03:30:00 1.9 C 5.19 g/m*3 1.9 C 4.8 km/h
1484 28-02-2020 03:35:00 1.8 C 5.15 g/m*3 1.8 C 4.8 km/h
1485 28-02-2020 03:40:00 1.8 C 5.15 g/m*3 1.8 C 4.8 km/h
1486 28-02-2020 03:45:00 1.8 C 5.15 g/m*3 1.8 C 3.2 km/h
1487 28-02-2020 03:50:00 1.8 C 5.15 g/m*3 1.8 C 4.8 km/h
1488 28-02-2020 03:55:00 1.7 C 5.12 g/m*3 1.7 C 4.8 km/h
1489 28-02-2020 04:00:00 1.7 C 5.12 g/m*3 -0.22 C 6.4 km/h
1490 28-02-2020 04:05:00 1.7 C 5.12 g/m*3 -0.22 C 6.4 km/h
1491 28-02-2020 04:10:00 1.8 C 5.15 g/m*3 1.8 C 4.8 km/h
1492 28-02-2020 04:15:00 1.8 C 5.15 g/m*3 1.8 C 1.6 km/h
1493 28-02-2020 04:20:00 1.8 C 5.15 g/m*3 -0.1 C 6.4 km/h
1494 28-02-2020 04:25:00 1.8 C 5.15 g/m*3 1.8 C 3.2 km/h
1495 28-02-2020 04:30:00 1.9 C 5.19 g/m*3 1.9 C 3.2 km/h
1496 28-02-2020 04:35:00 1.9 C 5.19 g/m*3 1.9 C 3.2 km/h
1497 28-02-2020 04:40:00 1.9 C 5.19 g/m*3 -0.54 C 8.1 km/h
1498 28-02-2020 04:45:00 1.9 C 5.19 g/m*3 1.9 C 3.2 km/h
1499 28-02-2020 04:50:00 1.8 C 5.15 g/m*3 1.8 C 3.2 km/h
1500 28-02-2020 04:55:00 1.8 C 5.15 g/m*3 -0.1 C 6.4 km/h
Sensor: Nr:Datum:Temp:Abs-Feuchte:Windchill:Wind:
Aussen-T/F 1501 28-02-2020 05:00:00 1.9 C 5.19 g/m*3 0.01 C 6.4 km/h
1502 28-02-2020 05:05:00 1.8 C 5.15 g/m*3 -1.47 C 11.3 km/h
1503 28-02-2020 05:10:00 1.9 C 5.19 g/m*3 1.9 C 3.2 km/h
1504 28-02-2020 05:15:00 1.8 C 5.15 g/m*3 -0.1 C 6.4 km/h
1505 28-02-2020 05:20:00 1.8 C 5.15 g/m*3 1.8 C 3.2 km/h
1506 28-02-2020 05:25:00 1.7 C 5.12 g/m*3 1.7 C 4.8 km/h
1507 28-02-2020 05:30:00 1.6 C 5.08 g/m*3 -0.89 C 8.1 km/h
1508 28-02-2020 05:35:00 1.6 C 5.08 g/m*3 -0.89 C 8.1 km/h
1509 28-02-2020 05:40:00 1.7 C 5.12 g/m*3 -1.59 C 11.3 km/h
1510 28-02-2020 05:45:00 1.7 C 5.12 g/m*3 1.7 C 4.8 km/h
1511 28-02-2020 05:50:00 1.7 C 5.12 g/m*3 1.7 C 4.8 km/h
1512 28-02-2020 05:55:00 1.6 C 5.08 g/m*3 1.6 C 4.8 km/h
1513 28-02-2020 06:00:00 1.6 C 5.03 g/m*3 -1.33 C 9.7 km/h
1514 28-02-2020 06:05:00 1.6 C 5.08 g/m*3 -1.33 C 9.7 km/h
1515 28-02-2020 06:10:00 1.5 C 5.05 g/m*3 -0.45 C 6.4 km/h
1516 28-02-2020 06:15:00 1.4 C 4.96 g/m*3 1.4 C 4.8 km/h
1517 28-02-2020 06:20:00 1.4 C 5.01 g/m*3 -1.57 C 9.7 km/h
1518 28-02-2020 06:25:00 1.4 C 5.01 g/m*3 -1.57 C 9.7 km/h
1519 28-02-2020 06:30:00 1.4 C 5.01 g/m*3 -0.56 C 6.4 km/h
1520 28-02-2020 06:35:00 1.4 C 4.96 g/m*3 -1.57 C 9.7 km/h
1521 28-02-2020 06:40:00 1.4 C 4.96 g/m*3 -0.56 C 6.4 km/h
1522 28-02-2020 06:45:00 1.3 C 4.93 g/m*3 1.3 C 4.8 km/h
1523 28-02-2020 06:50:00 1.3 C 4.98 g/m*3 -1.24 C 8.1 km/h
1524 28-02-2020 06:55:00 1.3 C 4.98 g/m*3 -0.68 C 6.4 km/h
1525 28-02-2020 07:00:00 1.3 C 4.98 g/m*3 1.3 C 4.8 km/h
Sensor: Nr:Datum:Temp:Abs-Feuchte:Windchill:Wind:
Aussen-T/F 1526 28-02-2020 07:05:00 1.2 C 4.89 g/m*3 1.2 C 4.8 km/h
1527 28-02-2020 07:10:00 1.2 C 4.89 g/m*3 1.2 C 3.2 km/h
1528 28-02-2020 07:15:00 1.2 C 4.89 g/m*3 -0.8 C 6.4 km/h
1529 28-02-2020 07:20:00 1.1 C 4.86 g/m*3 -1.48 C 8.1 km/h
1530 28-02-2020 07:25:00 1.1 C 4.86 g/m*3 -1.92 C 9.7 km/h
1531 28-02-2020 07:30:00 1.1 C 4.86 g/m*3 -1.92 C 9.7 km/h
1532 28-02-2020 07:35:00 1.1 C 4.86 g/m*3 -1.48 C 8.1 km/h
1533 28-02-2020 07:40:00 1.2 C 4.89 g/m*3 -1.8 C 9.7 km/h
1534 28-02-2020 07:45:00 1.2 C 4.89 g/m*3 1.2 C 4.8 km/h
1535 28-02-2020 07:50:00 1.1 C 4.86 g/m*3 1.1 C 4.8 km/h
1536 28-02-2020 07:55:00 1.1 C 4.86 g/m*3 -0.91 C 6.4 km/h
1537 28-02-2020 08:00:00 1.1 C 4.86 g/m*3 1.1 C 4.8 km/h
1538 28-02-2020 08:05:00 1.1 C 4.86 g/m*3 1.1 C 3.2 km/h
1539 28-02-2020 08:10:00 1 C 4.83 g/m*3 1 C 4.8 km/h
1540 28-02-2020 08:15:00 1.1 C 4.91 g/m*3 -0.91 C 6.4 km/h
1541 28-02-2020 08:20:00 1.1 C 4.91 g/m*3 1.1 C 4.8 km/h
1542 28-02-2020 08:25:00 1.1 C 4.91 g/m*3 1.1 C 3.2 km/h
1543 28-02-2020 08:30:00 1.1 C 4.91 g/m*3 1.1 C 4.8 km/h
1544 28-02-2020 08:35:00 1.1 C 4.91 g/m*3 1.1 C 4.8 km/h
1545 28-02-2020 08:40:00 1.2 C 4.95 g/m*3 -0.8 C 6.4 km/h
1546 28-02-2020 08:45:00 1.2 C 4.95 g/m*3 1.2 C 4.8 km/h
1547 28-02-2020 08:50:00 1.3 C 4.98 g/m*3 -1.24 C 8.1 km/h
1548 28-02-2020 08:55:00 1.4 C 5.01 g/m*3 -0.56 C 6.4 km/h
1549 28-02-2020 09:00:00 1.5 C 5.05 g/m*3 -0.45 C 6.4 km/h
1550 28-02-2020 09:05:00 1.6 C 5.08 g/m*3 -0.89 C 8.1 km/h
Sensor: Nr:Datum:Temp:Abs-Feuchte:Windchill:Wind:
Aussen-T/F 1551 28-02-2020 09:10:00 1.7 C 5.12 g/m*3 -0.77 C 8.1 km/h
1552 28-02-2020 09:15:00 1.8 C 5.15 g/m*3 -0.65 C 8.1 km/h
1553 28-02-2020 09:20:00 1.9 C 5.19 g/m*3 0.01 C 6.4 km/h
1554 28-02-2020 09:25:00 1.9 C 5.13 g/m*3 0.01 C 6.4 km/h
1555 28-02-2020 09:30:00 2 C 5.17 g/m*3 -1.23 C 11.3 km/h
1556 28-02-2020 09:35:00 2.1 C 5.2 g/m*3 0.24 C 6.4 km/h
1557 28-02-2020 09:40:00 2.2 C 5.24 g/m*3 0.36 C 6.4 km/h
1558 28-02-2020 09:45:00 2.3 C 5.27 g/m*3 0.47 C 6.4 km/h
1559 28-02-2020 09:50:00 2.3 C 5.22 g/m*3 -0.49 C 9.7 km/h
1560 28-02-2020 09:55:00 2.4 C 5.25 g/m*3 -0.74 C 11.3 km/h
1561 28-02-2020 10:00:00 2.5 C 5.29 g/m*3 0.17 C 8.1 km/h
1562 28-02-2020 10:05:00 2.6 C 5.32 g/m*3 -0.14 C 9.7 km/h
1563 28-02-2020 10:10:00 2.7 C 5.3 g/m*3 -0.02 C 9.7 km/h
1564 28-02-2020 10:15:00 2.7 C 5.3 g/m*3 -0.02 C 9.7 km/h
1565 28-02-2020 10:20:00 2.8 C 5.34 g/m*3 -0.59 C 12.9 km/h
1566 28-02-2020 10:25:00 2.9 C 5.32 g/m*3 -0.14 C 11.3 km/h
1567 28-02-2020 10:30:00 3.1 C 5.39 g/m*3 0.87 C 8.1 km/h
1568 28-02-2020 10:35:00 3.2 C 5.42 g/m*3 0.22 C 11.3 km/h
1569 28-02-2020 10:40:00 3.3 C 5.4 g/m*3 0.7 C 9.7 km/h
1570 28-02-2020 10:45:00 3.4 C 5.37 g/m*3 0.14 C 12.9 km/h
1571 28-02-2020 10:50:00 3.4 C 5.37 g/m*3 0.14 C 12.9 km/h
1572 28-02-2020 10:55:00 3.5 C 5.41 g/m*3 0.27 C 12.9 km/h
1573 28-02-2020 11:00:00 3.5 C 5.35 g/m*3 0.27 C 12.9 km/h
1574 28-02-2020 11:05:00 3.6 C 5.39 g/m*3 0.7 C 11.3 km/h
1575 28-02-2020 11:10:00 3.6 C 5.39 g/m*3 0.11 C 14.5 km/h
Sensor: Nr:Datum:Temp:Abs-Feuchte:Windchill:Wind:
Aussen-T/F 1576 28-02-2020 11:15:00 3.6 C 5.39 g/m*3 0.39 C 12.9 km/h
1577 28-02-2020 11:20:00 3.7 C 5.42 g/m*3 0.23 C 14.5 km/h
1578 28-02-2020 11:25:00 3.7 C 5.36 g/m*3 0.51 C 12.9 km/h
1579 28-02-2020 11:30:00 3.8 C 5.4 g/m*3 0.63 C 12.9 km/h
1580 28-02-2020 11:35:00 3.8 C 5.46 g/m*3 0.94 C 11.3 km/h
1581 28-02-2020 11:40:00 3.9 C 5.49 g/m*3 1.41 C 9.7 km/h
1582 28-02-2020 11:45:00 4 C 5.47 g/m*3 0.11 C 17.7 km/h
1583 28-02-2020 11:50:00 4.1 C 5.5 g/m*3 1.31 C 11.3 km/h
1584 28-02-2020 11:55:00 4.1 C 5.5 g/m*3 0.47 C 16.1 km/h
1585 28-02-2020 12:00:00 4.2 C 5.54 g/m*3 0.84 C 14.5 km/h
1586 28-02-2020 12:05:00 4.3 C 5.58 g/m*3 0.97 C 14.5 km/h
1587 28-02-2020 12:10:00 4.3 C 5.51 g/m*3 0.97 C 14.5 km/h
1588 28-02-2020 12:15:00 4.3 C 5.58 g/m*3 1.24 C 12.9 km/h
1589 28-02-2020 12:20:00 4.3 C 5.58 g/m*3 1.24 C 12.9 km/h
1590 28-02-2020 12:25:00 4.6 C 5.69 g/m*3 1.09 C 16.1 km/h
1591 28-02-2020 12:30:00 4.6 C 5.62 g/m*3 0.65 C 19.3 km/h
1592 28-02-2020 12:35:00 4.7 C 5.6 g/m*3 1.46 C 14.5 km/h
1593 28-02-2020 12:40:00 4.7 C 5.6 g/m*3 1.46 C 14.5 km/h
1594 28-02-2020 12:45:00 4.9 C 5.67 g/m*3 1.46 C 16.1 km/h
1595 28-02-2020 12:50:00 5.1 C 5.75 g/m*3 2.84 C 9.7 km/h
1596 28-02-2020 12:55:00 5.2 C 5.78 g/m*3 2.96 C 9.7 km/h
1597 28-02-2020 13:00:00 5.4 C 5.86 g/m*3 2.87 C 11.3 km/h
1598 28-02-2020 13:05:00 5.6 C 5.8 g/m*3 2.33 C 16.1 km/h
1599 28-02-2020 13:10:00 5.7 C 5.84 g/m*3 2.45 C 16.1 km/h
1600 28-02-2020 13:15:00 5.8 C 5.87 g/m*3 3.36 C 11.3 km/h
Sensor: Nr:Datum:Temp:Abs-Feuchte:Windchill:Wind:
Aussen-T/F 1601 28-02-2020 13:20:00 5.9 C 5.84 g/m*3 3.19 C 12.9 km/h
1602 28-02-2020 13:25:00 6 C 5.81 g/m*3 3.6 C 11.3 km/h
1603 28-02-2020 13:30:00 6.1 C 5.77 g/m*3 3.72 C 11.3 km/h
1604 28-02-2020 13:35:00 6.2 C 5.81 g/m*3 4.52 C 8.1 km/h
1605 28-02-2020 13:40:00 6.3 C 5.77 g/m*3 4.64 C 8.1 km/h
1606 28-02-2020 13:45:00 6.4 C 5.81 g/m*3 3.8 C 12.9 km/h
1607 28-02-2020 13:50:00 6.6 C 5.81 g/m*3 4.63 C 9.7 km/h
1608 28-02-2020 13:55:00 6.7 C 5.7 g/m*3 4.75 C 9.7 km/h
1609 28-02-2020 14:00:00 6.9 C 5.77 g/m*3 4.16 C 14.5 km/h
1610 28-02-2020 14:05:00 7.1 C 5.85 g/m*3 5.58 C 8.1 km/h
1611 28-02-2020 14:10:00 7.3 C 5.93 g/m*3 5.47 C 9.7 km/h
1612 28-02-2020 14:15:00 7.3 C 5.85 g/m*3 5.81 C 8.1 km/h
1613 28-02-2020 14:20:00 7.3 C 5.85 g/m*3 6.25 C 6.4 km/h
1614 28-02-2020 14:25:00 7.3 C 5.85 g/m*3 4.66 C 14.5 km/h
1615 28-02-2020 14:30:00 7.4 C 5.81 g/m*3 5.58 C 9.7 km/h
1616 28-02-2020 14:35:00 7.5 C 5.84 g/m*3 4.3 C 19.3 km/h
1617 28-02-2020 14:40:00 7.6 C 5.8 g/m*3 5.26 C 12.9 km/h
1618 28-02-2020 14:45:00 7.6 C 5.88 g/m*3 6.6 C 6.4 km/h
1619 28-02-2020 14:50:00 7.6 C 5.8 g/m*3 5.53 C 11.3 km/h
1620 28-02-2020 14:55:00 7.5 C 5.84 g/m*3 5.41 C 11.3 km/h
1621 28-02-2020 15:00:00 7.3 C 5.69 g/m*3 5.16 C 11.3 km/h
1622 28-02-2020 15:05:00 7.3 C 5.93 g/m*3 7.3 C 4.8 km/h
1623 28-02-2020 15:10:00 7.4 C 5.96 g/m*3 6.37 C 6.4 km/h
1624 28-02-2020 15:15:00 7.4 C 5.81 g/m*3 5.58 C 9.7 km/h
1625 28-02-2020 15:20:00 7.4 C 5.81 g/m*3 5.28 C 11.3 km/h
Sensor: Nr:Datum:Temp:Abs-Feuchte:Windchill:Wind:
Aussen-T/F 1626 28-02-2020 15:25:00 7.5 C 5.76 g/m*3 5.7 C 9.7 km/h
1627 28-02-2020 15:30:00 7.6 C 5.88 g/m*3 6.6 C 6.4 km/h
1628 28-02-2020 15:35:00 7.6 C 5.8 g/m*3 6.16 C 8.1 km/h
1629 28-02-2020 15:40:00 7.6 C 5.64 g/m*3 6.6 C 6.4 km/h
1630 28-02-2020 15:45:00 7.5 C 5.6 g/m*3 5.7 C 9.7 km/h
1631 28-02-2020 15:50:00 7.4 C 5.65 g/m*3 5.58 C 9.7 km/h
1632 28-02-2020 15:55:00 7.4 C 5.65 g/m*3 7.4 C 4.8 km/h
1633 28-02-2020 16:00:00 7.4 C 5.73 g/m*3 5.28 C 11.3 km/h
1634 28-02-2020 16:05:00 7.3 C 5.61 g/m*3 5.81 C 8.1 km/h
1635 28-02-2020 16:10:00 7.3 C 5.85 g/m*3 7.3 C 4.8 km/h
1636 28-02-2020 16:15:00 7.2 C 5.73 g/m*3 7.2 C 3.2 km/h
1637 28-02-2020 16:20:00 7.2 C 5.89 g/m*3 7.2 C 3.2 km/h
1638 28-02-2020 16:25:00 7.3 C 5.93 g/m*3 7.3 C 3.2 km/h
1639 28-02-2020 16:30:00 7.2 C 5.89 g/m*3 7.2 C 1.6 km/h
1640 28-02-2020 16:35:00 7.2 C 6.04 g/m*3 7.2 C 0 km/h
1641 28-02-2020 16:40:00 7.2 C 6.12 g/m*3 7.2 C 0 km/h
1642 28-02-2020 16:45:00 7.2 C 6.04 g/m*3 6.13 C 6.4 km/h
1643 28-02-2020 16:50:00 7.1 C 6.16 g/m*3 7.1 C 1.6 km/h
1644 28-02-2020 16:55:00 7.1 C 6.08 g/m*3 7.1 C 1.6 km/h
1645 28-02-2020 17:00:00 7 C 6.2 g/m*3 7 C 0 km/h
1646 28-02-2020 17:05:00 7 C 6.12 g/m*3 7 C 1.6 km/h
1647 28-02-2020 17:10:00 6.9 C 6.24 g/m*3 6.9 C 0 km/h
1648 28-02-2020 17:15:00 6.8 C 6.19 g/m*3 6.8 C 0 km/h
1649 28-02-2020 17:20:00 6.8 C 6.27 g/m*3 6.8 C 0 km/h
1650 28-02-2020 17:25:00 6.6 C 6.19 g/m*3 6.6 C 1.6 km/h
Sensor: Nr:Datum:Temp:Abs-Feuchte:Windchill:Wind:
Aussen-T/F 1651 28-02-2020 17:30:00 6.4 C 6.11 g/m*3 6.4 C 3.2 km/h
1652 28-02-2020 17:35:00 6.2 C 5.88 g/m*3 6.2 C 3.2 km/h
1653 28-02-2020 17:40:00 6 C 5.88 g/m*3 6 C 3.2 km/h
1654 28-02-2020 17:45:00 5.9 C 5.98 g/m*3 5.9 C 3.2 km/h
1655 28-02-2020 17:50:00 5.8 C 5.95 g/m*3 5.8 C 1.6 km/h
1656 28-02-2020 17:55:00 5.7 C 5.98 g/m*3 5.7 C 0 km/h
1657 28-02-2020 18:00:00 5.5 C 5.9 g/m*3 5.5 C 0 km/h
1658 28-02-2020 18:05:00 5.4 C 5.86 g/m*3 5.4 C 0 km/h
1659 28-02-2020 18:10:00 5.3 C 5.89 g/m*3 5.3 C 0 km/h
1660 28-02-2020 18:15:00 5.2 C 5.85 g/m*3 5.2 C 0 km/h
1661 28-02-2020 18:20:00 5.1 C 5.81 g/m*3 5.1 C 0 km/h
1662 28-02-2020 18:25:00 5.1 C 5.81 g/m*3 5.1 C 4.8 km/h
1663 28-02-2020 18:30:00 5.1 C 5.75 g/m*3 3.71 C 6.4 km/h
1664 28-02-2020 18:35:00 5.3 C 5.61 g/m*3 2.75 C 11.3 km/h
1665 28-02-2020 18:40:00 5.5 C 5.76 g/m*3 5.5 C 1.6 km/h
1666 28-02-2020 18:45:00 5.6 C 5.59 g/m*3 5.6 C 4.8 km/h
1667 28-02-2020 18:50:00 5.7 C 5.62 g/m*3 4.4 C 6.4 km/h
1668 28-02-2020 18:55:00 5.7 C 5.69 g/m*3 5.7 C 4.8 km/h
1669 28-02-2020 19:00:00 5.7 C 5.76 g/m*3 5.7 C 1.6 km/h
1670 28-02-2020 19:05:00 5.7 C 5.62 g/m*3 3.93 C 8.1 km/h
1671 28-02-2020 19:10:00 5.7 C 5.62 g/m*3 4.4 C 6.4 km/h
1672 28-02-2020 19:15:00 5.7 C 5.76 g/m*3 5.7 C 3.2 km/h
1673 28-02-2020 19:20:00 5.6 C 5.37 g/m*3 3.81 C 8.1 km/h
1674 28-02-2020 19:25:00 5.7 C 5.55 g/m*3 4.4 C 6.4 km/h
1675 28-02-2020 19:30:00 5.7 C 5.69 g/m*3 5.7 C 1.6 km/h
Sensor: Nr:Datum:Temp:Abs-Feuchte:Windchill:Wind:
Aussen-T/F 1676 28-02-2020 19:35:00 5.6 C 5.66 g/m*3 5.6 C 1.6 km/h
1677 28-02-2020 19:40:00 5.5 C 5.48 g/m*3 3.7 C 8.1 km/h
1678 28-02-2020 19:45:00 5.6 C 5.66 g/m*3 5.6 C 3.2 km/h
1679 28-02-2020 19:50:00 5.6 C 5.66 g/m*3 5.6 C 3.2 km/h
1680 28-02-2020 19:55:00 5.6 C 5.66 g/m*3 5.6 C 1.6 km/h
1681 28-02-2020 20:00:00 5.5 C 5.69 g/m*3 5.5 C 0 km/h
1682 28-02-2020 20:05:00 5.4 C 5.72 g/m*3 5.4 C 4.8 km/h
1683 28-02-2020 20:10:00 5.4 C 5.51 g/m*3 5.4 C 3.2 km/h
1684 28-02-2020 20:15:00 5.4 C 5.58 g/m*3 5.4 C 1.6 km/h
1685 28-02-2020 20:20:00 5.5 C 5.69 g/m*3 3.7 C 8.1 km/h
1686 28-02-2020 20:25:00 5.6 C 5.73 g/m*3 3.44 C 9.7 km/h
1687 28-02-2020 20:30:00 5.6 C 5.73 g/m*3 5.6 C 3.2 km/h
1688 28-02-2020 20:35:00 5.6 C 5.73 g/m*3 2.83 C 12.9 km/h
1689 28-02-2020 20:40:00 5.6 C 5.73 g/m*3 5.6 C 4.8 km/h
1690 28-02-2020 20:45:00 5.6 C 5.87 g/m*3 3.81 C 8.1 km/h
1691 28-02-2020 20:50:00 5.4 C 5.86 g/m*3 2.08 C 16.1 km/h
1692 28-02-2020 20:55:00 5.4 C 5.79 g/m*3 3.58 C 8.1 km/h
1693 28-02-2020 21:00:00 5.3 C 5.89 g/m*3 5.3 C 4.8 km/h
1694 28-02-2020 21:05:00 5.3 C 5.96 g/m*3 5.3 C 3.2 km/h
1695 28-02-2020 21:10:00 5.2 C 5.92 g/m*3 5.2 C 3.2 km/h
1696 28-02-2020 21:15:00 5.1 C 5.95 g/m*3 5.1 C 1.6 km/h
1697 28-02-2020 21:20:00 5 C 5.98 g/m*3 5 C 4.8 km/h
1698 28-02-2020 21:25:00 4.9 C 5.87 g/m*3 2.99 C 8.1 km/h
1699 28-02-2020 21:30:00 4.9 C 5.94 g/m*3 4.9 C 3.2 km/h
1700 28-02-2020 21:35:00 4.8 C 5.9 g/m*3 4.8 C 4.8 km/h
Sensor: Nr:Datum:Temp:Abs-Feuchte:Windchill:Wind:
Aussen-T/F 1701 28-02-2020 21:40:00 4.8 C 5.83 g/m*3 4.8 C 4.8 km/h
1702 28-02-2020 21:45:00 4.9 C 5.81 g/m*3 2.61 C 9.7 km/h
1703 28-02-2020 21:50:00 5 C 5.84 g/m*3 3.11 C 8.1 km/h
1704 28-02-2020 21:55:00 5.1 C 5.88 g/m*3 5.1 C 4.8 km/h
1705 28-02-2020 22:00:00 5.1 C 5.88 g/m*3 5.1 C 4.8 km/h
1706 28-02-2020 22:05:00 5.2 C 5.85 g/m*3 3.82 C 6.4 km/h
1707 28-02-2020 22:10:00 5.2 C 5.85 g/m*3 5.2 C 3.2 km/h
1708 28-02-2020 22:15:00 5.2 C 5.85 g/m*3 3.82 C 6.4 km/h
1709 28-02-2020 22:20:00 5.2 C 5.92 g/m*3 5.2 C 4.8 km/h
1710 28-02-2020 22:25:00 5.1 C 6.02 g/m*3 5.1 C 1.6 km/h
1711 28-02-2020 22:30:00 5 C 6.05 g/m*3 5 C 3.2 km/h
1712 28-02-2020 22:35:00 4.9 C 6.01 g/m*3 4.9 C 0 km/h
1713 28-02-2020 22:40:00 4.8 C 5.97 g/m*3 4.8 C 1.6 km/h
1714 28-02-2020 22:45:00 4.7 C 6 g/m*3 4.7 C 3.2 km/h
1715 28-02-2020 22:50:00 4.7 C 6.06 g/m*3 4.7 C 3.2 km/h
1716 28-02-2020 22:55:00 4.6 C 6.02 g/m*3 4.6 C 3.2 km/h
1717 28-02-2020 23:00:00 4.6 C 6.09 g/m*3 4.6 C 0 km/h
1718 28-02-2020 23:05:00 4.5 C 6.05 g/m*3 4.5 C 3.2 km/h
1719 28-02-2020 23:10:00 4.4 C 6.01 g/m*3 4.4 C 3.2 km/h
1720 28-02-2020 23:15:00 4.3 C 5.97 g/m*3 4.3 C 1.6 km/h
1721 28-02-2020 23:20:00 4.3 C 6.03 g/m*3 4.3 C 3.2 km/h
1722 28-02-2020 23:25:00 4.3 C 6.03 g/m*3 4.3 C 1.6 km/h
1723 28-02-2020 23:30:00 4.3 C 6.03 g/m*3 4.3 C 3.2 km/h
1724 28-02-2020 23:35:00 4.4 C 6.07 g/m*3 2.9 C 6.4 km/h
1725 28-02-2020 23:40:00 4.4 C 6.07 g/m*3 4.4 C 0 km/h
Sensor: Nr:Datum:Temp:Abs-Feuchte:Windchill:Wind:
Aussen-T/F 1726 28-02-2020 23:45:00 4.5 C 6.11 g/m*3 4.5 C 3.2 km/h
1727 28-02-2020 23:50:00 4.5 C 6.11 g/m*3 4.5 C 1.6 km/h
1728 28-02-2020 23:55:00 4.5 C 6.11 g/m*3 4.5 C 1.6 km/h
1729 29-02-2020 00:00:00 4.6 C 6.22 g/m*3 4.6 C 1.6 km/h
1730 29-02-2020 00:05:00 4.6 C 6.22 g/m*3 3.13 C 6.4 km/h
1731 29-02-2020 00:10:00 4.7 C 6.26 g/m*3 4.7 C 1.6 km/h
1732 29-02-2020 00:15:00 4.8 C 6.3 g/m*3 4.8 C 1.6 km/h
1733 29-02-2020 00:20:00 4.9 C 6.35 g/m*3 2.61 C 9.7 km/h
1734 29-02-2020 00:25:00 5.1 C 6.43 g/m*3 2.84 C 9.7 km/h
1735 29-02-2020 00:30:00 5.2 C 6.47 g/m*3 2.63 C 11.3 km/h
1736 29-02-2020 00:35:00 5.3 C 6.52 g/m*3 5.3 C 4.8 km/h
1737 29-02-2020 00:40:00 5.5 C 6.53 g/m*3 5.5 C 4.8 km/h
1738 29-02-2020 00:45:00 5.6 C 6.57 g/m*3 5.6 C 1.6 km/h
1739 29-02-2020 00:50:00 5.6 C 6.57 g/m*3 5.6 C 3.2 km/h
1740 29-02-2020 00:55:00 5.7 C 6.62 g/m*3 5.7 C 3.2 km/h
1741 29-02-2020 01:00:00 5.6 C 6.57 g/m*3 5.6 C 0 km/h
1742 29-02-2020 01:05:00 5.7 C 6.62 g/m*3 5.7 C 1.6 km/h
1743 29-02-2020 01:10:00 5.7 C 6.62 g/m*3 5.7 C 1.6 km/h
1744 29-02-2020 01:15:00 5.7 C 6.62 g/m*3 5.7 C 0 km/h
1745 29-02-2020 01:20:00 5.6 C 6.57 g/m*3 5.6 C 0 km/h
1746 29-02-2020 01:25:00 5.6 C 6.57 g/m*3 5.6 C 3.2 km/h
1747 29-02-2020 01:30:00 5.6 C 6.65 g/m*3 5.6 C 3.2 km/h
1748 29-02-2020 01:35:00 5.7 C 6.69 g/m*3 5.7 C 1.6 km/h
1749 29-02-2020 01:40:00 5.7 C 6.69 g/m*3 5.7 C 0 km/h
1750 29-02-2020 01:45:00 5.8 C 6.73 g/m*3 5.8 C 3.2 km/h
Sensor: Nr:Datum:Temp:Abs-Feuchte:Windchill:Wind:
Aussen-T/F 1751 29-02-2020 01:50:00 5.8 C 6.73 g/m*3 5.8 C 0 km/h
1752 29-02-2020 01:55:00 5.8 C 6.81 g/m*3 5.8 C 4.8 km/h
1753 29-02-2020 02:00:00 5.9 C 6.85 g/m*3 5.9 C 4.8 km/h
1754 29-02-2020 02:05:00 5.9 C 6.85 g/m*3 5.9 C 1.6 km/h
1755 29-02-2020 02:10:00 5.9 C 6.85 g/m*3 5.9 C 1.6 km/h
1756 29-02-2020 02:15:00 5.9 C 6.78 g/m*3 5.9 C 0 km/h
1757 29-02-2020 02:20:00 5.9 C 6.85 g/m*3 4.63 C 6.4 km/h
1758 29-02-2020 02:25:00 5.9 C 6.85 g/m*3 5.9 C 3.2 km/h
1759 29-02-2020 02:30:00 5.9 C 6.85 g/m*3 5.9 C 1.6 km/h
1760 29-02-2020 02:35:00 6.1 C 6.94 g/m*3 6.1 C 4.8 km/h
1761 29-02-2020 02:40:00 6.2 C 6.99 g/m*3 4.98 C 6.4 km/h
1762 29-02-2020 02:45:00 6.4 C 7.08 g/m*3 5.21 C 6.4 km/h
1763 29-02-2020 02:50:00 6.6 C 7.17 g/m*3 6.6 C 0 km/h
1764 29-02-2020 02:55:00 6.7 C 7.22 g/m*3 5.11 C 8.1 km/h
1765 29-02-2020 03:00:00 7.1 C 7.41 g/m*3 5.58 C 8.1 km/h
1766 29-02-2020 03:05:00 7.4 C 7.55 g/m*3 5.93 C 8.1 km/h
1767 29-02-2020 03:10:00 7.7 C 7.62 g/m*3 5.94 C 9.7 km/h
1768 29-02-2020 03:15:00 7.9 C 7.72 g/m*3 6.18 C 9.7 km/h
1769 29-02-2020 03:20:00 8.2 C 7.79 g/m*3 5.99 C 12.9 km/h
1770 29-02-2020 03:25:00 8.5 C 7.85 g/m*3 6.36 C 12.9 km/h
1771 29-02-2020 03:30:00 8.7 C 7.96 g/m*3 7.13 C 9.7 km/h
1772 29-02-2020 03:35:00 8.8 C 7.92 g/m*3 6.97 C 11.3 km/h
1773 29-02-2020 03:40:00 8.9 C 7.97 g/m*3 6.62 C 14.5 km/h
1774 29-02-2020 03:45:00 9.1 C 7.99 g/m*3 6.67 C 16.1 km/h
1775 29-02-2020 03:50:00 9.2 C 8.04 g/m*3 7.46 C 11.3 km/h
Sensor: Nr:Datum:Temp:Abs-Feuchte:Windchill:Wind:
Aussen-T/F 1776 29-02-2020 03:55:00 9.3 C 8.09 g/m*3 8.16 C 8.1 km/h
1777 29-02-2020 04:00:00 9.4 C 8.05 g/m*3 7.04 C 16.1 km/h
1778 29-02-2020 04:05:00 9.6 C 8.15 g/m*3 7.29 C 16.1 km/h
1779 29-02-2020 04:10:00 9.6 C 8.15 g/m*3 7.11 C 17.7 km/h
1780 29-02-2020 04:15:00 9.7 C 8.11 g/m*3 6.77 C 22.5 km/h
1781 29-02-2020 04:20:00 9.8 C 8.16 g/m*3 7.36 C 17.7 km/h
1782 29-02-2020 04:25:00 9.8 C 8.16 g/m*3 7.19 C 19.3 km/h
1783 29-02-2020 04:30:00 9.8 C 8.07 g/m*3 7.19 C 19.3 km/h
1784 29-02-2020 04:35:00 9.8 C 8.07 g/m*3 7.94 C 12.9 km/h
1785 29-02-2020 04:40:00 9.8 C 8.07 g/m*3 8.45 C 9.7 km/h
1786 29-02-2020 04:45:00 9.8 C 8.07 g/m*3 7.94 C 12.9 km/h
1787 29-02-2020 04:50:00 9.8 C 8.07 g/m*3 7.36 C 17.7 km/h
1788 29-02-2020 04:55:00 9.8 C 8.07 g/m*3 7.73 C 14.5 km/h
1789 29-02-2020 05:00:00 9.7 C 8.02 g/m*3 8.33 C 9.7 km/h
1790 29-02-2020 05:05:00 9.7 C 8.02 g/m*3 8.06 C 11.3 km/h
1791 29-02-2020 05:10:00 9.7 C 7.93 g/m*3 8.33 C 9.7 km/h
1792 29-02-2020 05:15:00 9.7 C 7.93 g/m*3 8.33 C 9.7 km/h
1793 29-02-2020 05:20:00 9.7 C 7.93 g/m*3 9.7 C 4.8 km/h
1794 29-02-2020 05:25:00 9.6 C 7.88 g/m*3 7.94 C 11.3 km/h
1795 29-02-2020 05:30:00 9.6 C 7.88 g/m*3 8.21 C 9.7 km/h
1796 29-02-2020 05:35:00 9.6 C 7.88 g/m*3 8.91 C 6.4 km/h
1797 29-02-2020 05:40:00 9.5 C 7.83 g/m*3 7.82 C 11.3 km/h
1798 29-02-2020 05:45:00 9.5 C 7.83 g/m*3 8.4 C 8.1 km/h
1799 29-02-2020 05:50:00 9.5 C 7.83 g/m*3 9.5 C 4.8 km/h
1800 29-02-2020 05:55:00 9.5 C 7.83 g/m*3 7.58 C 12.9 km/h
Sensor: Nr:Datum:Temp:Abs-Feuchte:Windchill:Wind:
Aussen-T/F 1801 29-02-2020 06:00:00 9.5 C 7.83 g/m*3 8.4 C 8.1 km/h
1802 29-02-2020 06:05:00 9.5 C 7.83 g/m*3 8.79 C 6.4 km/h
1803 29-02-2020 06:10:00 9.4 C 7.78 g/m*3 7.97 C 9.7 km/h
1804 29-02-2020 06:15:00 9.4 C 7.78 g/m*3 8.68 C 6.4 km/h
1805 29-02-2020 06:20:00 9.4 C 7.78 g/m*3 8.28 C 8.1 km/h
1806 29-02-2020 06:25:00 9.3 C 7.73 g/m*3 8.56 C 6.4 km/h
1807 29-02-2020 06:30:00 9.2 C 7.68 g/m*3 7.21 C 12.9 km/h
1808 29-02-2020 06:35:00 9.2 C 7.68 g/m*3 9.2 C 4.8 km/h
1809 29-02-2020 06:40:00 9.2 C 7.68 g/m*3 9.2 C 4.8 km/h
1810 29-02-2020 06:45:00 9.2 C 7.68 g/m*3 7.46 C 11.3 km/h
1811 29-02-2020 06:50:00 9.2 C 7.68 g/m*3 7.73 C 9.7 km/h
1812 29-02-2020 06:55:00 9.2 C 7.68 g/m*3 9.2 C 4.8 km/h
1813 29-02-2020 07:00:00 9.2 C 7.68 g/m*3 9.2 C 4.8 km/h
1814 29-02-2020 07:05:00 9.1 C 7.63 g/m*3 9.1 C 3.2 km/h
1815 29-02-2020 07:10:00 9 C 7.58 g/m*3 9 C 3.2 km/h
1816 29-02-2020 07:15:00 8.9 C 7.53 g/m*3 8.1 C 6.4 km/h
1817 29-02-2020 07:20:00 8.8 C 7.57 g/m*3 7.25 C 9.7 km/h
1818 29-02-2020 07:25:00 8.8 C 7.57 g/m*3 8.8 C 4.8 km/h
1819 29-02-2020 07:30:00 8.7 C 7.52 g/m*3 8.7 C 4.8 km/h
1820 29-02-2020 07:35:00 8.7 C 7.52 g/m*3 8.7 C 4.8 km/h
1821 29-02-2020 07:40:00 8.6 C 7.48 g/m*3 8.6 C 4.8 km/h
1822 29-02-2020 07:45:00 8.6 C 7.48 g/m*3 8.6 C 3.2 km/h
1823 29-02-2020 07:50:00 8.5 C 7.51 g/m*3 8.5 C 3.2 km/h
1824 29-02-2020 07:55:00 8.4 C 7.47 g/m*3 8.4 C 1.6 km/h
1825 29-02-2020 08:00:00 8.3 C 7.42 g/m*3 8.3 C 0 km/h
Sensor: Nr:Datum:Temp:Abs-Feuchte:Windchill:Wind:
Aussen-T/F 1826 29-02-2020 08:05:00 8.3 C 7.42 g/m*3 8.3 C 3.2 km/h
1827 29-02-2020 08:10:00 8.3 C 7.5 g/m*3 8.3 C 1.6 km/h
1828 29-02-2020 08:15:00 8.3 C 7.5 g/m*3 8.3 C 1.6 km/h
1829 29-02-2020 08:20:00 8.2 C 7.45 g/m*3 8.2 C 1.6 km/h
1830 29-02-2020 08:25:00 8.2 C 7.45 g/m*3 8.2 C 4.8 km/h
1831 29-02-2020 08:30:00 8.2 C 7.54 g/m*3 8.2 C 4.8 km/h
1832 29-02-2020 08:35:00 8.2 C 7.54 g/m*3 8.2 C 3.2 km/h
1833 29-02-2020 08:40:00 8.2 C 7.54 g/m*3 8.2 C 3.2 km/h
1834 29-02-2020 08:45:00 8.2 C 7.54 g/m*3 8.2 C 0 km/h
1835 29-02-2020 08:50:00 8.2 C 7.54 g/m*3 8.2 C 0 km/h
1836 29-02-2020 08:55:00 8.2 C 7.54 g/m*3 8.2 C 1.6 km/h
1837 29-02-2020 09:00:00 8.3 C 7.59 g/m*3 8.3 C 0 km/h
1838 29-02-2020 09:05:00 8.4 C 7.72 g/m*3 8.4 C 3.2 km/h
1839 29-02-2020 09:10:00 8.5 C 7.68 g/m*3 8.5 C 3.2 km/h
1840 29-02-2020 09:15:00 8.6 C 7.65 g/m*3 8.6 C 3.2 km/h
1841 29-02-2020 09:20:00 8.7 C 7.61 g/m*3 8.7 C 1.6 km/h
1842 29-02-2020 09:25:00 8.9 C 7.71 g/m*3 8.9 C 0 km/h
1843 29-02-2020 09:30:00 9.1 C 7.81 g/m*3 9.1 C 1.6 km/h
1844 29-02-2020 09:35:00 9.2 C 7.86 g/m*3 9.2 C 1.6 km/h
1845 29-02-2020 09:40:00 9.3 C 7.82 g/m*3 9.3 C 3.2 km/h
1846 29-02-2020 09:45:00 9.4 C 7.78 g/m*3 9.4 C 3.2 km/h
1847 29-02-2020 09:50:00 9.6 C 7.6 g/m*3 7.7 C 12.9 km/h
1848 29-02-2020 09:55:00 9.7 C 7.47 g/m*3 8.33 C 9.7 km/h
1849 29-02-2020 10:00:00 9.8 C 7.42 g/m*3 9.8 C 4.8 km/h
1850 29-02-2020 10:05:00 9.9 C 7.47 g/m*3 9.9 C 1.6 km/h
Sensor: Nr:Datum:Temp:Abs-Feuchte:Windchill:Wind:
Aussen-T/F 1851 29-02-2020 10:10:00 10 C 7.42 g/m*3 9.37 C 6.4 km/h
1852 29-02-2020 10:15:00 10.1 C 7.38 g/m*3 10.1 C 3.2 km/h
1853 29-02-2020 10:20:00 10.1 C 7.38 g/m*3 10.1 C 3.2 km/h
1854 29-02-2020 10:25:00 10.1 C 7.19 g/m*3 9.1 C 8.1 km/h
1855 29-02-2020 10:30:00 10.1 C 7.28 g/m*3 10.1 C 1.6 km/h
1856 29-02-2020 10:35:00 10.2 C 7.33 g/m*3 10.2 C 3.2 km/h
1857 29-02-2020 10:40:00 10.2 C 7.33 g/m*3 10.2 C 3.2 km/h
1858 29-02-2020 10:45:00 10.3 C 7.37 g/m*3 10.3 C 3.2 km/h
1859 29-02-2020 10:50:00 10.4 C 7.52 g/m*3 10.4 C 3.2 km/h
1860 29-02-2020 10:55:00 10.4 C 7.32 g/m*3 9.83 C 6.4 km/h
1861 29-02-2020 11:00:00 10.6 C 7.42 g/m*3 10.06 C 6.4 km/h
1862 29-02-2020 11:05:00 10.7 C 7.56 g/m*3 10.7 C 3.2 km/h
1863 29-02-2020 11:10:00 10.7 C 7.37 g/m*3 10.18 C 6.4 km/h
1864 29-02-2020 11:15:00 10.9 C 7.56 g/m*3 10.9 C 3.2 km/h
1865 29-02-2020 11:20:00 11 C 7.41 g/m*3 9.88 C 9.7 km/h
1866 29-02-2020 11:25:00 11.3 C 7.45 g/m*3 11.3 C 12.9 km/h
1867 29-02-2020 11:30:00 11.6 C 7.48 g/m*3 11.6 C 8.1 km/h
1868 29-02-2020 11:35:00 11.9 C 7.52 g/m*3 11.9 C 4.8 km/h
1869 29-02-2020 11:40:00 12.2 C 7.55 g/m*3 12.2 C 9.7 km/h
1870 29-02-2020 11:45:00 12.3 C 7.6 g/m*3 12.3 C 8.1 km/h
1871 29-02-2020 11:50:00 12.6 C 7.41 g/m*3 12.6 C 4.8 km/h
1872 29-02-2020 11:55:00 12.7 C 7.57 g/m*3 12.7 C 4.8 km/h
1873 29-02-2020 12:00:00 12.9 C 7.66 g/m*3 12.9 C 11.3 km/h
1874 29-02-2020 12:05:00 13.2 C 7.58 g/m*3 13.2 C 11.3 km/h
1875 29-02-2020 12:10:00 13.5 C 7.6 g/m*3 13.5 C 9.7 km/h
Sensor: Nr:Datum:Temp:Abs-Feuchte:Windchill:Wind:
Aussen-T/F 1876 29-02-2020 12:15:00 13.8 C 7.86 g/m*3 13.8 C 9.7 km/h
1877 29-02-2020 12:20:00 13.9 C 7.55 g/m*3 13.9 C 6.4 km/h
1878 29-02-2020 12:25:00 14.1 C 7.65 g/m*3 14.1 C 8.1 km/h
1879 29-02-2020 12:30:00 14.2 C 7.82 g/m*3 14.2 C 9.7 km/h
1880 29-02-2020 12:35:00 14.3 C 7.86 g/m*3 14.3 C 8.1 km/h
1881 29-02-2020 12:40:00 14.4 C 7.79 g/m*3 14.4 C 6.4 km/h
1882 29-02-2020 12:45:00 14.4 C 7.54 g/m*3 14.4 C 14.5 km/h
1883 29-02-2020 12:50:00 14.4 C 7.79 g/m*3 14.4 C 8.1 km/h
1884 29-02-2020 12:55:00 14.4 C 7.79 g/m*3 14.4 C 11.3 km/h
1885 29-02-2020 13:00:00 14.4 C 7.79 g/m*3 14.4 C 8.1 km/h
1886 29-02-2020 13:05:00 14.6 C 7.88 g/m*3 14.6 C 4.8 km/h
1887 29-02-2020 13:10:00 14.6 C 7.76 g/m*3 14.6 C 9.7 km/h
1888 29-02-2020 13:15:00 14.6 C 8.01 g/m*3 14.6 C 8.1 km/h
1889 29-02-2020 13:20:00 14.6 C 8.01 g/m*3 14.6 C 14.5 km/h
1890 29-02-2020 13:25:00 14.6 C 8.13 g/m*3 14.6 C 9.7 km/h
1891 29-02-2020 13:30:00 14.5 C 7.84 g/m*3 14.5 C 11.3 km/h
1892 29-02-2020 13:35:00 14.6 C 7.88 g/m*3 14.6 C 11.3 km/h
1893 29-02-2020 13:40:00 14.6 C 8.13 g/m*3 14.6 C 11.3 km/h
1894 29-02-2020 13:45:00 14.8 C 8.11 g/m*3 14.8 C 9.7 km/h
1895 29-02-2020 13:50:00 14.9 C 8.28 g/m*3 14.9 C 9.7 km/h
1896 29-02-2020 13:55:00 15.1 C 8.26 g/m*3 15.1 C 6.4 km/h
1897 29-02-2020 14:00:00 15.2 C 8.05 g/m*3 15.2 C 14.5 km/h
1898 29-02-2020 14:05:00 15.3 C 8.23 g/m*3 15.3 C 25.7 km/h
1899 29-02-2020 14:10:00 15.2 C 8.31 g/m*3 15.2 C 25.7 km/h
1900 29-02-2020 14:15:00 15.2 C 8.31 g/m*3 15.2 C 17.7 km/h
Sensor: Nr:Datum:Temp:Abs-Feuchte:Windchill:Wind:
Aussen-T/F 1901 29-02-2020 14:20:00 15.1 C 8.26 g/m*3 15.1 C 24.1 km/h
1902 29-02-2020 14:25:00 15.1 C 8.13 g/m*3 15.1 C 12.9 km/h
1903 29-02-2020 14:30:00 15 C 8.33 g/m*3 15 C 14.5 km/h
1904 29-02-2020 14:35:00 14.9 C 8.54 g/m*3 14.9 C 9.7 km/h
1905 29-02-2020 14:40:00 14.6 C 8.76 g/m*3 14.6 C 9.7 km/h
1906 29-02-2020 14:45:00 14.1 C 8.86 g/m*3 14.1 C 20.9 km/h
1907 29-02-2020 14:50:00 13.6 C 8.94 g/m*3 13.6 C 12.9 km/h
1908 29-02-2020 14:55:00 12.9 C 9.13 g/m*3 12.9 C 22.5 km/h
1909 29-02-2020 15:00:00 12.2 C 9.06 g/m*3 12.2 C 16.1 km/h
1910 29-02-2020 15:05:00 11.6 C 9.04 g/m*3 11.6 C 20.9 km/h
1911 29-02-2020 15:10:00 11.3 C 9.08 g/m*3 11.3 C 9.7 km/h
1912 29-02-2020 15:15:00 11.2 C 9.12 g/m*3 11.2 C 12.9 km/h
1913 29-02-2020 15:20:00 11.2 C 9.22 g/m*3 11.2 C 11.3 km/h
1914 29-02-2020 15:25:00 11.2 C 9.22 g/m*3 11.2 C 8.1 km/h
1915 29-02-2020 15:30:00 11.2 C 9.22 g/m*3 11.2 C 3.2 km/h
1916 29-02-2020 15:35:00 11.2 C 9.12 g/m*3 11.2 C 8.1 km/h
1917 29-02-2020 15:40:00 11.2 C 9.12 g/m*3 11.2 C 12.9 km/h
1918 29-02-2020 15:45:00 11.2 C 9.12 g/m*3 11.2 C 12.9 km/h
1919 29-02-2020 15:50:00 11.2 C 9.02 g/m*3 11.2 C 12.9 km/h
1920 29-02-2020 15:55:00 11.3 C 8.98 g/m*3 11.3 C 19.3 km/h
1921 29-02-2020 16:00:00 11.3 C 8.87 g/m*3 11.3 C 24.1 km/h
1922 29-02-2020 16:05:00 11.6 C 8.94 g/m*3 11.6 C 24.1 km/h
1923 29-02-2020 16:10:00 11.8 C 8.84 g/m*3 11.8 C 20.9 km/h
1924 29-02-2020 16:15:00 11.9 C 8.79 g/m*3 11.9 C 22.5 km/h
1925 29-02-2020 16:20:00 11.9 C 8.68 g/m*3 11.9 C 24.1 km/h
Sensor: Nr:Datum:Temp:Abs-Feuchte:Windchill:Wind:
Aussen-T/F 1926 29-02-2020 16:25:00 11.8 C 8.74 g/m*3 11.8 C 22.5 km/h
1927 29-02-2020 16:30:00 11.6 C 8.73 g/m*3 11.6 C 14.5 km/h
1928 29-02-2020 16:35:00 11.4 C 8.83 g/m*3 11.4 C 25.7 km/h
1929 29-02-2020 16:40:00 11 C 8.71 g/m*3 8.17 C 25.7 km/h
1930 29-02-2020 16:45:00 10.7 C 8.55 g/m*3 8.18 C 20.9 km/h
1931 29-02-2020 16:50:00 10.6 C 8.49 g/m*3 8.71 C 14.5 km/h
1932 29-02-2020 16:55:00 10.3 C 8.24 g/m*3 7.67 C 20.9 km/h
1933 29-02-2020 17:00:00 10.2 C 8.18 g/m*3 7.86 C 17.7 km/h
1934 29-02-2020 17:05:00 9.9 C 7.75 g/m*3 7.02 C 22.5 km/h
1935 29-02-2020 17:10:00 9.7 C 7.47 g/m*3 7.07 C 19.3 km/h
1936 29-02-2020 17:15:00 9.5 C 7.37 g/m*3 7.82 C 11.3 km/h
1937 29-02-2020 17:20:00 9.3 C 7.37 g/m*3 7.33 C 12.9 km/h
1938 29-02-2020 17:25:00 9.2 C 7.14 g/m*3 6.44 C 19.3 km/h
1939 29-02-2020 17:30:00 9.1 C 7.1 g/m*3 6.87 C 14.5 km/h
1940 29-02-2020 17:35:00 9.1 C 7.1 g/m*3 6.48 C 17.7 km/h
1941 29-02-2020 17:40:00 9 C 7.14 g/m*3 7.21 C 11.3 km/h
1942 29-02-2020 17:45:00 8.9 C 7.1 g/m*3 7.37 C 9.7 km/h
1943 29-02-2020 17:50:00 8.9 C 7.18 g/m*3 7.09 C 11.3 km/h
1944 29-02-2020 17:55:00 8.9 C 7.18 g/m*3 7.69 C 8.1 km/h
1945 29-02-2020 18:00:00 8.9 C 7.18 g/m*3 7.69 C 8.1 km/h
1946 29-02-2020 18:05:00 8.8 C 7.14 g/m*3 6.5 C 14.5 km/h
1947 29-02-2020 18:10:00 8.9 C 7.18 g/m*3 7.09 C 11.3 km/h
1948 29-02-2020 18:15:00 8.9 C 7.27 g/m*3 7.37 C 9.7 km/h
1949 29-02-2020 18:20:00 8.8 C 7.22 g/m*3 7.25 C 9.7 km/h
1950 29-02-2020 18:25:00 8.7 C 7.18 g/m*3 6.38 C 14.5 km/h
Sensor: Nr:Datum:Temp:Abs-Feuchte:Windchill:Wind:
Aussen-T/F 1951 29-02-2020 18:30:00 8.6 C 7.22 g/m*3 7.01 C 9.7 km/h
1952 29-02-2020 18:35:00 8.4 C 7.13 g/m*3 7.11 C 8.1 km/h
1953 29-02-2020 18:40:00 8.3 C 6.91 g/m*3 6.37 C 11.3 km/h
1954 29-02-2020 18:45:00 8.3 C 6.83 g/m*3 4.7 C 25.7 km/h
1955 29-02-2020 18:50:00 8.1 C 6.74 g/m*3 4.3 C 27.4 km/h
1956 29-02-2020 18:55:00 7.4 C 6.44 g/m*3 4 C 20.9 km/h
1957 29-02-2020 19:00:00 7 C 6.43 g/m*3 4.06 C 16.1 km/h
1958 29-02-2020 19:05:00 6.8 C 6.42 g/m*3 5.67 C 6.4 km/h
1959 29-02-2020 19:10:00 6.6 C 6.49 g/m*3 4.99 C 8.1 km/h
1960 29-02-2020 19:15:00 6.5 C 6.45 g/m*3 4.87 C 8.1 km/h
1961 29-02-2020 19:20:00 6.4 C 6.33 g/m*3 3.8 C 12.9 km/h
1962 29-02-2020 19:25:00 6.4 C 6.26 g/m*3 3.8 C 12.9 km/h
1963 29-02-2020 19:30:00 6.4 C 6.26 g/m*3 3.55 C 14.5 km/h
1964 29-02-2020 19:35:00 6.6 C 6.27 g/m*3 4.04 C 12.9 km/h
1965 29-02-2020 19:40:00 6.7 C 6.15 g/m*3 3.48 C 17.7 km/h
1966 29-02-2020 19:45:00 6.8 C 6.19 g/m*3 4.04 C 14.5 km/h
1967 29-02-2020 19:50:00 6.8 C 6.19 g/m*3 3.82 C 16.1 km/h
1968 29-02-2020 19:55:00 6.8 C 6.12 g/m*3 4.04 C 14.5 km/h
1969 29-02-2020 20:00:00 6.8 C 6.12 g/m*3 4.04 C 14.5 km/h
1970 29-02-2020 20:05:00 6.8 C 6.12 g/m*3 4.29 C 12.9 km/h
1971 29-02-2020 20:10:00 6.8 C 6.12 g/m*3 4.29 C 12.9 km/h
1972 29-02-2020 20:15:00 6.8 C 6.12 g/m*3 4.56 C 11.3 km/h
1973 29-02-2020 20:20:00 6.7 C 6.08 g/m*3 4.17 C 12.9 km/h
1974 29-02-2020 20:25:00 6.7 C 6.08 g/m*3 4.75 C 9.7 km/h
1975 29-02-2020 20:30:00 6.6 C 5.96 g/m*3 4.04 C 12.9 km/h
Sensor: Nr:Datum:Temp:Abs-Feuchte:Windchill:Wind:
Aussen-T/F 1976 29-02-2020 20:35:00 6.6 C 5.96 g/m*3 3.79 C 14.5 km/h
1977 29-02-2020 20:40:00 6.5 C 5.92 g/m*3 4.51 C 9.7 km/h
1978 29-02-2020 20:45:00 6.4 C 5.89 g/m*3 3.8 C 12.9 km/h
1979 29-02-2020 20:50:00 6.3 C 5.85 g/m*3 4.64 C 8.1 km/h
1980 29-02-2020 20:55:00 6.2 C 5.81 g/m*3 4.15 C 9.7 km/h
1981 29-02-2020 21:00:00 6.1 C 5.7 g/m*3 6.1 C 3.2 km/h
1982 29-02-2020 21:05:00 6 C 5.73 g/m*3 4.75 C 6.4 km/h
1983 29-02-2020 21:10:00 5.9 C 5.62 g/m*3 4.17 C 8.1 km/h
1984 29-02-2020 21:15:00 5.8 C 5.66 g/m*3 3.68 C 9.7 km/h
1985 29-02-2020 21:20:00 5.8 C 5.66 g/m*3 4.05 C 8.1 km/h
1986 29-02-2020 21:25:00 5.8 C 5.73 g/m*3 3.07 C 12.9 km/h
1987 29-02-2020 21:30:00 5.7 C 5.69 g/m*3 3.93 C 8.1 km/h
1988 29-02-2020 21:35:00 5.6 C 5.66 g/m*3 4.29 C 6.4 km/h
1989 29-02-2020 21:40:00 5.5 C 5.62 g/m*3 5.5 C 3.2 km/h
1990 29-02-2020 21:45:00 5.4 C 5.58 g/m*3 4.06 C 6.4 km/h
1991 29-02-2020 21:50:00 5.4 C 5.65 g/m*3 5.4 C 4.8 km/h
1992 29-02-2020 21:55:00 5.3 C 5.68 g/m*3 5.3 C 3.2 km/h
1993 29-02-2020 22:00:00 5.2 C 5.71 g/m*3 5.2 C 4.8 km/h
1994 29-02-2020 22:05:00 4.9 C 5.6 g/m*3 4.9 C 4.8 km/h
1995 29-02-2020 22:10:00 4.8 C 5.63 g/m*3 4.8 C 4.8 km/h
1996 29-02-2020 22:15:00 4.7 C 5.6 g/m*3 4.7 C 4.8 km/h
1997 29-02-2020 22:20:00 4.6 C 5.62 g/m*3 4.6 C 3.2 km/h
1998 29-02-2020 22:25:00 4.4 C 5.62 g/m*3 4.4 C 4.8 km/h
1999 29-02-2020 22:30:00 4.4 C 5.62 g/m*3 4.4 C 4.8 km/h
2000 29-02-2020 22:35:00 4.3 C 5.64 g/m*3 4.3 C 3.2 km/h
Sensor: Nr:Datum:Temp:Abs-Feuchte:Windchill:Wind:
Aussen-T/F 2001 29-02-2020 22:40:00 4.3 C 5.64 g/m*3 4.3 C 4.8 km/h
2002 29-02-2020 22:45:00 4.3 C 5.71 g/m*3 2.78 C 6.4 km/h
2003 29-02-2020 22:50:00 4.3 C 5.71 g/m*3 4.3 C 0 km/h
2004 29-02-2020 22:55:00 4.3 C 5.77 g/m*3 4.3 C 1.6 km/h
2005 29-02-2020 23:00:00 4.4 C 5.81 g/m*3 4.4 C 3.2 km/h
2006 29-02-2020 23:05:00 4.5 C 5.85 g/m*3 3.02 C 6.4 km/h
2007 29-02-2020 23:10:00 4.7 C 5.86 g/m*3 3.25 C 6.4 km/h
2008 29-02-2020 23:15:00 4.9 C 5.94 g/m*3 4.9 C 3.2 km/h
2009 29-02-2020 23:20:00 5.1 C 5.95 g/m*3 3.71 C 6.4 km/h
2010 29-02-2020 23:25:00 5.3 C 5.96 g/m*3 5.3 C 3.2 km/h
2011 29-02-2020 23:30:00 5.3 C 5.96 g/m*3 5.3 C 1.6 km/h
2012 29-02-2020 23:35:00 5.4 C 6 g/m*3 5.4 C 1.6 km/h
2013 29-02-2020 23:40:00 5.4 C 6 g/m*3 5.4 C 4.8 km/h
2014 29-02-2020 23:45:00 5.6 C 6.08 g/m*3 3.44 C 9.7 km/h
2015 29-02-2020 23:50:00 5.8 C 6.09 g/m*3 3.07 C 12.9 km/h
2016 29-02-2020 23:55:00 6.1 C 6.14 g/m*3 3.72 C 11.3 km/h
2017 01-03-2020 00:00:00 6.4 C 6.18 g/m*3 2.4 C 24.1 km/h
2018 01-03-2020 00:05:00 6.8 C 6.19 g/m*3 4.04 C 14.5 km/h
2019 01-03-2020 00:10:00 6.9 C 6.24 g/m*3 4.41 C 12.9 km/h
2020 01-03-2020 00:15:00 7.1 C 6.24 g/m*3 3.8 C 19.3 km/h
2021 01-03-2020 00:20:00 7.2 C 6.28 g/m*3 4.53 C 14.5 km/h
2022 01-03-2020 00:25:00 7.1 C 6.16 g/m*3 3.98 C 17.7 km/h
2023 01-03-2020 00:30:00 7.1 C 6.24 g/m*3 4.19 C 16.1 km/h
2024 01-03-2020 00:35:00 6.9 C 6.16 g/m*3 3.94 C 16.1 km/h
2025 01-03-2020 00:40:00 6.8 C 6.12 g/m*3 4.87 C 9.7 km/h
Sensor: Nr:Datum:Temp:Abs-Feuchte:Windchill:Wind:
Aussen-T/F 2026 01-03-2020 00:45:00 6.7 C 6.08 g/m*3 4.44 C 11.3 km/h
2027 01-03-2020 00:50:00 6.7 C 6.15 g/m*3 2.94 C 22.5 km/h
2028 01-03-2020 00:55:00 6.7 C 6.15 g/m*3 3.69 C 16.1 km/h
2029 01-03-2020 01:00:00 6.7 C 6.15 g/m*3 3.29 C 19.3 km/h
2030 01-03-2020 01:05:00 6.6 C 6.11 g/m*3 4.99 C 8.1 km/h
2031 01-03-2020 01:10:00 6.5 C 6.07 g/m*3 3.44 C 16.1 km/h
2032 01-03-2020 01:15:00 6.4 C 6.04 g/m*3 4.75 C 8.1 km/h
2033 01-03-2020 01:20:00 6.4 C 6.11 g/m*3 3.55 C 14.5 km/h
2034 01-03-2020 01:25:00 6.4 C 6.11 g/m*3 3.8 C 12.9 km/h
2035 01-03-2020 01:30:00 6.4 C 6.11 g/m*3 3.11 C 17.7 km/h
2036 01-03-2020 01:35:00 6.3 C 6.07 g/m*3 4.64 C 8.1 km/h
2037 01-03-2020 01:40:00 6.3 C 6.07 g/m*3 5.1 C 6.4 km/h
2038 01-03-2020 01:45:00 6.2 C 6.1 g/m*3 3.84 C 11.3 km/h
2039 01-03-2020 01:50:00 6.2 C 6.1 g/m*3 2.86 C 17.7 km/h
2040 01-03-2020 01:55:00 6.2 C 6.1 g/m*3 3.07 C 16.1 km/h
2041 01-03-2020 02:00:00 6.2 C 6.1 g/m*3 3.84 C 11.3 km/h
2042 01-03-2020 02:05:00 6.3 C 6.14 g/m*3 3.96 C 11.3 km/h
2043 01-03-2020 02:10:00 6.3 C 6.14 g/m*3 4.27 C 9.7 km/h
2044 01-03-2020 02:15:00 6.3 C 6.14 g/m*3 3.68 C 12.9 km/h
2045 01-03-2020 02:20:00 6.3 C 6.14 g/m*3 3.96 C 11.3 km/h
2046 01-03-2020 02:25:00 6.2 C 6.1 g/m*3 4.15 C 9.7 km/h
2047 01-03-2020 02:30:00 6.2 C 6.1 g/m*3 4.15 C 9.7 km/h
2048 01-03-2020 02:35:00 6.3 C 6.14 g/m*3 4.27 C 9.7 km/h
2049 01-03-2020 02:40:00 6.3 C 6.14 g/m*3 3.96 C 11.3 km/h
2050 01-03-2020 02:45:00 6.4 C 6.18 g/m*3 3.55 C 14.5 km/h
Sensor: Nr:Datum:Temp:Abs-Feuchte:Windchill:Wind:
Aussen-T/F 2051 01-03-2020 02:50:00 6.7 C 6.23 g/m*3 3.11 C 20.9 km/h
2052 01-03-2020 02:55:00 6.8 C 6.27 g/m*3 3.24 C 20.9 km/h
2053 01-03-2020 03:00:00 7 C 6.28 g/m*3 3.67 C 19.3 km/h
2054 01-03-2020 03:05:00 7.1 C 6.32 g/m*3 4.19 C 16.1 km/h
2055 01-03-2020 03:10:00 7.1 C 6.32 g/m*3 3.62 C 20.9 km/h
2056 01-03-2020 03:15:00 7.1 C 6.32 g/m*3 4.41 C 14.5 km/h
2057 01-03-2020 03:20:00 7.1 C 6.32 g/m*3 4.92 C 11.3 km/h
2058 01-03-2020 03:25:00 7.2 C 6.36 g/m*3 5.04 C 11.3 km/h
2059 01-03-2020 03:30:00 7.2 C 6.36 g/m*3 7.2 C 4.8 km/h
2060 01-03-2020 03:35:00 7.1 C 6.4 g/m*3 6.02 C 6.4 km/h
2061 01-03-2020 03:40:00 7.1 C 6.4 g/m*3 7.1 C 4.8 km/h
2062 01-03-2020 03:45:00 7.1 C 6.4 g/m*3 7.1 C 4.8 km/h
2063 01-03-2020 03:50:00 7.1 C 6.4 g/m*3 5.23 C 9.7 km/h
2064 01-03-2020 03:55:00 7.1 C 6.4 g/m*3 4.92 C 11.3 km/h
2065 01-03-2020 04:00:00 7.1 C 6.32 g/m*3 5.58 C 8.1 km/h
2066 01-03-2020 04:05:00 7.2 C 6.28 g/m*3 5.04 C 11.3 km/h
2067 01-03-2020 04:10:00 7.2 C 6.2 g/m*3 5.35 C 9.7 km/h
2068 01-03-2020 04:15:00 7.2 C 6.12 g/m*3 3.75 C 20.9 km/h
2069 01-03-2020 04:20:00 7.3 C 6.16 g/m*3 3.55 C 24.1 km/h
2070 01-03-2020 04:25:00 7.3 C 6.16 g/m*3 5.81 C 8.1 km/h
2071 01-03-2020 04:30:00 7.4 C 6.2 g/m*3 4.78 C 14.5 km/h
2072 01-03-2020 04:35:00 7.4 C 6.12 g/m*3 5.02 C 12.9 km/h
2073 01-03-2020 04:40:00 7.4 C 6.2 g/m*3 4.78 C 14.5 km/h
2074 01-03-2020 04:45:00 7.4 C 6.12 g/m*3 4.56 C 16.1 km/h
2075 01-03-2020 04:50:00 7.4 C 6.12 g/m*3 5.58 C 9.7 km/h
Sensor: Nr:Datum:Temp:Abs-Feuchte:Windchill:Wind:
Aussen-T/F 2076 01-03-2020 04:55:00 7.4 C 6.12 g/m*3 5.93 C 8.1 km/h
2077 01-03-2020 05:00:00 7.4 C 6.12 g/m*3 4 C 20.9 km/h
2078 01-03-2020 05:05:00 7.4 C 6.12 g/m*3 3.68 C 24.1 km/h
2079 01-03-2020 05:10:00 7.5 C 6.16 g/m*3 5.14 C 12.9 km/h
2080 01-03-2020 05:15:00 7.5 C 6.16 g/m*3 5.7 C 9.7 km/h
2081 01-03-2020 05:20:00 7.4 C 6.12 g/m*3 5.93 C 8.1 km/h
2082 01-03-2020 05:25:00 7.4 C 6.04 g/m*3 3.84 C 22.5 km/h
2083 01-03-2020 05:30:00 7.6 C 6.12 g/m*3 5.02 C 14.5 km/h
2084 01-03-2020 05:35:00 7.6 C 6.12 g/m*3 5.82 C 9.7 km/h
2085 01-03-2020 05:40:00 7.5 C 6.16 g/m*3 5.7 C 9.7 km/h
2086 01-03-2020 05:45:00 7.4 C 6.12 g/m*3 4.78 C 14.5 km/h
2087 01-03-2020 05:50:00 7.4 C 6.2 g/m*3 5.28 C 11.3 km/h
2088 01-03-2020 05:55:00 7.4 C 6.2 g/m*3 7.4 C 4.8 km/h
2089 01-03-2020 06:00:00 7.3 C 6.16 g/m*3 5.16 C 11.3 km/h
2090 01-03-2020 06:05:00 7.3 C 6.16 g/m*3 5.81 C 8.1 km/h
2091 01-03-2020 06:10:00 7.4 C 6.2 g/m*3 4.78 C 14.5 km/h
2092 01-03-2020 06:15:00 7.4 C 6.2 g/m*3 4.78 C 14.5 km/h
2093 01-03-2020 06:20:00 7.4 C 6.2 g/m*3 5.93 C 8.1 km/h
2094 01-03-2020 06:25:00 7.4 C 6.2 g/m*3 4.36 C 17.7 km/h
2095 01-03-2020 06:30:00 7.4 C 6.12 g/m*3 4.36 C 17.7 km/h
2096 01-03-2020 06:35:00 7.5 C 6.16 g/m*3 5.41 C 11.3 km/h
2097 01-03-2020 06:40:00 7.6 C 6.2 g/m*3 4.61 C 17.7 km/h
2098 01-03-2020 06:45:00 7.5 C 6.24 g/m*3 7.5 C 3.2 km/h
2099 01-03-2020 06:50:00 7.5 C 6.24 g/m*3 7.5 C 1.6 km/h
2100 01-03-2020 06:55:00 7.4 C 6.36 g/m*3 5.58 C 9.7 km/h
Sensor: Nr:Datum:Temp:Abs-Feuchte:Windchill:Wind:
Aussen-T/F 2101 01-03-2020 07:00:00 7.3 C 6.48 g/m*3 7.3 C 4.8 km/h
2102 01-03-2020 07:05:00 7.2 C 6.52 g/m*3 5.35 C 9.7 km/h
2103 01-03-2020 07:10:00 7 C 6.51 g/m*3 4.8 C 11.3 km/h
2104 01-03-2020 07:15:00 6.8 C 6.42 g/m*3 5.22 C 8.1 km/h
2105 01-03-2020 07:20:00 6.8 C 6.5 g/m*3 6.8 C 3.2 km/h
2106 01-03-2020 07:25:00 6.7 C 6.53 g/m*3 6.7 C 3.2 km/h
2107 01-03-2020 07:30:00 6.7 C 6.61 g/m*3 6.7 C 1.6 km/h
2108 01-03-2020 07:35:00 6.6 C 6.57 g/m*3 6.6 C 1.6 km/h
2109 01-03-2020 07:40:00 6.5 C 6.6 g/m*3 6.5 C 4.8 km/h
2110 01-03-2020 07:45:00 6.4 C 6.56 g/m*3 5.21 C 6.4 km/h
2111 01-03-2020 07:50:00 6.3 C 6.59 g/m*3 6.3 C 1.6 km/h
2112 01-03-2020 07:55:00 6.3 C 6.66 g/m*3 6.3 C 3.2 km/h
2113 01-03-2020 08:00:00 6.2 C 6.62 g/m*3 4.98 C 6.4 km/h
2114 01-03-2020 08:05:00 6.2 C 6.69 g/m*3 3.84 C 11.3 km/h
2115 01-03-2020 08:10:00 6.2 C 6.69 g/m*3 4.98 C 6.4 km/h
2116 01-03-2020 08:15:00 6.1 C 6.65 g/m*3 6.1 C 4.8 km/h
2117 01-03-2020 08:20:00 6.1 C 6.65 g/m*3 3.72 C 11.3 km/h
2118 01-03-2020 08:25:00 5.9 C 6.56 g/m*3 2.93 C 14.5 km/h
2119 01-03-2020 08:30:00 5.8 C 6.52 g/m*3 3.36 C 11.3 km/h
2120 01-03-2020 08:35:00 5.7 C 6.48 g/m*3 1.67 C 22.5 km/h
2121 01-03-2020 08:40:00 5.6 C 6.43 g/m*3 2.83 C 12.9 km/h
2122 01-03-2020 08:45:00 5.3 C 6.31 g/m*3 0.83 C 25.7 km/h
2123 01-03-2020 08:50:00 5 C 6.18 g/m*3 0.96 C 20.9 km/h
2124 01-03-2020 08:55:00 4.8 C 6.17 g/m*3 2.15 C 11.3 km/h
2125 01-03-2020 09:00:00 4.8 C 6.17 g/m*3 1.85 C 12.9 km/h
Sensor: Nr:Datum:Temp:Abs-Feuchte:Windchill:Wind:
Aussen-T/F 2126 01-03-2020 09:05:00 4.8 C 6.17 g/m*3 2.49 C 9.7 km/h
2127 01-03-2020 09:10:00 4.8 C 6.24 g/m*3 0.19 C 25.7 km/h
2128 01-03-2020 09:15:00 4.8 C 6.24 g/m*3 0.9 C 19.3 km/h
2129 01-03-2020 09:20:00 4.9 C 6.28 g/m*3 2.27 C 11.3 km/h
2130 01-03-2020 09:25:00 5.1 C 6.36 g/m*3 2.51 C 11.3 km/h
2131 01-03-2020 09:30:00 5.2 C 6.4 g/m*3 2.34 C 12.9 km/h
2132 01-03-2020 09:35:00 5.2 C 6.4 g/m*3 2.34 C 12.9 km/h
2133 01-03-2020 09:40:00 5.2 C 6.4 g/m*3 1.83 C 16.1 km/h
2134 01-03-2020 09:45:00 5.2 C 6.4 g/m*3 2.34 C 12.9 km/h
2135 01-03-2020 09:50:00 5.3 C 6.38 g/m*3 3.94 C 6.4 km/h
2136 01-03-2020 09:55:00 5.3 C 6.38 g/m*3 3.46 C 8.1 km/h
2137 01-03-2020 10:00:00 5.3 C 6.38 g/m*3 3.94 C 6.4 km/h
2138 01-03-2020 10:05:00 5.3 C 6.45 g/m*3 3.94 C 6.4 km/h
2139 01-03-2020 10:10:00 5.4 C 6.49 g/m*3 2.32 C 14.5 km/h
2140 01-03-2020 10:15:00 5.6 C 6.5 g/m*3 3.81 C 8.1 km/h
2141 01-03-2020 10:20:00 5.7 C 6.62 g/m*3 2.45 C 16.1 km/h
2142 01-03-2020 10:25:00 6.1 C 6.72 g/m*3 2.95 C 16.1 km/h
2143 01-03-2020 10:30:00 6.4 C 6.78 g/m*3 4.08 C 11.3 km/h
2144 01-03-2020 10:35:00 6.7 C 6.91 g/m*3 4.17 C 12.9 km/h
2145 01-03-2020 10:40:00 6.9 C 6.93 g/m*3 4.16 C 14.5 km/h
2146 01-03-2020 10:45:00 7.2 C 6.99 g/m*3 5.04 C 11.3 km/h
2147 01-03-2020 10:50:00 7.4 C 7.08 g/m*3 5.93 C 8.1 km/h
2148 01-03-2020 10:55:00 7.6 C 7.17 g/m*3 6.16 C 8.1 km/h
2149 01-03-2020 11:00:00 7.7 C 6.97 g/m*3 4.55 C 19.3 km/h
2150 01-03-2020 11:05:00 7.9 C 6.98 g/m*3 4.98 C 17.7 km/h
Sensor: Nr:Datum:Temp:Abs-Feuchte:Windchill:Wind:
Aussen-T/F 2151 01-03-2020 11:10:00 8 C 6.78 g/m*3 4.45 C 24.1 km/h
2152 01-03-2020 11:15:00 8.2 C 6.95 g/m*3 5.99 C 12.9 km/h
2153 01-03-2020 11:20:00 8.3 C 6.83 g/m*3 5.14 C 20.9 km/h
2154 01-03-2020 11:25:00 8.5 C 6.74 g/m*3 5.73 C 17.7 km/h
2155 01-03-2020 11:30:00 8.6 C 6.79 g/m*3 5.68 C 19.3 km/h
2156 01-03-2020 11:35:00 8.8 C 6.7 g/m*3 5.93 C 19.3 km/h
2157 01-03-2020 11:40:00 8.8 C 6.7 g/m*3 6.11 C 17.7 km/h
2158 01-03-2020 11:45:00 8.8 C 6.61 g/m*3 6.3 C 16.1 km/h
2159 01-03-2020 11:50:00 8.8 C 6.53 g/m*3 4.97 C 30.6 km/h
2160 01-03-2020 11:55:00 8.9 C 6.75 g/m*3 6.85 C 12.9 km/h
2161 01-03-2020 12:00:00 9.1 C 6.65 g/m*3 6.15 C 20.9 km/h
2162 01-03-2020 12:05:00 8.9 C 6.57 g/m*3 6.06 C 19.3 km/h
2163 01-03-2020 12:10:00 8.7 C 6.4 g/m*3 5.49 C 22.5 km/h
2164 01-03-2020 12:15:00 8.7 C 6.57 g/m*3 6.38 C 14.5 km/h
2165 01-03-2020 12:20:00 8.7 C 6.49 g/m*3 6.17 C 16.1 km/h
2166 01-03-2020 12:25:00 8.8 C 6.44 g/m*3 6.5 C 14.5 km/h
2167 01-03-2020 12:30:00 9 C 6.44 g/m*3 6.36 C 17.7 km/h
2168 01-03-2020 12:35:00 9 C 6.44 g/m*3 6.97 C 12.9 km/h
2169 01-03-2020 12:40:00 9.1 C 6.57 g/m*3 7.09 C 12.9 km/h
2170 01-03-2020 12:45:00 9.2 C 6.61 g/m*3 9.2 C 4.8 km/h
2171 01-03-2020 12:50:00 9.4 C 6.6 g/m*3 7.04 C 16.1 km/h
2172 01-03-2020 12:55:00 9.6 C 6.6 g/m*3 7.7 C 12.9 km/h
2173 01-03-2020 13:00:00 9.9 C 6.72 g/m*3 8.3 C 11.3 km/h
2174 01-03-2020 13:05:00 10.1 C 6.62 g/m*3 8.31 C 12.9 km/h
2175 01-03-2020 13:10:00 10.2 C 6.57 g/m*3 8.92 C 9.7 km/h
Sensor: Nr:Datum:Temp:Abs-Feuchte:Windchill:Wind:
Aussen-T/F 2176 01-03-2020 13:15:00 10.1 C 6.43 g/m*3 8.1 C 14.5 km/h
2177 01-03-2020 13:20:00 9.9 C 6.44 g/m*3 8.56 C 9.7 km/h
2178 01-03-2020 13:25:00 9.8 C 6.4 g/m*3 7.54 C 16.1 km/h
2179 01-03-2020 13:30:00 9.8 C 6.4 g/m*3 8.18 C 11.3 km/h
2180 01-03-2020 13:35:00 9.9 C 6.44 g/m*3 7.32 C 19.3 km/h
2181 01-03-2020 13:40:00 10 C 6.3 g/m*3 7.29 C 20.9 km/h
2182 01-03-2020 13:45:00 10.1 C 6.52 g/m*3 7.91 C 16.1 km/h
2183 01-03-2020 13:50:00 10.1 C 6.52 g/m*3 8.1 C 14.5 km/h
2184 01-03-2020 13:55:00 10.2 C 6.66 g/m*3 7.86 C 17.7 km/h
2185 01-03-2020 14:00:00 10.3 C 6.42 g/m*3 7.98 C 17.7 km/h
2186 01-03-2020 14:05:00 10.2 C 6.57 g/m*3 7.86 C 17.7 km/h
2187 01-03-2020 14:10:00 10.2 C 6.47 g/m*3 8.43 C 12.9 km/h
2188 01-03-2020 14:15:00 10.1 C 6.52 g/m*3 8.31 C 12.9 km/h
2189 01-03-2020 14:20:00 10 C 6.48 g/m*3 8.42 C 11.3 km/h
2190 01-03-2020 14:25:00 10 C 6.48 g/m*3 8.42 C 11.3 km/h
2191 01-03-2020 14:30:00 10.1 C 6.52 g/m*3 8.8 C 9.7 km/h
2192 01-03-2020 14:35:00 10.2 C 6.57 g/m*3 8.66 C 11.3 km/h
2193 01-03-2020 14:40:00 10.2 C 6.47 g/m*3 7.86 C 17.7 km/h
2194 01-03-2020 14:45:00 10.3 C 6.61 g/m*3 9.04 C 9.7 km/h
2195 01-03-2020 14:50:00 10.4 C 6.46 g/m*3 9.16 C 9.7 km/h
2196 01-03-2020 14:55:00 10.3 C 6.42 g/m*3 8.55 C 12.9 km/h
2197 01-03-2020 15:00:00 10.2 C 6.47 g/m*3 9.6 C 6.4 km/h
2198 01-03-2020 15:05:00 10.2 C 6.47 g/m*3 8.92 C 9.7 km/h
2199 01-03-2020 15:10:00 10.2 C 6.57 g/m*3 9.22 C 8.1 km/h
2200 01-03-2020 15:15:00 10.3 C 6.51 g/m*3 9.72 C 6.4 km/h
Sensor: Nr:Datum:Temp:Abs-Feuchte:Windchill:Wind:
Aussen-T/F 2201 01-03-2020 15:20:00 10.6 C 6.73 g/m*3 9.4 C 9.7 km/h
2202 01-03-2020 15:25:00 10.8 C 6.62 g/m*3 9.64 C 9.7 km/h
2203 01-03-2020 15:30:00 10.8 C 6.42 g/m*3 9.38 C 11.3 km/h
2204 01-03-2020 15:35:00 10.8 C 6.42 g/m*3 9.93 C 8.1 km/h
2205 01-03-2020 15:40:00 10.8 C 6.52 g/m*3 10.29 C 6.4 km/h
2206 01-03-2020 15:45:00 11 C 6.61 g/m*3 10.16 C 8.1 km/h
2207 01-03-2020 15:50:00 11.1 C 6.55 g/m*3 11.1 C 9.7 km/h
2208 01-03-2020 15:55:00 11.1 C 6.55 g/m*3 11.1 C 4.8 km/h
2209 01-03-2020 16:00:00 11.1 C 6.65 g/m*3 11.1 C 3.2 km/h
2210 01-03-2020 16:05:00 11 C 6.61 g/m*3 10.52 C 6.4 km/h
2211 01-03-2020 16:10:00 10.9 C 6.56 g/m*3 10.9 C 1.6 km/h
2212 01-03-2020 16:15:00 10.8 C 6.42 g/m*3 10.8 C 4.8 km/h
2213 01-03-2020 16:20:00 10.8 C 6.52 g/m*3 10.8 C 0 km/h
2214 01-03-2020 16:25:00 10.8 C 6.52 g/m*3 10.8 C 0 km/h
2215 01-03-2020 16:30:00 10.7 C 6.48 g/m*3 10.7 C 0 km/h
2216 01-03-2020 16:35:00 10.7 C 6.58 g/m*3 10.7 C 0 km/h
2217 01-03-2020 16:40:00 10.8 C 7.12 g/m*3 10.8 C 1.6 km/h
2218 01-03-2020 16:45:00 10.7 C 7.07 g/m*3 10.7 C 0 km/h
2219 01-03-2020 16:50:00 10.7 C 7.37 g/m*3 10.7 C 0 km/h
2220 01-03-2020 16:55:00 10.6 C 7.42 g/m*3 10.6 C 0 km/h
2221 01-03-2020 17:00:00 10.4 C 7.42 g/m*3 10.4 C 0 km/h
2222 01-03-2020 17:05:00 10.3 C 7.57 g/m*3 9.72 C 6.4 km/h
2223 01-03-2020 17:10:00 10.1 C 7.47 g/m*3 9.1 C 8.1 km/h
2224 01-03-2020 17:15:00 9.7 C 7.47 g/m*3 8.63 C 8.1 km/h
2225 01-03-2020 17:20:00 9.6 C 7.69 g/m*3 9.6 C 3.2 km/h
Sensor: Nr:Datum:Temp:Abs-Feuchte:Windchill:Wind:
Aussen-T/F 2226 01-03-2020 17:25:00 9.3 C 7.64 g/m*3 9.3 C 4.8 km/h
2227 01-03-2020 17:30:00 9.1 C 7.72 g/m*3 9.1 C 1.6 km/h
2228 01-03-2020 17:35:00 8.9 C 7.62 g/m*3 8.9 C 4.8 km/h
2229 01-03-2020 17:40:00 8.7 C 7.61 g/m*3 8.7 C 4.8 km/h
2230 01-03-2020 17:45:00 8.5 C 7.6 g/m*3 8.5 C 4.8 km/h
2231 01-03-2020 17:50:00 8.3 C 7.59 g/m*3 8.3 C 4.8 km/h
2232 01-03-2020 17:55:00 8.2 C 7.54 g/m*3 8.2 C 4.8 km/h
2233 01-03-2020 18:00:00 8.1 C 7.57 g/m*3 8.1 C 1.6 km/h
2234 01-03-2020 18:05:00 7.9 C 7.47 g/m*3 7.9 C 0 km/h
2235 01-03-2020 18:10:00 7.8 C 7.43 g/m*3 7.8 C 0 km/h
2236 01-03-2020 18:15:00 7.8 C 7.51 g/m*3 7.8 C 3.2 km/h
2237 01-03-2020 18:20:00 7.7 C 7.46 g/m*3 7.7 C 4.8 km/h
2238 01-03-2020 18:25:00 7.6 C 7.41 g/m*3 7.6 C 4.8 km/h
2239 01-03-2020 18:30:00 7.6 C 7.49 g/m*3 7.6 C 3.2 km/h
2240 01-03-2020 18:35:00 7.5 C 7.44 g/m*3 7.5 C 3.2 km/h
2241 01-03-2020 18:40:00 7.5 C 7.44 g/m*3 7.5 C 3.2 km/h
2242 01-03-2020 18:45:00 7.4 C 7.4 g/m*3 7.4 C 3.2 km/h
2243 01-03-2020 18:50:00 7.4 C 7.4 g/m*3 7.4 C 3.2 km/h
2244 01-03-2020 18:55:00 7.4 C 7.4 g/m*3 7.4 C 1.6 km/h
2245 01-03-2020 19:00:00 7.4 C 7.48 g/m*3 7.4 C 0 km/h
2246 01-03-2020 19:05:00 7.3 C 7.43 g/m*3 7.3 C 0 km/h
2247 01-03-2020 19:10:00 7.3 C 7.43 g/m*3 7.3 C 0 km/h
2248 01-03-2020 19:15:00 7.3 C 7.43 g/m*3 7.3 C 1.6 km/h
2249 01-03-2020 19:20:00 7.3 C 7.43 g/m*3 7.3 C 0 km/h
2250 01-03-2020 19:25:00 7.3 C 7.43 g/m*3 7.3 C 1.6 km/h
Sensor: Nr:Datum:Temp:Abs-Feuchte:Windchill:Wind:
Aussen-T/F 2251 01-03-2020 19:30:00 7.3 C 7.43 g/m*3 7.3 C 1.6 km/h
2252 01-03-2020 19:35:00 7.2 C 7.38 g/m*3 7.2 C 0 km/h
2253 01-03-2020 19:40:00 7.2 C 7.38 g/m*3 7.2 C 0 km/h
2254 01-03-2020 19:45:00 7.2 C 7.46 g/m*3 7.2 C 3.2 km/h
2255 01-03-2020 19:50:00 7.1 C 7.33 g/m*3 7.1 C 0 km/h
2256 01-03-2020 19:55:00 7.1 C 7.33 g/m*3 7.1 C 0 km/h
2257 01-03-2020 20:00:00 7.1 C 7.41 g/m*3 7.1 C 1.6 km/h
2258 01-03-2020 20:05:00 7.1 C 7.41 g/m*3 7.1 C 4.8 km/h
2259 01-03-2020 20:10:00 7.1 C 7.41 g/m*3 6.02 C 6.4 km/h
2260 01-03-2020 20:15:00 7 C 7.36 g/m*3 7 C 4.8 km/h
2261 01-03-2020 20:20:00 7 C 7.36 g/m*3 7 C 1.6 km/h
2262 01-03-2020 20:25:00 6.9 C 7.31 g/m*3 6.9 C 3.2 km/h
2263 01-03-2020 20:30:00 6.9 C 7.31 g/m*3 6.9 C 0 km/h
2264 01-03-2020 20:35:00 6.8 C 7.27 g/m*3 6.8 C 1.6 km/h
2265 01-03-2020 20:40:00 6.7 C 7.22 g/m*3 6.7 C 1.6 km/h
2266 01-03-2020 20:45:00 6.6 C 7.17 g/m*3 6.6 C 1.6 km/h
2267 01-03-2020 20:50:00 6.5 C 7.12 g/m*3 6.5 C 0 km/h
2268 01-03-2020 20:55:00 6.4 C 7.08 g/m*3 6.4 C 0 km/h
2269 01-03-2020 21:00:00 6.3 C 7.03 g/m*3 6.3 C 0 km/h
2270 01-03-2020 21:05:00 6.3 C 7.03 g/m*3 6.3 C 0 km/h
2271 01-03-2020 21:10:00 6.3 C 7.03 g/m*3 6.3 C 0 km/h
2272 01-03-2020 21:15:00 6.3 C 7.03 g/m*3 6.3 C 0 km/h
2273 01-03-2020 21:20:00 6.3 C 7.03 g/m*3 6.3 C 0 km/h
2274 01-03-2020 21:25:00 6.2 C 6.99 g/m*3 6.2 C 0 km/h
2275 01-03-2020 21:30:00 6.2 C 6.99 g/m*3 6.2 C 0 km/h
Sensor: Nr:Datum:Temp:Abs-Feuchte:Windchill:Wind:
Aussen-T/F 2276 01-03-2020 21:35:00 6.2 C 6.99 g/m*3 6.2 C 0 km/h
2277 01-03-2020 21:40:00 6.3 C 7.03 g/m*3 6.3 C 0 km/h
2278 01-03-2020 21:45:00 6.3 C 7.11 g/m*3 6.3 C 0 km/h
2279 01-03-2020 21:50:00 6.3 C 7.11 g/m*3 6.3 C 0 km/h
2280 01-03-2020 21:55:00 6.4 C 7.15 g/m*3 6.4 C 0 km/h
2281 01-03-2020 22:00:00 6.5 C 7.2 g/m*3 6.5 C 0 km/h
2282 01-03-2020 22:05:00 6.6 C 7.25 g/m*3 6.6 C 0 km/h
2283 01-03-2020 22:10:00 6.6 C 7.25 g/m*3 6.6 C 0 km/h
2284 01-03-2020 22:15:00 6.7 C 7.29 g/m*3 6.7 C 0 km/h
2285 01-03-2020 22:20:00 6.7 C 7.29 g/m*3 6.7 C 0 km/h
2286 01-03-2020 22:25:00 6.8 C 7.34 g/m*3 6.8 C 0 km/h
2287 01-03-2020 22:30:00 6.8 C 7.34 g/m*3 6.8 C 0 km/h
2288 01-03-2020 22:35:00 6.8 C 7.34 g/m*3 6.8 C 0 km/h
2289 01-03-2020 22:40:00 6.8 C 7.34 g/m*3 6.8 C 0 km/h
2290 01-03-2020 22:45:00 6.8 C 7.34 g/m*3 6.8 C 0 km/h
2291 01-03-2020 22:50:00 6.8 C 7.34 g/m*3 6.8 C 0 km/h
2292 01-03-2020 22:55:00 6.8 C 7.34 g/m*3 6.8 C 0 km/h
2293 01-03-2020 23:00:00 6.9 C 7.39 g/m*3 6.9 C 0 km/h
2294 01-03-2020 23:05:00 6.9 C 7.39 g/m*3 6.9 C 4.8 km/h
2295 01-03-2020 23:10:00 6.9 C 7.39 g/m*3 6.9 C 4.8 km/h
2296 01-03-2020 23:15:00 7 C 7.44 g/m*3 5.11 C 9.7 km/h
2297 01-03-2020 23:20:00 6.2 C 6.99 g/m*3 1.44 C 32.2 km/h
2298 01-03-2020 23:25:00 5.4 C 6.42 g/m*3 0.39 C 32.2 km/h
2299 01-03-2020 23:30:00 5.1 C 6.29 g/m*3 1.71 C 16.1 km/h
2300 01-03-2020 23:35:00 4.8 C 6.1 g/m*3 0.19 C 25.7 km/h
Sensor: Nr:Datum:Temp:Abs-Feuchte:Windchill:Wind:
Aussen-T/F 2301 01-03-2020 23:40:00 4.3 C 5.9 g/m*3 0.97 C 14.5 km/h
2302 01-03-2020 23:45:00 4.1 C 5.89 g/m*3 1.31 C 11.3 km/h
2303 01-03-2020 23:50:00 3.9 C 5.87 g/m*3 1.06 C 11.3 km/h
2304 01-03-2020 23:55:00 3.8 C 5.83 g/m*3 1.29 C 9.7 km/h
2305 02-03-2020 00:00:00 3.8 C 5.83 g/m*3 0.1 C 16.1 km/h
2306 02-03-2020 00:05:00 3.9 C 5.94 g/m*3 0.75 C 12.9 km/h
2307 02-03-2020 00:10:00 3.9 C 5.94 g/m*3 0.75 C 12.9 km/h
2308 02-03-2020 00:15:00 4 C 5.98 g/m*3 1.18 C 11.3 km/h
2309 02-03-2020 00:20:00 4.1 C 6.02 g/m*3 1 C 12.9 km/h
2310 02-03-2020 00:25:00 4.1 C 6.02 g/m*3 1.65 C 9.7 km/h
2311 02-03-2020 00:30:00 4.1 C 6.02 g/m*3 0.72 C 14.5 km/h
2312 02-03-2020 00:35:00 4.2 C 6.06 g/m*3 1.12 C 12.9 km/h
2313 02-03-2020 00:40:00 4.2 C 6.06 g/m*3 1.43 C 11.3 km/h
2314 02-03-2020 00:45:00 4.2 C 6.06 g/m*3 0.84 C 14.5 km/h
2315 02-03-2020 00:50:00 4.2 C 6.06 g/m*3 0.36 C 17.7 km/h
2316 02-03-2020 00:55:00 4.3 C 6.1 g/m*3 1.24 C 12.9 km/h
2317 02-03-2020 01:00:00 4.3 C 6.1 g/m*3 1.24 C 12.9 km/h
2318 02-03-2020 01:05:00 4.3 C 6.03 g/m*3 1.89 C 9.7 km/h
2319 02-03-2020 01:10:00 4.3 C 6.03 g/m*3 1.55 C 11.3 km/h
2320 02-03-2020 01:15:00 4.3 C 6.03 g/m*3 1.24 C 12.9 km/h
2321 02-03-2020 01:20:00 4.3 C 6.03 g/m*3 1.24 C 12.9 km/h
2322 02-03-2020 01:25:00 4.3 C 6.03 g/m*3 0.72 C 16.1 km/h
2323 02-03-2020 01:30:00 4.3 C 6.03 g/m*3 0.07 C 20.9 km/h
2324 02-03-2020 01:35:00 4.3 C 6.03 g/m*3 0.72 C 16.1 km/h
2325 02-03-2020 01:40:00 4.3 C 6.03 g/m*3 1.55 C 11.3 km/h
Sensor: Nr:Datum:Temp:Abs-Feuchte:Windchill:Wind:
Aussen-T/F 2326 02-03-2020 01:45:00 4.3 C 6.03 g/m*3 1.89 C 9.7 km/h
2327 02-03-2020 01:50:00 4.3 C 6.03 g/m*3 2.78 C 6.4 km/h
2328 02-03-2020 01:55:00 4.4 C 6.07 g/m*3 0.61 C 17.7 km/h
2329 02-03-2020 02:00:00 4.3 C 6.03 g/m*3 1.89 C 9.7 km/h
2330 02-03-2020 02:05:00 4.3 C 6.03 g/m*3 1.89 C 9.7 km/h
2331 02-03-2020 02:10:00 4.2 C 5.99 g/m*3 1.77 C 9.7 km/h
2332 02-03-2020 02:15:00 4.2 C 5.99 g/m*3 1.43 C 11.3 km/h
2333 02-03-2020 02:20:00 4.2 C 5.99 g/m*3 2.17 C 8.1 km/h
2334 02-03-2020 02:25:00 4.2 C 5.99 g/m*3 2.17 C 8.1 km/h
2335 02-03-2020 02:30:00 4.1 C 5.95 g/m*3 0.02 C 19.3 km/h
2336 02-03-2020 02:35:00 4.2 C 5.99 g/m*3 0.84 C 14.5 km/h
2337 02-03-2020 02:40:00 4.3 C 6.03 g/m*3 1.24 C 12.9 km/h
2338 02-03-2020 02:45:00 4.3 C 6.03 g/m*3 1.24 C 12.9 km/h
2339 02-03-2020 02:50:00 4.4 C 6.07 g/m*3 2.01 C 9.7 km/h
2340 02-03-2020 02:55:00 4.3 C 6.03 g/m*3 1.89 C 9.7 km/h
2341 02-03-2020 03:00:00 4.2 C 5.99 g/m*3 2.17 C 8.1 km/h
2342 02-03-2020 03:05:00 4.2 C 5.99 g/m*3 4.2 C 4.8 km/h
2343 02-03-2020 03:10:00 4.1 C 5.95 g/m*3 1.31 C 11.3 km/h
2344 02-03-2020 03:15:00 4.1 C 5.95 g/m*3 1 C 12.9 km/h
2345 02-03-2020 03:20:00 4.1 C 5.95 g/m*3 2.55 C 6.4 km/h
2346 02-03-2020 03:25:00 3.9 C 5.87 g/m*3 2.32 C 6.4 km/h
2347 02-03-2020 03:30:00 3.9 C 5.81 g/m*3 3.9 C 4.8 km/h
2348 02-03-2020 03:35:00 3.8 C 5.83 g/m*3 3.8 C 4.8 km/h
2349 02-03-2020 03:40:00 3.7 C 5.8 g/m*3 3.7 C 4.8 km/h
2350 02-03-2020 03:45:00 3.6 C 5.76 g/m*3 1.98 C 6.4 km/h
Sensor: Nr:Datum:Temp:Abs-Feuchte:Windchill:Wind:
Aussen-T/F 2351 02-03-2020 03:50:00 3.6 C 5.76 g/m*3 1.98 C 6.4 km/h
2352 02-03-2020 03:55:00 3.5 C 5.72 g/m*3 3.5 C 4.8 km/h
2353 02-03-2020 04:00:00 3.4 C 5.68 g/m*3 3.4 C 4.8 km/h
2354 02-03-2020 04:05:00 3.4 C 5.68 g/m*3 3.4 C 4.8 km/h
2355 02-03-2020 04:10:00 3.3 C 5.7 g/m*3 3.3 C 4.8 km/h
2356 02-03-2020 04:15:00 3.2 C 5.66 g/m*3 3.2 C 3.2 km/h
2357 02-03-2020 04:20:00 3.1 C 5.63 g/m*3 3.1 C 4.8 km/h
2358 02-03-2020 04:25:00 3.2 C 5.66 g/m*3 3.2 C 3.2 km/h
2359 02-03-2020 04:30:00 3.2 C 5.66 g/m*3 3.2 C 3.2 km/h
2360 02-03-2020 04:35:00 3.2 C 5.66 g/m*3 3.2 C 3.2 km/h
2361 02-03-2020 04:40:00 3.2 C 5.66 g/m*3 0.99 C 8.1 km/h
2362 02-03-2020 04:45:00 3.2 C 5.72 g/m*3 3.2 C 4.8 km/h
2363 02-03-2020 04:50:00 3.2 C 5.66 g/m*3 3.2 C 3.2 km/h
2364 02-03-2020 04:55:00 3.1 C 5.63 g/m*3 3.1 C 4.8 km/h
2365 02-03-2020 05:00:00 3 C 5.59 g/m*3 3 C 4.8 km/h
2366 02-03-2020 05:05:00 2.9 C 5.55 g/m*3 2.9 C 4.8 km/h
2367 02-03-2020 05:10:00 2.8 C 5.51 g/m*3 2.8 C 4.8 km/h
2368 02-03-2020 05:15:00 2.7 C 5.48 g/m*3 2.7 C 1.6 km/h
2369 02-03-2020 05:20:00 2.6 C 5.44 g/m*3 2.6 C 4.8 km/h
2370 02-03-2020 05:25:00 2.5 C 5.4 g/m*3 2.5 C 3.2 km/h
2371 02-03-2020 05:30:00 2.4 C 5.37 g/m*3 2.4 C 3.2 km/h
2372 02-03-2020 05:35:00 2.3 C 5.33 g/m*3 2.3 C 4.8 km/h
2373 02-03-2020 05:40:00 2.2 C 5.29 g/m*3 2.2 C 4.8 km/h
2374 02-03-2020 05:45:00 2.2 C 5.35 g/m*3 2.2 C 4.8 km/h
2375 02-03-2020 05:50:00 2.2 C 5.35 g/m*3 2.2 C 4.8 km/h
Sensor: Nr:Datum:Temp:Abs-Feuchte:Windchill:Wind:
Aussen-T/F 2376 02-03-2020 05:55:00 2.1 C 5.31 g/m*3 2.1 C 3.2 km/h
2377 02-03-2020 06:00:00 2.1 C 5.31 g/m*3 2.1 C 3.2 km/h
2378 02-03-2020 06:05:00 2.1 C 5.31 g/m*3 2.1 C 3.2 km/h
2379 02-03-2020 06:10:00 2.1 C 5.31 g/m*3 2.1 C 3.2 km/h
2380 02-03-2020 06:15:00 2.1 C 5.31 g/m*3 2.1 C 4.8 km/h
2381 02-03-2020 06:20:00 2.1 C 5.31 g/m*3 2.1 C 3.2 km/h
2382 02-03-2020 06:25:00 2.2 C 5.35 g/m*3 2.2 C 1.6 km/h
2383 02-03-2020 06:30:00 2.3 C 5.39 g/m*3 2.3 C 4.8 km/h
2384 02-03-2020 06:35:00 2.4 C 5.48 g/m*3 2.4 C 1.6 km/h
2385 02-03-2020 06:40:00 2.4 C 5.42 g/m*3 2.4 C 1.6 km/h
2386 02-03-2020 06:45:00 2.3 C 5.39 g/m*3 2.3 C 4.8 km/h
2387 02-03-2020 06:50:00 2.3 C 5.39 g/m*3 2.3 C 3.2 km/h
2388 02-03-2020 06:55:00 2.4 C 5.42 g/m*3 2.4 C 3.2 km/h
2389 02-03-2020 07:00:00 2.4 C 5.48 g/m*3 2.4 C 1.6 km/h
2390 02-03-2020 07:05:00 2.4 C 5.48 g/m*3 2.4 C 0 km/h
2391 02-03-2020 07:10:00 2.4 C 5.48 g/m*3 2.4 C 0 km/h
2392 02-03-2020 07:15:00 2.4 C 5.48 g/m*3 2.4 C 1.6 km/h
2393 02-03-2020 07:20:00 2.6 C 5.56 g/m*3 2.6 C 3.2 km/h
2394 02-03-2020 07:25:00 2.7 C 5.59 g/m*3 2.7 C 3.2 km/h
2395 02-03-2020 07:30:00 2.7 C 5.59 g/m*3 2.7 C 0 km/h
2396 02-03-2020 07:35:00 2.8 C 5.63 g/m*3 2.8 C 0 km/h
2397 02-03-2020 07:40:00 2.8 C 5.63 g/m*3 2.8 C 0 km/h
2398 02-03-2020 07:45:00 2.9 C 5.67 g/m*3 2.9 C 0 km/h
2399 02-03-2020 07:50:00 2.9 C 5.67 g/m*3 2.9 C 0 km/h
2400 02-03-2020 07:55:00 3.1 C 5.75 g/m*3 3.1 C 0 km/h
Sensor: Nr:Datum:Temp:Abs-Feuchte:Windchill:Wind:
Aussen-T/F 2401 02-03-2020 08:00:00 3.1 C 5.75 g/m*3 3.1 C 0 km/h
2402 02-03-2020 08:05:00 3.2 C 5.79 g/m*3 3.2 C 0 km/h
2403 02-03-2020 08:10:00 3.3 C 5.82 g/m*3 3.3 C 0 km/h
2404 02-03-2020 08:15:00 3.3 C 5.82 g/m*3 3.3 C 0 km/h
2405 02-03-2020 08:20:00 3.4 C 5.86 g/m*3 3.4 C 0 km/h
2406 02-03-2020 08:25:00 3.4 C 5.86 g/m*3 3.4 C 0 km/h
2407 02-03-2020 08:30:00 3.5 C 5.9 g/m*3 3.5 C 0 km/h
2408 02-03-2020 08:35:00 3.6 C 5.94 g/m*3 3.6 C 0 km/h
2409 02-03-2020 08:40:00 3.7 C 6.04 g/m*3 3.7 C 0 km/h
2410 02-03-2020 08:45:00 3.8 C 6.09 g/m*3 3.8 C 0 km/h
2411 02-03-2020 08:50:00 3.9 C 6.06 g/m*3 3.9 C 0 km/h
2412 02-03-2020 08:55:00 4.1 C 6.21 g/m*3 4.1 C 4.8 km/h
2413 02-03-2020 09:00:00 4.2 C 6.25 g/m*3 4.2 C 0 km/h
2414 02-03-2020 09:05:00 4.3 C 6.23 g/m*3 4.3 C 1.6 km/h
2415 02-03-2020 09:10:00 4.4 C 6.33 g/m*3 4.4 C 1.6 km/h
2416 02-03-2020 09:15:00 4.5 C 6.38 g/m*3 4.5 C 0 km/h
2417 02-03-2020 09:20:00 4.6 C 6.35 g/m*3 4.6 C 4.8 km/h
2418 02-03-2020 09:25:00 4.7 C 6.46 g/m*3 4.7 C 4.8 km/h
2419 02-03-2020 09:30:00 4.8 C 6.44 g/m*3 4.8 C 4.8 km/h
2420 02-03-2020 09:35:00 4.9 C 6.48 g/m*3 2.27 C 11.3 km/h
2421 02-03-2020 09:40:00 5.1 C 6.5 g/m*3 3.23 C 8.1 km/h
2422 02-03-2020 09:45:00 5.3 C 6.58 g/m*3 3.08 C 9.7 km/h
2423 02-03-2020 09:50:00 5.4 C 6.56 g/m*3 3.58 C 8.1 km/h
2424 02-03-2020 09:55:00 5.7 C 6.62 g/m*3 4.4 C 6.4 km/h
2425 02-03-2020 10:00:00 5.8 C 6.59 g/m*3 5.8 C 4.8 km/h
Sensor: Nr:Datum:Temp:Abs-Feuchte:Windchill:Wind:
Aussen-T/F 2426 02-03-2020 10:05:00 6.1 C 6.65 g/m*3 4.04 C 9.7 km/h
2427 02-03-2020 10:10:00 6.3 C 6.66 g/m*3 4.64 C 8.1 km/h
2428 02-03-2020 10:15:00 6.4 C 6.63 g/m*3 6.4 C 4.8 km/h
2429 02-03-2020 10:20:00 6.6 C 6.64 g/m*3 4.63 C 9.7 km/h
2430 02-03-2020 10:25:00 6.8 C 6.73 g/m*3 5.22 C 8.1 km/h
2431 02-03-2020 10:30:00 7 C 6.66 g/m*3 4.53 C 12.9 km/h
2432 02-03-2020 10:35:00 7.2 C 6.67 g/m*3 6.13 C 6.4 km/h
2433 02-03-2020 10:40:00 7.4 C 6.84 g/m*3 6.37 C 6.4 km/h
2434 02-03-2020 10:45:00 7.7 C 6.97 g/m*3 7.7 C 3.2 km/h
2435 02-03-2020 10:50:00 7.9 C 6.9 g/m*3 5.63 C 12.9 km/h
2436 02-03-2020 10:55:00 8.2 C 7.03 g/m*3 7.29 C 6.4 km/h
2437 02-03-2020 11:00:00 8.4 C 7.04 g/m*3 6.78 C 9.7 km/h
2438 02-03-2020 11:05:00 8.7 C 7.01 g/m*3 7.87 C 6.4 km/h
2439 02-03-2020 11:10:00 9 C 7.14 g/m*3 8.21 C 6.4 km/h
2440 02-03-2020 11:15:00 9.2 C 7.14 g/m*3 7.46 C 11.3 km/h
2441 02-03-2020 11:20:00 9.3 C 7.01 g/m*3 7.85 C 9.7 km/h
2442 02-03-2020 11:25:00 9.4 C 6.96 g/m*3 7.7 C 11.3 km/h
2443 02-03-2020 11:30:00 9.6 C 7.05 g/m*3 8.52 C 8.1 km/h
2444 02-03-2020 11:35:00 9.7 C 7.01 g/m*3 8.06 C 11.3 km/h
2445 02-03-2020 11:40:00 9.9 C 7.19 g/m*3 8.3 C 11.3 km/h
2446 02-03-2020 11:45:00 10.1 C 7 g/m*3 9.48 C 6.4 km/h
2447 02-03-2020 11:50:00 10.2 C 6.95 g/m*3 9.6 C 6.4 km/h
2448 02-03-2020 11:55:00 10.2 C 7.14 g/m*3 10.2 C 4.8 km/h
2449 02-03-2020 12:00:00 10.4 C 6.94 g/m*3 9.83 C 6.4 km/h
2450 02-03-2020 12:05:00 10.6 C 6.93 g/m*3 10.06 C 6.4 km/h
Sensor: Nr:Datum:Temp:Abs-Feuchte:Windchill:Wind:
Aussen-T/F 2451 02-03-2020 12:10:00 10.7 C 6.97 g/m*3 9.04 C 12.9 km/h
2452 02-03-2020 12:15:00 10.8 C 6.92 g/m*3 10.8 C 4.8 km/h
2453 02-03-2020 12:20:00 10.8 C 6.72 g/m*3 10.8 C 4.8 km/h
2454 02-03-2020 12:25:00 10.9 C 6.96 g/m*3 10.04 C 8.1 km/h
2455 02-03-2020 12:30:00 10.8 C 6.72 g/m*3 10.29 C 6.4 km/h
2456 02-03-2020 12:35:00 10.8 C 6.72 g/m*3 8.78 C 16.1 km/h
2457 02-03-2020 12:40:00 10.9 C 7.06 g/m*3 9.51 C 11.3 km/h
2458 02-03-2020 12:45:00 11 C 6.81 g/m*3 9.4 C 12.9 km/h
2459 02-03-2020 12:50:00 11 C 6.71 g/m*3 9.4 C 12.9 km/h
2460 02-03-2020 12:55:00 10.9 C 6.86 g/m*3 10.41 C 6.4 km/h
2461 02-03-2020 13:00:00 10.8 C 6.92 g/m*3 10.29 C 6.4 km/h
2462 02-03-2020 13:05:00 10.8 C 6.82 g/m*3 9.64 C 9.7 km/h
2463 02-03-2020 13:10:00 10.9 C 7.06 g/m*3 10.41 C 6.4 km/h
2464 02-03-2020 13:15:00 11.1 C 6.85 g/m*3 11.1 C 4.8 km/h
2465 02-03-2020 13:20:00 11.4 C 7.08 g/m*3 11.4 C 8.1 km/h
2466 02-03-2020 13:25:00 11.7 C 7.01 g/m*3 11.7 C 11.3 km/h
2467 02-03-2020 13:30:00 11.8 C 7.05 g/m*3 11.8 C 9.7 km/h
2468 02-03-2020 13:35:00 11.9 C 7.1 g/m*3 11.9 C 8.1 km/h
2469 02-03-2020 13:40:00 12.2 C 7.23 g/m*3 12.2 C 8.1 km/h
2470 02-03-2020 13:45:00 12.3 C 7.06 g/m*3 12.3 C 8.1 km/h
2471 02-03-2020 13:50:00 12.2 C 7.01 g/m*3 12.2 C 9.7 km/h
2472 02-03-2020 13:55:00 11.9 C 6.78 g/m*3 11.9 C 6.4 km/h
2473 02-03-2020 14:00:00 11.7 C 6.9 g/m*3 11.7 C 6.4 km/h
2474 02-03-2020 14:05:00 11.5 C 7.02 g/m*3 11.5 C 11.3 km/h
2475 02-03-2020 14:10:00 11.4 C 6.98 g/m*3 11.4 C 4.8 km/h
Sensor: Nr:Datum:Temp:Abs-Feuchte:Windchill:Wind:
Aussen-T/F 2476 02-03-2020 14:15:00 11.3 C 6.83 g/m*3 11.3 C 9.7 km/h
2477 02-03-2020 14:20:00 11.2 C 6.89 g/m*3 11.2 C 8.1 km/h
2478 02-03-2020 14:25:00 11 C 6.91 g/m*3 10.52 C 6.4 km/h
2479 02-03-2020 14:30:00 11 C 6.91 g/m*3 9.4 C 12.9 km/h
2480 02-03-2020 14:35:00 10.9 C 6.86 g/m*3 10.41 C 6.4 km/h
2481 02-03-2020 14:40:00 10.9 C 6.76 g/m*3 9.76 C 9.7 km/h
2482 02-03-2020 14:45:00 10.8 C 6.82 g/m*3 9.93 C 8.1 km/h
2483 02-03-2020 14:50:00 10.7 C 6.78 g/m*3 9.52 C 9.7 km/h
2484 02-03-2020 14:55:00 10.7 C 6.68 g/m*3 9.04 C 12.9 km/h
2485 02-03-2020 15:00:00 10.6 C 6.73 g/m*3 10.6 C 4.8 km/h
2486 02-03-2020 15:05:00 10.6 C 6.83 g/m*3 10.06 C 6.4 km/h
2487 02-03-2020 15:10:00 10.6 C 6.83 g/m*3 10.06 C 6.4 km/h
2488 02-03-2020 15:15:00 10.5 C 6.79 g/m*3 10.5 C 1.6 km/h
2489 02-03-2020 15:20:00 10.5 C 6.79 g/m*3 10.5 C 4.8 km/h
2490 02-03-2020 15:25:00 10.5 C 6.89 g/m*3 10.5 C 3.2 km/h
2491 02-03-2020 15:30:00 10.4 C 6.75 g/m*3 9.46 C 8.1 km/h
2492 02-03-2020 15:35:00 10.4 C 6.94 g/m*3 10.4 C 4.8 km/h
2493 02-03-2020 15:40:00 10.3 C 6.9 g/m*3 10.3 C 0 km/h
2494 02-03-2020 15:45:00 10.2 C 7.14 g/m*3 10.2 C 3.2 km/h
2495 02-03-2020 15:50:00 10.2 C 7.23 g/m*3 10.2 C 1.6 km/h
2496 02-03-2020 15:55:00 10.2 C 7.61 g/m*3 10.2 C 0 km/h
2497 02-03-2020 16:00:00 10.1 C 7.85 g/m*3 10.1 C 0 km/h
2498 02-03-2020 16:05:00 9.8 C 7.7 g/m*3 9.8 C 0 km/h
2499 02-03-2020 16:10:00 9.6 C 7.79 g/m*3 9.6 C 0 km/h
2500 02-03-2020 16:15:00 9.4 C 7.78 g/m*3 9.4 C 3.2 km/h
Sensor: Nr:Datum:Temp:Abs-Feuchte:Windchill:Wind:
Aussen-T/F 2501 02-03-2020 16:20:00 9.2 C 7.77 g/m*3 9.2 C 3.2 km/h
2502 02-03-2020 16:25:00 9.1 C 7.72 g/m*3 9.1 C 1.6 km/h
2503 02-03-2020 16:30:00 8.8 C 7.66 g/m*3 8.8 C 1.6 km/h
2504 02-03-2020 16:35:00 8.7 C 7.7 g/m*3 8.7 C 0 km/h
2505 02-03-2020 16:40:00 8.6 C 7.65 g/m*3 8.6 C 0 km/h
2506 02-03-2020 16:45:00 8.4 C 7.63 g/m*3 8.4 C 0 km/h
2507 02-03-2020 16:50:00 8.3 C 7.59 g/m*3 8.3 C 0 km/h
2508 02-03-2020 16:55:00 8.2 C 7.54 g/m*3 8.2 C 0 km/h
2509 02-03-2020 17:00:00 8.1 C 7.57 g/m*3 8.1 C 0 km/h
2510 02-03-2020 17:05:00 8 C 7.52 g/m*3 8 C 0 km/h
2511 02-03-2020 17:10:00 7.9 C 7.47 g/m*3 7.9 C 0 km/h
2512 02-03-2020 17:15:00 7.8 C 7.43 g/m*3 7.8 C 0 km/h
2513 02-03-2020 17:20:00 7.7 C 7.38 g/m*3 7.7 C 0 km/h
2514 02-03-2020 17:25:00 7.6 C 7.41 g/m*3 7.6 C 0 km/h
2515 02-03-2020 17:30:00 7.6 C 7.41 g/m*3 7.6 C 0 km/h
2516 02-03-2020 17:35:00 7.5 C 7.36 g/m*3 7.5 C 0 km/h
2517 02-03-2020 17:40:00 7.4 C 7.4 g/m*3 7.4 C 0 km/h
2518 02-03-2020 17:45:00 7.4 C 7.4 g/m*3 7.4 C 0 km/h
2519 02-03-2020 17:50:00 7.3 C 7.35 g/m*3 7.3 C 0 km/h
2520 02-03-2020 17:55:00 7.3 C 7.35 g/m*3 7.3 C 0 km/h
2521 02-03-2020 18:00:00 7.2 C 7.3 g/m*3 7.2 C 0 km/h
2522 02-03-2020 18:05:00 7.2 C 7.3 g/m*3 7.2 C 0 km/h
2523 02-03-2020 18:10:00 7.2 C 7.3 g/m*3 7.2 C 0 km/h
2524 02-03-2020 18:15:00 7.1 C 7.25 g/m*3 7.1 C 0 km/h
2525 02-03-2020 18:20:00 7.1 C 7.25 g/m*3 7.1 C 0 km/h
Sensor: Nr:Datum:Temp:Abs-Feuchte:Windchill:Wind:
Aussen-T/F 2526 02-03-2020 18:25:00 7 C 7.28 g/m*3 7 C 0 km/h
2527 02-03-2020 18:30:00 7 C 7.28 g/m*3 7 C 0 km/h
2528 02-03-2020 18:35:00 6.9 C 7.24 g/m*3 6.9 C 0 km/h
2529 02-03-2020 18:40:00 6.9 C 7.24 g/m*3 6.9 C 0 km/h
2530 02-03-2020 18:45:00 6.8 C 7.19 g/m*3 6.8 C 0 km/h
2531 02-03-2020 18:50:00 6.8 C 7.19 g/m*3 6.8 C 0 km/h
2532 02-03-2020 18:55:00 6.7 C 7.14 g/m*3 6.7 C 0 km/h
2533 02-03-2020 19:00:00 6.7 C 7.14 g/m*3 6.7 C 0 km/h
2534 02-03-2020 19:05:00 6.7 C 7.14 g/m*3 6.7 C 0 km/h
2535 02-03-2020 19:10:00 6.6 C 7.1 g/m*3 6.6 C 0 km/h
2536 02-03-2020 19:15:00 6.6 C 7.1 g/m*3 6.6 C 0 km/h
2537 02-03-2020 19:20:00 6.6 C 7.1 g/m*3 6.6 C 0 km/h
2538 02-03-2020 19:25:00 6.5 C 7.12 g/m*3 6.5 C 0 km/h
2539 02-03-2020 19:30:00 6.5 C 7.12 g/m*3 6.5 C 0 km/h
2540 02-03-2020 19:35:00 6.5 C 7.12 g/m*3 6.5 C 0 km/h
2541 02-03-2020 19:40:00 6.5 C 7.12 g/m*3 6.5 C 0 km/h
2542 02-03-2020 19:45:00 6.4 C 7.08 g/m*3 6.4 C 0 km/h
2543 02-03-2020 19:50:00 6.4 C 7.08 g/m*3 6.4 C 0 km/h
2544 02-03-2020 19:55:00 6.4 C 7.08 g/m*3 6.4 C 0 km/h
2545 02-03-2020 20:00:00 6.4 C 7.08 g/m*3 6.4 C 0 km/h
2546 02-03-2020 20:05:00 6.4 C 7.08 g/m*3 6.4 C 0 km/h
2547 02-03-2020 20:10:00 6.4 C 7.08 g/m*3 6.4 C 0 km/h
2548 02-03-2020 20:15:00 6.4 C 7.08 g/m*3 6.4 C 0 km/h
2549 02-03-2020 20:20:00 6.4 C 7.08 g/m*3 6.4 C 0 km/h
2550 02-03-2020 20:25:00 6.4 C 7.08 g/m*3 6.4 C 0 km/h
Sensor: Nr:Datum:Temp:Abs-Feuchte:Windchill:Wind:
Aussen-T/F 2551 02-03-2020 20:30:00 6.4 C 7.08 g/m*3 6.4 C 0 km/h
2552 02-03-2020 20:35:00 6.3 C 7.03 g/m*3 6.3 C 0 km/h
2553 02-03-2020 20:40:00 6.3 C 7.03 g/m*3 6.3 C 0 km/h
2554 02-03-2020 20:45:00 6.3 C 7.03 g/m*3 6.3 C 0 km/h
2555 02-03-2020 20:50:00 6.3 C 7.03 g/m*3 6.3 C 0 km/h
2556 02-03-2020 20:55:00 6.3 C 7.03 g/m*3 6.3 C 0 km/h
2557 02-03-2020 21:00:00 6.3 C 7.03 g/m*3 6.3 C 0 km/h
2558 02-03-2020 21:05:00 6.3 C 7.03 g/m*3 6.3 C 0 km/h
2559 02-03-2020 21:10:00 6.3 C 7.03 g/m*3 6.3 C 0 km/h
2560 02-03-2020 21:15:00 6.2 C 6.99 g/m*3 6.2 C 0 km/h
2561 02-03-2020 21:20:00 6.2 C 6.99 g/m*3 6.2 C 0 km/h
2562 02-03-2020 21:25:00 6.2 C 6.99 g/m*3 6.2 C 0 km/h
2563 02-03-2020 21:30:00 6.2 C 6.99 g/m*3 6.2 C 0 km/h
2564 02-03-2020 21:35:00 6.2 C 6.99 g/m*3 6.2 C 0 km/h
2565 02-03-2020 21:40:00 6.2 C 6.99 g/m*3 6.2 C 0 km/h
2566 02-03-2020 21:45:00 6.2 C 7.06 g/m*3 6.2 C 0 km/h
2567 02-03-2020 21:50:00 6.2 C 7.06 g/m*3 6.2 C 0 km/h
2568 02-03-2020 21:55:00 6.2 C 7.06 g/m*3 6.2 C 0 km/h
2569 02-03-2020 22:00:00 6.2 C 7.06 g/m*3 6.2 C 0 km/h
2570 02-03-2020 22:05:00 6.1 C 7.01 g/m*3 6.1 C 0 km/h
2571 02-03-2020 22:10:00 6.1 C 7.01 g/m*3 6.1 C 0 km/h
2572 02-03-2020 22:15:00 6.2 C 7.06 g/m*3 6.2 C 0 km/h
2573 02-03-2020 22:20:00 6.1 C 7.01 g/m*3 6.1 C 0 km/h
2574 02-03-2020 22:25:00 6.2 C 7.06 g/m*3 6.2 C 0 km/h
2575 02-03-2020 22:30:00 6.2 C 7.06 g/m*3 6.2 C 0 km/h
Sensor: Nr:Datum:Temp:Abs-Feuchte:Windchill:Wind:
Aussen-T/F 2576 02-03-2020 22:35:00 6.2 C 7.06 g/m*3 6.2 C 0 km/h
2577 02-03-2020 22:40:00 6.2 C 7.06 g/m*3 6.2 C 0 km/h
2578 02-03-2020 22:45:00 6.2 C 7.06 g/m*3 6.2 C 0 km/h
2579 02-03-2020 22:50:00 6.1 C 7.01 g/m*3 6.1 C 0 km/h
2580 02-03-2020 22:55:00 6.1 C 7.01 g/m*3 6.1 C 3.2 km/h
2581 02-03-2020 23:00:00 6.1 C 7.01 g/m*3 6.1 C 4.8 km/h
2582 02-03-2020 23:05:00 6.1 C 7.01 g/m*3 6.1 C 0 km/h
2583 02-03-2020 23:10:00 6 C 6.97 g/m*3 6 C 1.6 km/h
2584 02-03-2020 23:15:00 6 C 6.97 g/m*3 6 C 0 km/h
2585 02-03-2020 23:20:00 5.9 C 6.92 g/m*3 5.9 C 0 km/h
2586 02-03-2020 23:25:00 5.9 C 6.92 g/m*3 5.9 C 1.6 km/h
2587 02-03-2020 23:30:00 5.9 C 6.92 g/m*3 5.9 C 1.6 km/h
2588 02-03-2020 23:35:00 5.9 C 6.92 g/m*3 5.9 C 0 km/h
2589 02-03-2020 23:40:00 5.9 C 6.92 g/m*3 5.9 C 1.6 km/h
2590 02-03-2020 23:45:00 5.9 C 6.92 g/m*3 5.9 C 3.2 km/h
2591 02-03-2020 23:50:00 5.9 C 6.92 g/m*3 4.63 C 6.4 km/h
2592 02-03-2020 23:55:00 5.9 C 6.92 g/m*3 5.9 C 1.6 km/h
2593 03-03-2020 00:00:00 5.9 C 6.92 g/m*3 5.9 C 0 km/h
2594 03-03-2020 00:05:00 5.9 C 6.92 g/m*3 5.9 C 1.6 km/h
2595 03-03-2020 00:10:00 5.9 C 6.92 g/m*3 3.8 C 9.7 km/h
2596 03-03-2020 00:15:00 5.9 C 6.92 g/m*3 4.63 C 6.4 km/h
2597 03-03-2020 00:20:00 5.8 C 6.88 g/m*3 4.52 C 6.4 km/h
2598 03-03-2020 00:25:00 5.8 C 6.88 g/m*3 4.52 C 6.4 km/h
2599 03-03-2020 00:30:00 5.8 C 6.88 g/m*3 5.8 C 4.8 km/h
2600 03-03-2020 00:35:00 5.7 C 6.83 g/m*3 5.7 C 1.6 km/h
Sensor: Nr:Datum:Temp:Abs-Feuchte:Windchill:Wind:
Aussen-T/F 2601 03-03-2020 00:40:00 5.7 C 6.83 g/m*3 5.7 C 1.6 km/h
2602 03-03-2020 00:45:00 5.7 C 6.83 g/m*3 4.4 C 6.4 km/h
2603 03-03-2020 00:50:00 5.7 C 6.83 g/m*3 5.7 C 1.6 km/h
2604 03-03-2020 00:55:00 5.7 C 6.83 g/m*3 5.7 C 3.2 km/h
2605 03-03-2020 01:00:00 5.7 C 6.83 g/m*3 5.7 C 3.2 km/h
2606 03-03-2020 01:05:00 5.7 C 6.83 g/m*3 5.7 C 4.8 km/h
2607 03-03-2020 01:10:00 5.7 C 6.83 g/m*3 3.93 C 8.1 km/h
2608 03-03-2020 01:15:00 5.7 C 6.83 g/m*3 3.23 C 11.3 km/h
2609 03-03-2020 01:20:00 5.7 C 6.83 g/m*3 3.23 C 11.3 km/h
2610 03-03-2020 01:25:00 5.8 C 6.81 g/m*3 3.07 C 12.9 km/h
2611 03-03-2020 01:30:00 5.8 C 6.81 g/m*3 3.36 C 11.3 km/h
2612 03-03-2020 01:35:00 5.7 C 6.69 g/m*3 2.03 C 19.3 km/h
2613 03-03-2020 01:40:00 5.5 C 6.53 g/m*3 1.99 C 17.7 km/h
2614 03-03-2020 01:45:00 5.4 C 6.49 g/m*3 1.86 C 17.7 km/h
2615 03-03-2020 01:50:00 5.3 C 6.45 g/m*3 2.75 C 11.3 km/h
2616 03-03-2020 01:55:00 5.3 C 6.45 g/m*3 5.3 C 4.8 km/h
2617 03-03-2020 02:00:00 5.3 C 6.45 g/m*3 3.08 C 9.7 km/h
2618 03-03-2020 02:05:00 5.3 C 6.45 g/m*3 3.08 C 9.7 km/h
2619 03-03-2020 02:10:00 5.3 C 6.45 g/m*3 3.46 C 8.1 km/h
2620 03-03-2020 02:15:00 5.2 C 6.4 g/m*3 3.82 C 6.4 km/h
2621 03-03-2020 02:20:00 5.2 C 6.4 g/m*3 5.2 C 3.2 km/h
2622 03-03-2020 02:25:00 5.1 C 6.36 g/m*3 3.23 C 8.1 km/h
2623 03-03-2020 02:30:00 5.1 C 6.22 g/m*3 2.84 C 9.7 km/h
2624 03-03-2020 02:35:00 5.2 C 6.27 g/m*3 3.82 C 6.4 km/h
2625 03-03-2020 02:40:00 5.2 C 6.2 g/m*3 3.34 C 8.1 km/h
Sensor: Nr:Datum:Temp:Abs-Feuchte:Windchill:Wind:
Aussen-T/F 2626 03-03-2020 02:45:00 5.2 C 6.2 g/m*3 2.63 C 11.3 km/h
2627 03-03-2020 02:50:00 5.2 C 6.2 g/m*3 5.2 C 3.2 km/h
2628 03-03-2020 02:55:00 5.1 C 6.09 g/m*3 5.1 C 4.8 km/h
2629 03-03-2020 03:00:00 5.1 C 6.16 g/m*3 5.1 C 4.8 km/h
2630 03-03-2020 03:05:00 4.9 C 6.14 g/m*3 4.9 C 3.2 km/h
2631 03-03-2020 03:10:00 4.8 C 6.04 g/m*3 4.8 C 4.8 km/h
2632 03-03-2020 03:15:00 4.7 C 6.06 g/m*3 2.76 C 8.1 km/h
2633 03-03-2020 03:20:00 4.5 C 5.85 g/m*3 1.79 C 11.3 km/h
2634 03-03-2020 03:25:00 4.4 C 5.81 g/m*3 4.4 C 1.6 km/h
2635 03-03-2020 03:30:00 4.4 C 5.88 g/m*3 2.9 C 6.4 km/h
2636 03-03-2020 03:35:00 4.3 C 5.84 g/m*3 4.3 C 3.2 km/h
2637 03-03-2020 03:40:00 4.2 C 5.8 g/m*3 4.2 C 4.8 km/h
2638 03-03-2020 03:45:00 4.1 C 5.82 g/m*3 4.1 C 4.8 km/h
2639 03-03-2020 03:50:00 3.9 C 5.75 g/m*3 3.9 C 4.8 km/h
2640 03-03-2020 03:55:00 3.9 C 5.75 g/m*3 2.32 C 6.4 km/h
2641 03-03-2020 04:00:00 3.8 C 5.71 g/m*3 2.21 C 6.4 km/h
2642 03-03-2020 04:05:00 3.7 C 5.73 g/m*3 3.7 C 4.8 km/h
2643 03-03-2020 04:10:00 3.7 C 5.73 g/m*3 3.7 C 4.8 km/h
2644 03-03-2020 04:15:00 3.6 C 5.69 g/m*3 1.98 C 6.4 km/h
2645 03-03-2020 04:20:00 3.6 C 5.69 g/m*3 1.98 C 6.4 km/h
2646 03-03-2020 04:25:00 3.6 C 5.69 g/m*3 1.98 C 6.4 km/h
2647 03-03-2020 04:30:00 3.6 C 5.69 g/m*3 1.98 C 6.4 km/h
2648 03-03-2020 04:35:00 3.6 C 5.69 g/m*3 1.46 C 8.1 km/h
2649 03-03-2020 04:40:00 3.7 C 5.73 g/m*3 2.09 C 6.4 km/h
2650 03-03-2020 04:45:00 3.7 C 5.73 g/m*3 3.7 C 4.8 km/h
Sensor: Nr:Datum:Temp:Abs-Feuchte:Windchill:Wind:
Aussen-T/F 2651 03-03-2020 04:50:00 3.6 C 5.69 g/m*3 1.98 C 6.4 km/h
2652 03-03-2020 04:55:00 3.6 C 5.76 g/m*3 1.46 C 8.1 km/h
2653 03-03-2020 05:00:00 3.6 C 5.69 g/m*3 1.06 C 9.7 km/h
2654 03-03-2020 05:05:00 3.6 C 5.69 g/m*3 0.7 C 11.3 km/h
2655 03-03-2020 05:10:00 3.6 C 5.69 g/m*3 3.6 C 4.8 km/h
2656 03-03-2020 05:15:00 3.6 C 5.69 g/m*3 1.06 C 9.7 km/h
2657 03-03-2020 05:20:00 3.5 C 5.66 g/m*3 1.34 C 8.1 km/h
2658 03-03-2020 05:25:00 3.4 C 5.62 g/m*3 3.4 C 4.8 km/h
2659 03-03-2020 05:30:00 3.3 C 5.64 g/m*3 1.11 C 8.1 km/h
2660 03-03-2020 05:35:00 3.3 C 5.64 g/m*3 3.3 C 4.8 km/h
2661 03-03-2020 05:40:00 3.3 C 5.64 g/m*3 1.11 C 8.1 km/h
2662 03-03-2020 05:45:00 3.3 C 5.64 g/m*3 3.3 C 4.8 km/h
2663 03-03-2020 05:50:00 3.3 C 5.64 g/m*3 1.63 C 6.4 km/h
2664 03-03-2020 05:55:00 3.2 C 5.6 g/m*3 3.2 C 3.2 km/h
2665 03-03-2020 06:00:00 3.2 C 5.6 g/m*3 3.2 C 4.8 km/h
2666 03-03-2020 06:05:00 3.2 C 5.6 g/m*3 3.2 C 4.8 km/h
2667 03-03-2020 06:10:00 3.3 C 5.7 g/m*3 1.63 C 6.4 km/h
2668 03-03-2020 06:15:00 3.3 C 5.7 g/m*3 1.11 C 8.1 km/h
2669 03-03-2020 06:20:00 3.4 C 5.68 g/m*3 1.23 C 8.1 km/h
2670 03-03-2020 06:25:00 3.4 C 5.68 g/m*3 3.4 C 4.8 km/h
2671 03-03-2020 06:30:00 3.4 C 5.68 g/m*3 3.4 C 4.8 km/h
2672 03-03-2020 06:35:00 3.3 C 5.64 g/m*3 1.63 C 6.4 km/h
2673 03-03-2020 06:40:00 3.3 C 5.64 g/m*3 3.3 C 4.8 km/h
2674 03-03-2020 06:45:00 3.2 C 5.6 g/m*3 0.99 C 8.1 km/h
2675 03-03-2020 06:50:00 3.2 C 5.6 g/m*3 3.2 C 4.8 km/h
Sensor: Nr:Datum:Temp:Abs-Feuchte:Windchill:Wind:
Aussen-T/F 2676 03-03-2020 06:55:00 3.2 C 5.6 g/m*3 -0.1 C 12.9 km/h
2677 03-03-2020 07:00:00 3.2 C 5.6 g/m*3 0.58 C 9.7 km/h
2678 03-03-2020 07:05:00 3.3 C 5.64 g/m*3 3.3 C 4.8 km/h
2679 03-03-2020 07:10:00 3.3 C 5.64 g/m*3 0.34 C 11.3 km/h
2680 03-03-2020 07:15:00 3.3 C 5.64 g/m*3 1.11 C 8.1 km/h
2681 03-03-2020 07:20:00 3.3 C 5.64 g/m*3 1.63 C 6.4 km/h
2682 03-03-2020 07:25:00 3.3 C 5.64 g/m*3 1.11 C 8.1 km/h
2683 03-03-2020 07:30:00 3.3 C 5.64 g/m*3 1.63 C 6.4 km/h
2684 03-03-2020 07:35:00 3.3 C 5.64 g/m*3 1.63 C 6.4 km/h
2685 03-03-2020 07:40:00 3.3 C 5.64 g/m*3 1.63 C 6.4 km/h
2686 03-03-2020 07:45:00 3.3 C 5.64 g/m*3 3.3 C 4.8 km/h
2687 03-03-2020 07:50:00 3.2 C 5.6 g/m*3 0.58 C 9.7 km/h
2688 03-03-2020 07:55:00 3.2 C 5.6 g/m*3 0.99 C 8.1 km/h
2689 03-03-2020 08:00:00 3.2 C 5.6 g/m*3 1.51 C 6.4 km/h
2690 03-03-2020 08:05:00 3.2 C 5.6 g/m*3 1.51 C 6.4 km/h
2691 03-03-2020 08:10:00 3.2 C 5.6 g/m*3 3.2 C 4.8 km/h
2692 03-03-2020 08:15:00 3.2 C 5.6 g/m*3 0.58 C 9.7 km/h
2693 03-03-2020 08:20:00 3.3 C 5.64 g/m*3 1.11 C 8.1 km/h
2694 03-03-2020 08:25:00 3.4 C 5.68 g/m*3 1.75 C 6.4 km/h
2695 03-03-2020 08:30:00 3.5 C 5.72 g/m*3 0.58 C 11.3 km/h
2696 03-03-2020 08:35:00 3.7 C 5.8 g/m*3 0.82 C 11.3 km/h
2697 03-03-2020 08:40:00 3.8 C 5.77 g/m*3 0.35 C 14.5 km/h
2698 03-03-2020 08:45:00 3.8 C 5.77 g/m*3 -0.14 C 17.7 km/h
2699 03-03-2020 08:50:00 3.9 C 5.75 g/m*3 0.22 C 16.1 km/h
2700 03-03-2020 08:55:00 3.9 C 5.68 g/m*3 0.47 C 14.5 km/h
Sensor: Nr:Datum:Temp:Abs-Feuchte:Windchill:Wind:
Aussen-T/F 2701 03-03-2020 09:00:00 3.9 C 5.68 g/m*3 1.06 C 11.3 km/h
2702 03-03-2020 09:05:00 3.9 C 5.68 g/m*3 1.06 C 11.3 km/h
2703 03-03-2020 09:10:00 3.9 C 5.68 g/m*3 0.47 C 14.5 km/h
2704 03-03-2020 09:15:00 3.9 C 5.68 g/m*3 2.32 C 6.4 km/h
2705 03-03-2020 09:20:00 3.8 C 5.65 g/m*3 0.94 C 11.3 km/h
2706 03-03-2020 09:25:00 3.9 C 5.68 g/m*3 1.41 C 9.7 km/h
2707 03-03-2020 09:30:00 3.9 C 5.68 g/m*3 0.75 C 12.9 km/h
2708 03-03-2020 09:35:00 4.1 C 5.76 g/m*3 1.31 C 11.3 km/h
2709 03-03-2020 09:40:00 4.1 C 5.76 g/m*3 2.55 C 6.4 km/h
2710 03-03-2020 09:45:00 4.2 C 5.8 g/m*3 1.12 C 12.9 km/h
2711 03-03-2020 09:50:00 4.3 C 5.84 g/m*3 0.97 C 14.5 km/h
2712 03-03-2020 09:55:00 4.4 C 5.81 g/m*3 1.09 C 14.5 km/h
2713 03-03-2020 10:00:00 4.7 C 5.86 g/m*3 1.46 C 14.5 km/h
2714 03-03-2020 10:05:00 4.8 C 5.83 g/m*3 1.34 C 16.1 km/h
2715 03-03-2020 10:10:00 5.1 C 5.95 g/m*3 2.22 C 12.9 km/h
2716 03-03-2020 10:15:00 5.3 C 5.89 g/m*3 1.74 C 17.7 km/h
2717 03-03-2020 10:20:00 5.3 C 5.82 g/m*3 2.2 C 14.5 km/h
2718 03-03-2020 10:25:00 5.4 C 5.86 g/m*3 3.2 C 9.7 km/h
2719 03-03-2020 10:30:00 5.4 C 5.86 g/m*3 2.32 C 14.5 km/h
2720 03-03-2020 10:35:00 5.5 C 5.9 g/m*3 2.99 C 11.3 km/h
2721 03-03-2020 10:40:00 5.5 C 5.76 g/m*3 2.2 C 16.1 km/h
2722 03-03-2020 10:45:00 5.4 C 5.72 g/m*3 2.08 C 16.1 km/h
2723 03-03-2020 10:50:00 5.3 C 5.61 g/m*3 0.99 C 24.1 km/h
2724 03-03-2020 10:55:00 5.2 C 5.65 g/m*3 1.83 C 16.1 km/h
2725 03-03-2020 11:00:00 5.2 C 5.65 g/m*3 2.63 C 11.3 km/h
Sensor: Nr:Datum:Temp:Abs-Feuchte:Windchill:Wind:
Aussen-T/F 2726 03-03-2020 11:05:00 5.3 C 5.75 g/m*3 2.46 C 12.9 km/h
2727 03-03-2020 11:10:00 5.3 C 5.75 g/m*3 2.75 C 11.3 km/h
2728 03-03-2020 11:15:00 5.4 C 5.79 g/m*3 2.32 C 14.5 km/h
2729 03-03-2020 11:20:00 5.4 C 5.86 g/m*3 3.58 C 8.1 km/h
2730 03-03-2020 11:25:00 5.5 C 5.9 g/m*3 3.7 C 8.1 km/h
2731 03-03-2020 11:30:00 5.4 C 5.79 g/m*3 4.06 C 6.4 km/h
2732 03-03-2020 11:35:00 5.4 C 5.79 g/m*3 2.58 C 12.9 km/h
2733 03-03-2020 11:40:00 5.5 C 5.9 g/m*3 3.7 C 8.1 km/h
2734 03-03-2020 11:45:00 5.6 C 5.94 g/m*3 3.81 C 8.1 km/h
2735 03-03-2020 11:50:00 5.7 C 5.91 g/m*3 3.23 C 11.3 km/h
2736 03-03-2020 11:55:00 5.7 C 5.84 g/m*3 3.56 C 9.7 km/h
2737 03-03-2020 12:00:00 5.8 C 5.95 g/m*3 4.05 C 8.1 km/h
2738 03-03-2020 12:05:00 5.8 C 5.95 g/m*3 3.36 C 11.3 km/h
2739 03-03-2020 12:10:00 5.9 C 5.91 g/m*3 3.48 C 11.3 km/h
2740 03-03-2020 12:15:00 6 C 5.95 g/m*3 3.92 C 9.7 km/h
2741 03-03-2020 12:20:00 6.1 C 5.99 g/m*3 4.86 C 6.4 km/h
2742 03-03-2020 12:25:00 6.2 C 6.03 g/m*3 4.52 C 8.1 km/h
2743 03-03-2020 12:30:00 6.3 C 6.07 g/m*3 4.64 C 8.1 km/h
2744 03-03-2020 12:35:00 6.4 C 6.04 g/m*3 5.21 C 6.4 km/h
2745 03-03-2020 12:40:00 6.5 C 6.07 g/m*3 3.92 C 12.9 km/h
2746 03-03-2020 12:45:00 6.6 C 6.11 g/m*3 4.32 C 11.3 km/h
2747 03-03-2020 12:50:00 6.6 C 6.04 g/m*3 4.99 C 8.1 km/h
2748 03-03-2020 12:55:00 6.6 C 5.96 g/m*3 4.04 C 12.9 km/h
2749 03-03-2020 13:00:00 6.5 C 5.92 g/m*3 4.2 C 11.3 km/h
2750 03-03-2020 13:05:00 6.6 C 5.89 g/m*3 4.04 C 12.9 km/h
Sensor: Nr:Datum:Temp:Abs-Feuchte:Windchill:Wind:
Aussen-T/F 2751 03-03-2020 13:10:00 6.7 C 5.93 g/m*3 4.75 C 9.7 km/h
2752 03-03-2020 13:15:00 6.9 C 6 g/m*3 4.99 C 9.7 km/h
2753 03-03-2020 13:20:00 7.2 C 5.97 g/m*3 4.77 C 12.9 km/h
2754 03-03-2020 13:25:00 7.4 C 6.12 g/m*3 5.28 C 11.3 km/h
2755 03-03-2020 13:30:00 7.6 C 6.12 g/m*3 5.26 C 12.9 km/h
2756 03-03-2020 13:35:00 7.7 C 6.08 g/m*3 6.71 C 6.4 km/h
2757 03-03-2020 13:40:00 7.7 C 6 g/m*3 5.65 C 11.3 km/h
2758 03-03-2020 13:45:00 7.9 C 6 g/m*3 5.89 C 11.3 km/h
2759 03-03-2020 13:50:00 8 C 6.12 g/m*3 5.3 C 16.1 km/h
2760 03-03-2020 13:55:00 7.8 C 6.04 g/m*3 5.51 C 12.9 km/h
2761 03-03-2020 14:00:00 7.4 C 6.04 g/m*3 5.93 C 8.1 km/h
2762 03-03-2020 14:05:00 7.2 C 6.28 g/m*3 6.13 C 6.4 km/h
2763 03-03-2020 14:10:00 7 C 6.35 g/m*3 5.46 C 8.1 km/h
2764 03-03-2020 14:15:00 6.8 C 6.35 g/m*3 6.8 C 4.8 km/h
2765 03-03-2020 14:20:00 6.7 C 6.38 g/m*3 6.7 C 1.6 km/h
2766 03-03-2020 14:25:00 6.6 C 6.42 g/m*3 6.6 C 0 km/h
2767 03-03-2020 14:30:00 6.5 C 6.37 g/m*3 4.51 C 9.7 km/h
2768 03-03-2020 14:35:00 6.3 C 6.22 g/m*3 3.2 C 16.1 km/h
2769 03-03-2020 14:40:00 6.1 C 6.21 g/m*3 3.18 C 14.5 km/h
2770 03-03-2020 14:45:00 5.9 C 6.27 g/m*3 5.9 C 4.8 km/h
2771 03-03-2020 14:50:00 5.8 C 6.23 g/m*3 4.05 C 8.1 km/h
2772 03-03-2020 14:55:00 5.8 C 6.23 g/m*3 4.52 C 6.4 km/h
2773 03-03-2020 15:00:00 5.7 C 6.26 g/m*3 3.93 C 8.1 km/h
2774 03-03-2020 15:05:00 5.6 C 6.22 g/m*3 3.11 C 11.3 km/h
2775 03-03-2020 15:10:00 5.4 C 6.07 g/m*3 2.87 C 11.3 km/h
Sensor: Nr:Datum:Temp:Abs-Feuchte:Windchill:Wind:
Aussen-T/F 2776 03-03-2020 15:15:00 5.4 C 6.14 g/m*3 5.4 C 3.2 km/h
2777 03-03-2020 15:20:00 5.6 C 6.22 g/m*3 4.29 C 6.4 km/h
2778 03-03-2020 15:25:00 5.8 C 6.23 g/m*3 4.05 C 8.1 km/h
2779 03-03-2020 15:30:00 6.1 C 6.36 g/m*3 4.4 C 8.1 km/h
2780 03-03-2020 15:35:00 6.4 C 6.48 g/m*3 5.21 C 6.4 km/h
2781 03-03-2020 15:40:00 6.6 C 6.42 g/m*3 4.63 C 9.7 km/h
2782 03-03-2020 15:45:00 6.8 C 6.35 g/m*3 4.56 C 11.3 km/h
2783 03-03-2020 15:50:00 7 C 6.35 g/m*3 7 C 4.8 km/h
2784 03-03-2020 15:55:00 7 C 6.28 g/m*3 5.46 C 8.1 km/h
2785 03-03-2020 16:00:00 6.9 C 6.31 g/m*3 6.9 C 4.8 km/h
2786 03-03-2020 16:05:00 7.2 C 6.36 g/m*3 6.13 C 6.4 km/h
2787 03-03-2020 16:10:00 7.4 C 6.36 g/m*3 5.93 C 8.1 km/h
2788 03-03-2020 16:15:00 7.7 C 6.49 g/m*3 5.94 C 9.7 km/h
2789 03-03-2020 16:20:00 7.7 C 6.32 g/m*3 5.38 C 12.9 km/h
2790 03-03-2020 16:25:00 7.6 C 6.2 g/m*3 5.82 C 9.7 km/h
2791 03-03-2020 16:30:00 7.5 C 6.24 g/m*3 6.05 C 8.1 km/h
2792 03-03-2020 16:35:00 7.4 C 6.2 g/m*3 6.37 C 6.4 km/h
2793 03-03-2020 16:40:00 7.4 C 6.2 g/m*3 7.4 C 4.8 km/h
2794 03-03-2020 16:45:00 7.3 C 6.16 g/m*3 7.3 C 4.8 km/h
2795 03-03-2020 16:50:00 7.3 C 6.24 g/m*3 6.25 C 6.4 km/h
2796 03-03-2020 16:55:00 7.3 C 6.24 g/m*3 7.3 C 4.8 km/h
2797 03-03-2020 17:00:00 7.3 C 6.16 g/m*3 5.81 C 8.1 km/h
2798 03-03-2020 17:05:00 7.2 C 6.2 g/m*3 7.2 C 3.2 km/h
2799 03-03-2020 17:10:00 7.1 C 6.24 g/m*3 5.58 C 8.1 km/h
2800 03-03-2020 17:15:00 7.1 C 6.24 g/m*3 7.1 C 4.8 km/h
Sensor: Nr:Datum:Temp:Abs-Feuchte:Windchill:Wind:
Aussen-T/F 2801 03-03-2020 17:20:00 7.1 C 6.4 g/m*3 7.1 C 4.8 km/h
2802 03-03-2020 17:25:00 7 C 6.2 g/m*3 7 C 4.8 km/h
2803 03-03-2020 17:30:00 6.9 C 6.16 g/m*3 5.79 C 6.4 km/h
2804 03-03-2020 17:35:00 6.9 C 6.08 g/m*3 6.9 C 4.8 km/h
2805 03-03-2020 17:40:00 6.9 C 6.24 g/m*3 6.9 C 1.6 km/h
2806 03-03-2020 17:45:00 6.9 C 6.24 g/m*3 6.9 C 4.8 km/h
2807 03-03-2020 17:50:00 6.9 C 6.24 g/m*3 6.9 C 0 km/h
2808 03-03-2020 17:55:00 6.8 C 6.19 g/m*3 6.8 C 0 km/h
2809 03-03-2020 18:00:00 6.6 C 6.11 g/m*3 6.6 C 4.8 km/h
2810 03-03-2020 18:05:00 6.2 C 6.03 g/m*3 4.98 C 6.4 km/h
2811 03-03-2020 18:10:00 5.9 C 5.98 g/m*3 4.63 C 6.4 km/h
2812 03-03-2020 18:15:00 5.7 C 5.98 g/m*3 4.4 C 6.4 km/h
2813 03-03-2020 18:20:00 5.3 C 5.89 g/m*3 3.94 C 6.4 km/h
2814 03-03-2020 18:25:00 5.1 C 5.81 g/m*3 3.71 C 6.4 km/h
2815 03-03-2020 18:30:00 4.9 C 5.81 g/m*3 3.48 C 6.4 km/h
2816 03-03-2020 18:35:00 4.8 C 5.77 g/m*3 4.8 C 4.8 km/h
2817 03-03-2020 18:40:00 4.6 C 5.76 g/m*3 4.6 C 4.8 km/h
2818 03-03-2020 18:45:00 4.4 C 5.75 g/m*3 2.4 C 8.1 km/h
2819 03-03-2020 18:50:00 4.3 C 5.71 g/m*3 2.29 C 8.1 km/h
2820 03-03-2020 18:55:00 4.2 C 5.73 g/m*3 2.67 C 6.4 km/h
2821 03-03-2020 19:00:00 4.1 C 5.7 g/m*3 2.05 C 8.1 km/h
2822 03-03-2020 19:05:00 4 C 5.72 g/m*3 4 C 4.8 km/h
2823 03-03-2020 19:10:00 3.9 C 5.68 g/m*3 3.9 C 4.8 km/h
2824 03-03-2020 19:15:00 3.8 C 5.65 g/m*3 2.21 C 6.4 km/h
2825 03-03-2020 19:20:00 3.8 C 5.65 g/m*3 1.7 C 8.1 km/h
Sensor: Nr:Datum:Temp:Abs-Feuchte:Windchill:Wind:
Aussen-T/F 2826 03-03-2020 19:25:00 3.8 C 5.65 g/m*3 1.7 C 8.1 km/h
2827 03-03-2020 19:30:00 3.8 C 5.65 g/m*3 3.8 C 4.8 km/h
2828 03-03-2020 19:35:00 3.7 C 5.61 g/m*3 3.7 C 4.8 km/h
2829 03-03-2020 19:40:00 3.6 C 5.57 g/m*3 3.6 C 3.2 km/h
2830 03-03-2020 19:45:00 3.5 C 5.53 g/m*3 1.86 C 6.4 km/h
2831 03-03-2020 19:50:00 3.4 C 5.56 g/m*3 3.4 C 4.8 km/h
2832 03-03-2020 19:55:00 3.4 C 5.56 g/m*3 3.4 C 4.8 km/h
2833 03-03-2020 20:00:00 3.4 C 5.56 g/m*3 3.4 C 3.2 km/h
2834 03-03-2020 20:05:00 3.3 C 5.52 g/m*3 3.3 C 3.2 km/h
2835 03-03-2020 20:10:00 3.2 C 5.48 g/m*3 3.2 C 1.6 km/h
2836 03-03-2020 20:15:00 3 C 5.41 g/m*3 3 C 3.2 km/h
2837 03-03-2020 20:20:00 2.9 C 5.37 g/m*3 2.9 C 1.6 km/h
2838 03-03-2020 20:25:00 2.8 C 5.34 g/m*3 2.8 C 1.6 km/h
2839 03-03-2020 20:30:00 2.8 C 5.4 g/m*3 2.8 C 4.8 km/h
2840 03-03-2020 20:35:00 2.7 C 5.36 g/m*3 2.7 C 0 km/h
2841 03-03-2020 20:40:00 2.7 C 5.36 g/m*3 2.7 C 0 km/h
2842 03-03-2020 20:45:00 2.6 C 5.32 g/m*3 2.6 C 0 km/h
2843 03-03-2020 20:50:00 2.6 C 5.38 g/m*3 2.6 C 0 km/h
2844 03-03-2020 20:55:00 2.6 C 5.38 g/m*3 2.6 C 0 km/h
2845 03-03-2020 21:00:00 2.5 C 5.35 g/m*3 2.5 C 0 km/h
2846 03-03-2020 21:05:00 2.4 C 5.31 g/m*3 2.4 C 0 km/h
2847 03-03-2020 21:10:00 2.3 C 5.27 g/m*3 2.3 C 0 km/h
2848 03-03-2020 21:15:00 2.3 C 5.27 g/m*3 2.3 C 0 km/h
2849 03-03-2020 21:20:00 2.3 C 5.27 g/m*3 2.3 C 0 km/h
2850 03-03-2020 21:25:00 2.3 C 5.27 g/m*3 2.3 C 0 km/h
Sensor: Nr:Datum:Temp:Abs-Feuchte:Windchill:Wind:
Aussen-T/F 2851 03-03-2020 21:30:00 2.3 C 5.33 g/m*3 2.3 C 0 km/h
2852 03-03-2020 21:35:00 2.3 C 5.33 g/m*3 2.3 C 0 km/h
2853 03-03-2020 21:40:00 2.3 C 5.33 g/m*3 2.3 C 0 km/h
2854 03-03-2020 21:45:00 2.3 C 5.33 g/m*3 2.3 C 0 km/h
2855 03-03-2020 21:50:00 2.4 C 5.37 g/m*3 2.4 C 0 km/h
2856 03-03-2020 21:55:00 2.4 C 5.37 g/m*3 2.4 C 0 km/h
2857 03-03-2020 22:00:00 2.4 C 5.37 g/m*3 2.4 C 0 km/h
2858 03-03-2020 22:05:00 2.4 C 5.37 g/m*3 2.4 C 0 km/h
2859 03-03-2020 22:10:00 2.4 C 5.37 g/m*3 2.4 C 0 km/h
2860 03-03-2020 22:15:00 2.4 C 5.37 g/m*3 2.4 C 0 km/h
2861 03-03-2020 22:20:00 2.4 C 5.37 g/m*3 2.4 C 0 km/h
2862 03-03-2020 22:25:00 2.4 C 5.37 g/m*3 2.4 C 0 km/h
2863 03-03-2020 22:30:00 2.4 C 5.37 g/m*3 2.4 C 0 km/h
2864 03-03-2020 22:35:00 2.3 C 5.33 g/m*3 2.3 C 0 km/h
2865 03-03-2020 22:40:00 2.3 C 5.33 g/m*3 2.3 C 0 km/h
2866 03-03-2020 22:45:00 2.3 C 5.33 g/m*3 2.3 C 0 km/h
2867 03-03-2020 22:50:00 2.2 C 5.29 g/m*3 2.2 C 0 km/h
2868 03-03-2020 22:55:00 2.2 C 5.29 g/m*3 2.2 C 0 km/h
2869 03-03-2020 23:00:00 2.2 C 5.29 g/m*3 2.2 C 0 km/h
2870 03-03-2020 23:05:00 2.2 C 5.35 g/m*3 2.2 C 4.8 km/h
2871 03-03-2020 23:10:00 2.3 C 5.39 g/m*3 2.3 C 3.2 km/h
2872 03-03-2020 23:15:00 2.4 C 5.42 g/m*3 0.59 C 6.4 km/h
2873 03-03-2020 23:20:00 2.6 C 5.5 g/m*3 0.82 C 6.4 km/h
2874 03-03-2020 23:25:00 2.8 C 5.57 g/m*3 2.8 C 3.2 km/h
2875 03-03-2020 23:30:00 2.8 C 5.57 g/m*3 2.8 C 3.2 km/h
Sensor: Nr:Datum:Temp:Abs-Feuchte:Windchill:Wind:
Aussen-T/F 2876 03-03-2020 23:35:00 2.9 C 5.61 g/m*3 2.9 C 4.8 km/h
2877 03-03-2020 23:40:00 2.9 C 5.61 g/m*3 2.9 C 3.2 km/h
2878 03-03-2020 23:45:00 3 C 5.65 g/m*3 3 C 3.2 km/h
2879 03-03-2020 23:50:00 3 C 5.65 g/m*3 3 C 3.2 km/h
2880 03-03-2020 23:55:00 3 C 5.59 g/m*3 3 C 4.8 km/h
2881 04-03-2020 00:00:00 3.1 C 5.63 g/m*3 1.4 C 6.4 km/h
2882 04-03-2020 00:05:00 3.1 C 5.63 g/m*3 3.1 C 3.2 km/h
2883 04-03-2020 00:10:00 3.2 C 5.66 g/m*3 3.2 C 1.6 km/h
2884 04-03-2020 00:15:00 3.2 C 5.66 g/m*3 3.2 C 3.2 km/h
2885 04-03-2020 00:20:00 3.2 C 5.66 g/m*3 3.2 C 3.2 km/h
2886 04-03-2020 00:25:00 3.2 C 5.66 g/m*3 3.2 C 3.2 km/h
2887 04-03-2020 00:30:00 3.2 C 5.66 g/m*3 3.2 C 3.2 km/h
2888 04-03-2020 00:35:00 3.2 C 5.66 g/m*3 3.2 C 3.2 km/h
2889 04-03-2020 00:40:00 3.2 C 5.66 g/m*3 1.51 C 6.4 km/h
2890 04-03-2020 00:45:00 3.2 C 5.6 g/m*3 3.2 C 3.2 km/h
2891 04-03-2020 00:50:00 3.2 C 5.6 g/m*3 3.2 C 3.2 km/h
2892 04-03-2020 00:55:00 3.1 C 5.57 g/m*3 3.1 C 1.6 km/h
2893 04-03-2020 01:00:00 3 C 5.53 g/m*3 3 C 1.6 km/h
2894 04-03-2020 01:05:00 2.9 C 5.49 g/m*3 1.17 C 6.4 km/h
2895 04-03-2020 01:10:00 2.9 C 5.49 g/m*3 0.64 C 8.1 km/h
2896 04-03-2020 01:15:00 3 C 5.53 g/m*3 0.76 C 8.1 km/h
2897 04-03-2020 01:20:00 3 C 5.53 g/m*3 3 C 4.8 km/h
2898 04-03-2020 01:25:00 3 C 5.53 g/m*3 -0.34 C 12.9 km/h
2899 04-03-2020 01:30:00 2.9 C 5.49 g/m*3 1.17 C 6.4 km/h
2900 04-03-2020 01:35:00 2.9 C 5.49 g/m*3 0.64 C 8.1 km/h
Sensor: Nr:Datum:Temp:Abs-Feuchte:Windchill:Wind:
Aussen-T/F 2901 04-03-2020 01:40:00 2.9 C 5.43 g/m*3 1.17 C 6.4 km/h
2902 04-03-2020 01:45:00 2.9 C 5.49 g/m*3 0.64 C 8.1 km/h
2903 04-03-2020 01:50:00 2.9 C 5.49 g/m*3 0.64 C 8.1 km/h
2904 04-03-2020 01:55:00 2.9 C 5.43 g/m*3 -0.14 C 11.3 km/h
2905 04-03-2020 02:00:00 3 C 5.47 g/m*3 0.76 C 8.1 km/h
2906 04-03-2020 02:05:00 3 C 5.47 g/m*3 0.34 C 9.7 km/h
2907 04-03-2020 02:10:00 3.1 C 5.51 g/m*3 0.1 C 11.3 km/h
2908 04-03-2020 02:15:00 3.1 C 5.51 g/m*3 0.46 C 9.7 km/h
2909 04-03-2020 02:20:00 3.2 C 5.54 g/m*3 0.99 C 8.1 km/h
2910 04-03-2020 02:25:00 3.2 C 5.54 g/m*3 0.58 C 9.7 km/h
2911 04-03-2020 02:30:00 3.2 C 5.54 g/m*3 -0.39 C 14.5 km/h
2912 04-03-2020 02:35:00 3.3 C 5.58 g/m*3 -0.26 C 14.5 km/h
2913 04-03-2020 02:40:00 3.4 C 5.62 g/m*3 0.82 C 9.7 km/h
2914 04-03-2020 02:45:00 3.5 C 5.66 g/m*3 0.94 C 9.7 km/h
2915 04-03-2020 02:50:00 3.7 C 5.67 g/m*3 1.58 C 8.1 km/h
2916 04-03-2020 02:55:00 3.8 C 5.71 g/m*3 2.21 C 6.4 km/h
2917 04-03-2020 03:00:00 3.8 C 5.71 g/m*3 0.94 C 11.3 km/h
2918 04-03-2020 03:05:00 3.8 C 5.71 g/m*3 1.7 C 8.1 km/h
2919 04-03-2020 03:10:00 3.9 C 5.68 g/m*3 3.9 C 4.8 km/h
2920 04-03-2020 03:15:00 3.9 C 5.68 g/m*3 3.9 C 3.2 km/h
2921 04-03-2020 03:20:00 3.8 C 5.65 g/m*3 2.21 C 6.4 km/h
2922 04-03-2020 03:25:00 3.9 C 5.68 g/m*3 1.41 C 9.7 km/h
2923 04-03-2020 03:30:00 3.9 C 5.68 g/m*3 3.9 C 3.2 km/h
2924 04-03-2020 03:35:00 3.9 C 5.68 g/m*3 3.9 C 0 km/h
2925 04-03-2020 03:40:00 3.8 C 5.65 g/m*3 3.8 C 0 km/h
Sensor: Nr:Datum:Temp:Abs-Feuchte:Windchill:Wind:
Aussen-T/F 2926 04-03-2020 03:45:00 3.8 C 5.65 g/m*3 3.8 C 0 km/h
2927 04-03-2020 03:50:00 3.8 C 5.65 g/m*3 3.8 C 0 km/h
2928 04-03-2020 03:55:00 3.6 C 5.57 g/m*3 3.6 C 3.2 km/h
2929 04-03-2020 04:00:00 3.6 C 5.57 g/m*3 3.6 C 3.2 km/h
2930 04-03-2020 04:05:00 3.6 C 5.63 g/m*3 1.06 C 9.7 km/h
2931 04-03-2020 04:10:00 3.7 C 5.67 g/m*3 2.09 C 6.4 km/h
2932 04-03-2020 04:15:00 3.8 C 5.71 g/m*3 0.94 C 11.3 km/h
2933 04-03-2020 04:20:00 3.9 C 5.75 g/m*3 1.41 C 9.7 km/h
2934 04-03-2020 04:25:00 3.9 C 5.68 g/m*3 0.75 C 12.9 km/h
2935 04-03-2020 04:30:00 4.1 C 5.76 g/m*3 1.65 C 9.7 km/h
2936 04-03-2020 04:35:00 4.1 C 5.76 g/m*3 1 C 12.9 km/h
2937 04-03-2020 04:40:00 4.2 C 5.8 g/m*3 2.17 C 8.1 km/h
2938 04-03-2020 04:45:00 4.2 C 5.8 g/m*3 2.17 C 8.1 km/h
2939 04-03-2020 04:50:00 4.2 C 5.8 g/m*3 1.77 C 9.7 km/h
2940 04-03-2020 04:55:00 4.2 C 5.8 g/m*3 1.43 C 11.3 km/h
2941 04-03-2020 05:00:00 4.2 C 5.8 g/m*3 2.67 C 6.4 km/h
2942 04-03-2020 05:05:00 4.2 C 5.8 g/m*3 2.67 C 6.4 km/h
2943 04-03-2020 05:10:00 4.2 C 5.8 g/m*3 2.17 C 8.1 km/h
2944 04-03-2020 05:15:00 4.2 C 5.86 g/m*3 1.77 C 9.7 km/h
2945 04-03-2020 05:20:00 4.2 C 5.86 g/m*3 1.77 C 9.7 km/h
2946 04-03-2020 05:25:00 4.1 C 5.89 g/m*3 1.31 C 11.3 km/h
2947 04-03-2020 05:30:00 4.1 C 5.89 g/m*3 2.55 C 6.4 km/h
2948 04-03-2020 05:35:00 4.1 C 5.89 g/m*3 1 C 12.9 km/h
2949 04-03-2020 05:40:00 4 C 5.85 g/m*3 1.93 C 8.1 km/h
2950 04-03-2020 05:45:00 4 C 5.91 g/m*3 1.18 C 11.3 km/h
Sensor: Nr:Datum:Temp:Abs-Feuchte:Windchill:Wind:
Aussen-T/F 2951 04-03-2020 05:50:00 4 C 5.91 g/m*3 1.18 C 11.3 km/h
2952 04-03-2020 05:55:00 4 C 5.91 g/m*3 1.18 C 11.3 km/h
2953 04-03-2020 06:00:00 4 C 5.91 g/m*3 1.18 C 11.3 km/h
2954 04-03-2020 06:05:00 4 C 5.91 g/m*3 1.53 C 9.7 km/h
2955 04-03-2020 06:10:00 4.1 C 5.95 g/m*3 2.55 C 6.4 km/h
2956 04-03-2020 06:15:00 4.1 C 5.95 g/m*3 2.05 C 8.1 km/h
2957 04-03-2020 06:20:00 4.1 C 5.95 g/m*3 2.05 C 8.1 km/h
2958 04-03-2020 06:25:00 4.1 C 5.95 g/m*3 1.31 C 11.3 km/h
2959 04-03-2020 06:30:00 4.1 C 5.95 g/m*3 2.05 C 8.1 km/h
2960 04-03-2020 06:35:00 4.1 C 5.95 g/m*3 1 C 12.9 km/h
2961 04-03-2020 06:40:00 4.2 C 5.99 g/m*3 1.77 C 9.7 km/h
2962 04-03-2020 06:45:00 4.2 C 5.93 g/m*3 1.77 C 9.7 km/h
2963 04-03-2020 06:50:00 4.3 C 5.97 g/m*3 0.72 C 16.1 km/h
2964 04-03-2020 06:55:00 4.3 C 5.97 g/m*3 1.55 C 11.3 km/h
2965 04-03-2020 07:00:00 4.3 C 5.97 g/m*3 1.89 C 9.7 km/h
2966 04-03-2020 07:05:00 4.3 C 5.97 g/m*3 1.89 C 9.7 km/h
2967 04-03-2020 07:10:00 4.3 C 5.97 g/m*3 2.78 C 6.4 km/h
2968 04-03-2020 07:15:00 4.3 C 5.97 g/m*3 1.89 C 9.7 km/h
2969 04-03-2020 07:20:00 4.3 C 5.97 g/m*3 1.55 C 11.3 km/h
2970 04-03-2020 07:25:00 4.4 C 6.01 g/m*3 2.4 C 8.1 km/h
2971 04-03-2020 07:30:00 4.4 C 6.01 g/m*3 1.09 C 14.5 km/h
2972 04-03-2020 07:35:00 4.5 C 5.98 g/m*3 2.13 C 9.7 km/h
2973 04-03-2020 07:40:00 4.5 C 5.98 g/m*3 1.79 C 11.3 km/h
2974 04-03-2020 07:45:00 4.6 C 6.02 g/m*3 1.61 C 12.9 km/h
2975 04-03-2020 07:50:00 4.6 C 6.02 g/m*3 2.64 C 8.1 km/h
Sensor: Nr:Datum:Temp:Abs-Feuchte:Windchill:Wind:
Aussen-T/F 2976 04-03-2020 07:55:00 4.6 C 6.02 g/m*3 3.13 C 6.4 km/h
2977 04-03-2020 08:00:00 4.5 C 5.98 g/m*3 2.52 C 8.1 km/h
2978 04-03-2020 08:05:00 4.4 C 5.94 g/m*3 2.9 C 6.4 km/h
2979 04-03-2020 08:10:00 4.3 C 5.9 g/m*3 1.89 C 9.7 km/h
2980 04-03-2020 08:15:00 4.3 C 5.9 g/m*3 2.78 C 6.4 km/h
2981 04-03-2020 08:20:00 4.3 C 5.9 g/m*3 4.3 C 4.8 km/h
2982 04-03-2020 08:25:00 4.3 C 5.9 g/m*3 1.89 C 9.7 km/h
2983 04-03-2020 08:30:00 4.4 C 5.94 g/m*3 2.9 C 6.4 km/h
2984 04-03-2020 08:35:00 4.4 C 5.94 g/m*3 2.4 C 8.1 km/h
2985 04-03-2020 08:40:00 4.4 C 5.94 g/m*3 2.4 C 8.1 km/h
2986 04-03-2020 08:45:00 4.4 C 5.94 g/m*3 1.67 C 11.3 km/h
2987 04-03-2020 08:50:00 4.5 C 5.98 g/m*3 1.48 C 12.9 km/h
2988 04-03-2020 08:55:00 4.5 C 5.98 g/m*3 3.02 C 6.4 km/h
2989 04-03-2020 09:00:00 4.5 C 5.98 g/m*3 3.02 C 6.4 km/h
2990 04-03-2020 09:05:00 4.6 C 6.02 g/m*3 2.25 C 9.7 km/h
2991 04-03-2020 09:10:00 4.7 C 6.06 g/m*3 3.25 C 6.4 km/h
2992 04-03-2020 09:15:00 4.7 C 6 g/m*3 2.37 C 9.7 km/h
2993 04-03-2020 09:20:00 4.8 C 6.04 g/m*3 1.85 C 12.9 km/h
2994 04-03-2020 09:25:00 4.9 C 6.08 g/m*3 1.97 C 12.9 km/h
2995 04-03-2020 09:30:00 5.1 C 6.09 g/m*3 2.22 C 12.9 km/h
2996 04-03-2020 09:35:00 5.1 C 6.09 g/m*3 2.22 C 12.9 km/h
2997 04-03-2020 09:40:00 5.2 C 6.06 g/m*3 2.34 C 12.9 km/h
2998 04-03-2020 09:45:00 5.3 C 6.1 g/m*3 1.16 C 22.5 km/h
2999 04-03-2020 09:50:00 5.5 C 6.18 g/m*3 1.42 C 22.5 km/h
3000 04-03-2020 09:55:00 5.7 C 6.19 g/m*3 2.69 C 14.5 km/h
Sensor: Nr:Datum:Temp:Abs-Feuchte:Windchill:Wind:
Aussen-T/F 3001 04-03-2020 10:00:00 5.8 C 6.16 g/m*3 2.58 C 16.1 km/h
3002 04-03-2020 10:05:00 5.9 C 6.2 g/m*3 2.93 C 14.5 km/h
3003 04-03-2020 10:10:00 6 C 6.24 g/m*3 2.41 C 19.3 km/h
3004 04-03-2020 10:15:00 6.1 C 6.21 g/m*3 2.73 C 17.7 km/h
3005 04-03-2020 10:20:00 6.2 C 6.25 g/m*3 3.3 C 14.5 km/h
3006 04-03-2020 10:25:00 6.2 C 6.25 g/m*3 2.86 C 17.7 km/h
3007 04-03-2020 10:30:00 6.3 C 6.22 g/m*3 3.43 C 14.5 km/h
3008 04-03-2020 10:35:00 6.5 C 6.3 g/m*3 4.51 C 9.7 km/h
3009 04-03-2020 10:40:00 6.6 C 6.27 g/m*3 2.99 C 20.9 km/h
3010 04-03-2020 10:45:00 6.7 C 6.31 g/m*3 3.69 C 16.1 km/h
3011 04-03-2020 10:50:00 6.7 C 6.31 g/m*3 4.17 C 12.9 km/h
3012 04-03-2020 10:55:00 6.7 C 6.31 g/m*3 3.69 C 16.1 km/h
3013 04-03-2020 11:00:00 6.8 C 6.35 g/m*3 4.04 C 14.5 km/h
3014 04-03-2020 11:05:00 6.9 C 6.31 g/m*3 3.73 C 17.7 km/h
3015 04-03-2020 11:10:00 7.1 C 6.4 g/m*3 3.8 C 19.3 km/h
3016 04-03-2020 11:15:00 7.2 C 6.44 g/m*3 5.04 C 11.3 km/h
3017 04-03-2020 11:20:00 7.4 C 6.44 g/m*3 4.36 C 17.7 km/h
3018 04-03-2020 11:25:00 7.5 C 6.4 g/m*3 4.48 C 17.7 km/h
3019 04-03-2020 11:30:00 7.6 C 6.44 g/m*3 5.02 C 14.5 km/h
3020 04-03-2020 11:35:00 7.6 C 6.44 g/m*3 4.61 C 17.7 km/h
3021 04-03-2020 11:40:00 7.7 C 6.41 g/m*3 5.94 C 9.7 km/h
3022 04-03-2020 11:45:00 7.8 C 6.45 g/m*3 5.51 C 12.9 km/h
3023 04-03-2020 11:50:00 8 C 6.45 g/m*3 5.75 C 12.9 km/h
3024 04-03-2020 11:55:00 8.1 C 6.49 g/m*3 6.42 C 9.7 km/h
3025 04-03-2020 12:00:00 8.2 C 6.45 g/m*3 5.55 C 16.1 km/h
Sensor: Nr:Datum:Temp:Abs-Feuchte:Windchill:Wind:
Aussen-T/F 3026 04-03-2020 12:05:00 8.3 C 6.49 g/m*3 5.89 C 14.5 km/h
3027 04-03-2020 12:10:00 8.4 C 6.53 g/m*3 6.78 C 9.7 km/h
3028 04-03-2020 12:15:00 8.6 C 6.62 g/m*3 6.05 C 16.1 km/h
3029 04-03-2020 12:20:00 8.8 C 6.7 g/m*3 7.25 C 9.7 km/h
3030 04-03-2020 12:25:00 9 C 6.61 g/m*3 7.81 C 8.1 km/h
3031 04-03-2020 12:30:00 9.1 C 6.57 g/m*3 6.48 C 17.7 km/h
3032 04-03-2020 12:35:00 9.2 C 6.7 g/m*3 6.79 C 16.1 km/h
3033 04-03-2020 12:40:00 9.2 C 6.61 g/m*3 7.73 C 9.7 km/h
3034 04-03-2020 12:45:00 9.3 C 6.56 g/m*3 6.92 C 16.1 km/h
3035 04-03-2020 12:50:00 9.3 C 6.56 g/m*3 7.12 C 14.5 km/h
3036 04-03-2020 12:55:00 9.3 C 6.56 g/m*3 6.56 C 19.3 km/h
3037 04-03-2020 13:00:00 9.2 C 6.52 g/m*3 6.79 C 16.1 km/h
3038 04-03-2020 13:05:00 9.1 C 6.48 g/m*3 7.09 C 12.9 km/h
3039 04-03-2020 13:10:00 9.1 C 6.48 g/m*3 6.67 C 16.1 km/h
3040 04-03-2020 13:15:00 9.1 C 6.48 g/m*3 6.67 C 16.1 km/h
3041 04-03-2020 13:20:00 9.1 C 6.48 g/m*3 6.31 C 19.3 km/h
3042 04-03-2020 13:25:00 9.2 C 6.52 g/m*3 7.21 C 12.9 km/h
3043 04-03-2020 13:30:00 9.3 C 6.56 g/m*3 7.12 C 14.5 km/h
3044 04-03-2020 13:35:00 9.2 C 6.52 g/m*3 6.61 C 17.7 km/h
3045 04-03-2020 13:40:00 9.1 C 6.39 g/m*3 6.31 C 19.3 km/h
3046 04-03-2020 13:45:00 8.8 C 6.27 g/m*3 6.11 C 17.7 km/h
3047 04-03-2020 13:50:00 8.9 C 6.39 g/m*3 6.62 C 14.5 km/h
3048 04-03-2020 13:55:00 9.2 C 6.43 g/m*3 7.21 C 12.9 km/h
3049 04-03-2020 14:00:00 9.4 C 6.42 g/m*3 6.38 C 22.5 km/h
3050 04-03-2020 14:05:00 9.6 C 6.41 g/m*3 6.94 C 19.3 km/h
Sensor: Nr:Datum:Temp:Abs-Feuchte:Windchill:Wind:
Aussen-T/F 3051 04-03-2020 14:10:00 9.7 C 6.55 g/m*3 7.41 C 16.1 km/h
3052 04-03-2020 14:15:00 9.8 C 6.49 g/m*3 7.19 C 19.3 km/h
3053 04-03-2020 14:20:00 9.8 C 6.4 g/m*3 7.04 C 20.9 km/h
3054 04-03-2020 14:25:00 9.8 C 6.49 g/m*3 7.54 C 16.1 km/h
3055 04-03-2020 14:30:00 9.8 C 6.4 g/m*3 7.36 C 17.7 km/h
3056 04-03-2020 14:35:00 9.7 C 6.27 g/m*3 7.23 C 17.7 km/h
3057 04-03-2020 14:40:00 9.6 C 6.5 g/m*3 7.48 C 14.5 km/h
3058 04-03-2020 14:45:00 9.5 C 6.46 g/m*3 7.16 C 16.1 km/h
3059 04-03-2020 14:50:00 9.3 C 6.47 g/m*3 6.26 C 22.5 km/h
3060 04-03-2020 14:55:00 9.1 C 6.48 g/m*3 6.48 C 17.7 km/h
3061 04-03-2020 15:00:00 9 C 6.44 g/m*3 6.36 C 17.7 km/h
3062 04-03-2020 15:05:00 9 C 6.52 g/m*3 7.49 C 9.7 km/h
3063 04-03-2020 15:10:00 9.1 C 6.57 g/m*3 7.33 C 11.3 km/h
3064 04-03-2020 15:15:00 9.2 C 6.52 g/m*3 7.21 C 12.9 km/h
3065 04-03-2020 15:20:00 9.1 C 6.39 g/m*3 6 C 22.5 km/h
3066 04-03-2020 15:25:00 9.2 C 6.52 g/m*3 6.13 C 22.5 km/h
3067 04-03-2020 15:30:00 9.2 C 6.34 g/m*3 6.13 C 22.5 km/h
3068 04-03-2020 15:35:00 9.1 C 6.48 g/m*3 6.48 C 17.7 km/h
3069 04-03-2020 15:40:00 9.1 C 6.57 g/m*3 6.48 C 17.7 km/h
3070 04-03-2020 15:45:00 9.2 C 6.61 g/m*3 6.99 C 14.5 km/h
3071 04-03-2020 15:50:00 9.2 C 6.61 g/m*3 6.13 C 22.5 km/h
3072 04-03-2020 15:55:00 9.2 C 6.61 g/m*3 6.99 C 14.5 km/h
3073 04-03-2020 16:00:00 9.2 C 6.61 g/m*3 6.13 C 22.5 km/h
3074 04-03-2020 16:05:00 9.2 C 6.52 g/m*3 6.61 C 17.7 km/h
3075 04-03-2020 16:10:00 9.2 C 6.52 g/m*3 6.61 C 17.7 km/h
Sensor: Nr:Datum:Temp:Abs-Feuchte:Windchill:Wind:
Aussen-T/F 3076 04-03-2020 16:15:00 9.1 C 6.48 g/m*3 6.31 C 19.3 km/h
3077 04-03-2020 16:20:00 9.2 C 6.52 g/m*3 6.99 C 14.5 km/h
3078 04-03-2020 16:25:00 9.1 C 6.39 g/m*3 6.87 C 14.5 km/h
3079 04-03-2020 16:30:00 8.9 C 6.31 g/m*3 6.42 C 16.1 km/h
3080 04-03-2020 16:35:00 8.8 C 6.35 g/m*3 7.25 C 9.7 km/h
3081 04-03-2020 16:40:00 8.8 C 6.35 g/m*3 6.97 C 11.3 km/h
3082 04-03-2020 16:45:00 8.9 C 6.31 g/m*3 7.09 C 11.3 km/h
3083 04-03-2020 16:50:00 9 C 6.35 g/m*3 7.49 C 9.7 km/h
3084 04-03-2020 16:55:00 9 C 6.26 g/m*3 6.75 C 14.5 km/h
3085 04-03-2020 17:00:00 9.1 C 6.3 g/m*3 7.61 C 9.7 km/h
3086 04-03-2020 17:05:00 9.1 C 6.3 g/m*3 7.33 C 11.3 km/h
3087 04-03-2020 17:10:00 9.1 C 6.3 g/m*3 7.09 C 12.9 km/h
3088 04-03-2020 17:15:00 9.2 C 6.43 g/m*3 7.73 C 9.7 km/h
3089 04-03-2020 17:20:00 9.2 C 6.34 g/m*3 7.21 C 12.9 km/h
3090 04-03-2020 17:25:00 8.9 C 6.13 g/m*3 6.62 C 14.5 km/h
3091 04-03-2020 17:30:00 8.7 C 6.23 g/m*3 8.7 C 4.8 km/h
3092 04-03-2020 17:35:00 8.6 C 6.27 g/m*3 8.6 C 1.6 km/h
3093 04-03-2020 17:40:00 8.4 C 6.28 g/m*3 8.4 C 1.6 km/h
3094 04-03-2020 17:45:00 8.3 C 6.32 g/m*3 8.3 C 1.6 km/h
3095 04-03-2020 17:50:00 8.1 C 6.32 g/m*3 8.1 C 3.2 km/h
3096 04-03-2020 17:55:00 7.7 C 6.24 g/m*3 7.7 C 4.8 km/h
3097 04-03-2020 18:00:00 7.3 C 6.16 g/m*3 7.3 C 4.8 km/h
3098 04-03-2020 18:05:00 6.9 C 6.16 g/m*3 6.9 C 4.8 km/h
3099 04-03-2020 18:10:00 6.6 C 6.11 g/m*3 6.6 C 4.8 km/h
3100 04-03-2020 18:15:00 6.2 C 6.03 g/m*3 6.2 C 4.8 km/h
Sensor: Nr:Datum:Temp:Abs-Feuchte:Windchill:Wind:
Aussen-T/F 3101 04-03-2020 18:20:00 5.9 C 5.98 g/m*3 5.9 C 4.8 km/h
3102 04-03-2020 18:25:00 5.7 C 5.98 g/m*3 5.7 C 4.8 km/h
3103 04-03-2020 18:30:00 5.5 C 5.9 g/m*3 5.5 C 4.8 km/h
3104 04-03-2020 18:35:00 5.3 C 5.89 g/m*3 5.3 C 4.8 km/h
3105 04-03-2020 18:40:00 5.1 C 5.88 g/m*3 5.1 C 4.8 km/h
3106 04-03-2020 18:45:00 4.9 C 5.81 g/m*3 4.9 C 4.8 km/h
3107 04-03-2020 18:50:00 4.8 C 5.83 g/m*3 4.8 C 4.8 km/h
3108 04-03-2020 18:55:00 4.6 C 5.76 g/m*3 4.6 C 4.8 km/h
3109 04-03-2020 19:00:00 4.5 C 5.72 g/m*3 4.5 C 4.8 km/h
3110 04-03-2020 19:05:00 4.3 C 5.71 g/m*3 4.3 C 4.8 km/h
3111 04-03-2020 19:10:00 4.3 C 5.71 g/m*3 4.3 C 4.8 km/h
3112 04-03-2020 19:15:00 4.2 C 5.73 g/m*3 4.2 C 4.8 km/h
3113 04-03-2020 19:20:00 4.2 C 5.73 g/m*3 4.2 C 4.8 km/h
3114 04-03-2020 19:25:00 4.2 C 5.8 g/m*3 4.2 C 4.8 km/h
3115 04-03-2020 19:30:00 4.2 C 5.8 g/m*3 4.2 C 4.8 km/h
3116 04-03-2020 19:35:00 4.2 C 5.8 g/m*3 4.2 C 4.8 km/h
3117 04-03-2020 19:40:00 4.2 C 5.8 g/m*3 4.2 C 4.8 km/h
3118 04-03-2020 19:45:00 4.2 C 5.8 g/m*3 4.2 C 4.8 km/h
3119 04-03-2020 19:50:00 4.2 C 5.8 g/m*3 4.2 C 4.8 km/h
3120 04-03-2020 19:55:00 4.2 C 5.8 g/m*3 4.2 C 4.8 km/h
3121 04-03-2020 20:00:00 4.2 C 5.8 g/m*3 4.2 C 0 km/h
3122 04-03-2020 20:05:00 4.1 C 5.82 g/m*3 4.1 C 3.2 km/h
3123 04-03-2020 20:10:00 4.1 C 5.82 g/m*3 4.1 C 1.6 km/h
3124 04-03-2020 20:15:00 4.1 C 5.82 g/m*3 4.1 C 3.2 km/h
3125 04-03-2020 20:20:00 4.1 C 5.82 g/m*3 4.1 C 1.6 km/h
Sensor: Nr:Datum:Temp:Abs-Feuchte:Windchill:Wind:
Aussen-T/F 3126 04-03-2020 20:25:00 4.1 C 5.82 g/m*3 4.1 C 4.8 km/h
3127 04-03-2020 20:30:00 4 C 5.79 g/m*3 4 C 1.6 km/h
3128 04-03-2020 20:35:00 3.9 C 5.75 g/m*3 3.9 C 3.2 km/h
3129 04-03-2020 20:40:00 3.8 C 5.71 g/m*3 3.8 C 4.8 km/h
3130 04-03-2020 20:45:00 3.7 C 5.67 g/m*3 3.7 C 4.8 km/h
3131 04-03-2020 20:50:00 3.7 C 5.67 g/m*3 3.7 C 3.2 km/h
3132 04-03-2020 20:55:00 3.6 C 5.63 g/m*3 3.6 C 1.6 km/h
3133 04-03-2020 21:00:00 3.4 C 5.56 g/m*3 3.4 C 0 km/h
3134 04-03-2020 21:05:00 3.4 C 5.56 g/m*3 3.4 C 4.8 km/h
3135 04-03-2020 21:10:00 3.3 C 5.58 g/m*3 3.3 C 4.8 km/h
3136 04-03-2020 21:15:00 3.3 C 5.58 g/m*3 3.3 C 3.2 km/h
3137 04-03-2020 21:20:00 3.2 C 5.54 g/m*3 3.2 C 3.2 km/h
3138 04-03-2020 21:25:00 3.2 C 5.54 g/m*3 3.2 C 3.2 km/h
3139 04-03-2020 21:30:00 3.3 C 5.64 g/m*3 3.3 C 4.8 km/h
3140 04-03-2020 21:35:00 3.3 C 5.64 g/m*3 3.3 C 3.2 km/h
3141 04-03-2020 21:40:00 3.4 C 5.68 g/m*3 3.4 C 4.8 km/h
3142 04-03-2020 21:45:00 3.4 C 5.68 g/m*3 3.4 C 3.2 km/h
3143 04-03-2020 21:50:00 3.4 C 5.68 g/m*3 3.4 C 4.8 km/h
3144 04-03-2020 21:55:00 3.6 C 5.76 g/m*3 3.6 C 4.8 km/h
3145 04-03-2020 22:00:00 3.6 C 5.76 g/m*3 3.6 C 3.2 km/h
3146 04-03-2020 22:05:00 3.5 C 5.72 g/m*3 3.5 C 0 km/h
3147 04-03-2020 22:10:00 3.4 C 5.62 g/m*3 3.4 C 0 km/h
3148 04-03-2020 22:15:00 3.3 C 5.58 g/m*3 3.3 C 0 km/h
3149 04-03-2020 22:20:00 3.3 C 5.64 g/m*3 3.3 C 0 km/h
3150 04-03-2020 22:25:00 3.2 C 5.6 g/m*3 3.2 C 0 km/h
Sensor: Nr:Datum:Temp:Abs-Feuchte:Windchill:Wind:
Aussen-T/F 3151 04-03-2020 22:30:00 3.2 C 5.6 g/m*3 3.2 C 1.6 km/h
3152 04-03-2020 22:35:00 3.2 C 5.6 g/m*3 3.2 C 0 km/h
3153 04-03-2020 22:40:00 3.2 C 5.6 g/m*3 3.2 C 0 km/h
3154 04-03-2020 22:45:00 3.2 C 5.66 g/m*3 3.2 C 0 km/h
3155 04-03-2020 22:50:00 3.3 C 5.7 g/m*3 3.3 C 0 km/h
3156 04-03-2020 22:55:00 3.4 C 5.74 g/m*3 3.4 C 0 km/h
3157 04-03-2020 23:00:00 3.5 C 5.78 g/m*3 3.5 C 1.6 km/h
3158 04-03-2020 23:05:00 3.6 C 5.82 g/m*3 3.6 C 3.2 km/h
3159 04-03-2020 23:10:00 3.6 C 5.82 g/m*3 3.6 C 0 km/h
3160 04-03-2020 23:15:00 3.7 C 5.86 g/m*3 3.7 C 0 km/h
3161 04-03-2020 23:20:00 3.7 C 5.86 g/m*3 3.7 C 0 km/h
3162 04-03-2020 23:25:00 3.8 C 5.9 g/m*3 3.8 C 0 km/h
3163 04-03-2020 23:30:00 3.8 C 5.9 g/m*3 3.8 C 0 km/h
3164 04-03-2020 23:35:00 3.8 C 5.9 g/m*3 3.8 C 0 km/h
3165 04-03-2020 23:40:00 3.9 C 5.94 g/m*3 3.9 C 0 km/h
3166 04-03-2020 23:45:00 4.1 C 6.02 g/m*3 4.1 C 0 km/h
3167 04-03-2020 23:50:00 4.1 C 6.02 g/m*3 4.1 C 0 km/h
3168 04-03-2020 23:55:00 4.2 C 6.06 g/m*3 4.2 C 0 km/h
3169 05-03-2020 00:00:00 4.2 C 6.06 g/m*3 4.2 C 0 km/h
3170 05-03-2020 00:05:00 4.2 C 6.06 g/m*3 4.2 C 0 km/h
3171 05-03-2020 00:10:00 4.3 C 6.1 g/m*3 4.3 C 0 km/h
3172 05-03-2020 00:15:00 4.3 C 6.1 g/m*3 4.3 C 0 km/h
3173 05-03-2020 00:20:00 4.3 C 6.1 g/m*3 4.3 C 0 km/h
3174 05-03-2020 00:25:00 4.3 C 6.1 g/m*3 4.3 C 0 km/h
3175 05-03-2020 00:30:00 4.4 C 6.2 g/m*3 4.4 C 0 km/h
Sensor: Nr:Datum:Temp:Abs-Feuchte:Windchill:Wind:
Aussen-T/F 3176 05-03-2020 00:35:00 4.5 C 6.24 g/m*3 4.5 C 4.8 km/h
3177 05-03-2020 00:40:00 4.6 C 6.29 g/m*3 4.6 C 3.2 km/h
3178 05-03-2020 00:45:00 4.6 C 6.29 g/m*3 4.6 C 0 km/h
3179 05-03-2020 00:50:00 4.6 C 6.29 g/m*3 4.6 C 0 km/h
3180 05-03-2020 00:55:00 4.5 C 6.24 g/m*3 4.5 C 0 km/h
3181 05-03-2020 01:00:00 4.4 C 6.14 g/m*3 4.4 C 0 km/h
3182 05-03-2020 01:05:00 4.3 C 6.1 g/m*3 4.3 C 0 km/h
3183 05-03-2020 01:10:00 4.3 C 6.1 g/m*3 4.3 C 0 km/h
3184 05-03-2020 01:15:00 4.3 C 6.16 g/m*3 4.3 C 0 km/h
3185 05-03-2020 01:20:00 4.3 C 6.16 g/m*3 4.3 C 0 km/h
3186 05-03-2020 01:25:00 4.3 C 6.16 g/m*3 4.3 C 0 km/h
3187 05-03-2020 01:30:00 4.3 C 6.16 g/m*3 4.3 C 0 km/h
3188 05-03-2020 01:35:00 4.2 C 6.12 g/m*3 4.2 C 1.6 km/h
3189 05-03-2020 01:40:00 4.2 C 6.12 g/m*3 4.2 C 1.6 km/h
3190 05-03-2020 01:45:00 4.3 C 6.16 g/m*3 4.3 C 0 km/h
3191 05-03-2020 01:50:00 4.3 C 6.16 g/m*3 4.3 C 3.2 km/h
3192 05-03-2020 01:55:00 4.3 C 6.16 g/m*3 4.3 C 3.2 km/h
3193 05-03-2020 02:00:00 4.3 C 6.16 g/m*3 4.3 C 4.8 km/h
3194 05-03-2020 02:05:00 4.4 C 6.2 g/m*3 4.4 C 0 km/h
3195 05-03-2020 02:10:00 4.4 C 6.2 g/m*3 4.4 C 3.2 km/h
3196 05-03-2020 02:15:00 4.4 C 6.14 g/m*3 2.9 C 6.4 km/h
3197 05-03-2020 02:20:00 4.5 C 6.18 g/m*3 4.5 C 3.2 km/h
3198 05-03-2020 02:25:00 4.5 C 6.18 g/m*3 4.5 C 0 km/h
3199 05-03-2020 02:30:00 4.5 C 6.18 g/m*3 4.5 C 3.2 km/h
3200 05-03-2020 02:35:00 4.6 C 6.22 g/m*3 4.6 C 4.8 km/h
Sensor: Nr:Datum:Temp:Abs-Feuchte:Windchill:Wind:
Aussen-T/F 3201 05-03-2020 02:40:00 4.6 C 6.22 g/m*3 4.6 C 3.2 km/h
3202 05-03-2020 02:45:00 4.6 C 6.22 g/m*3 4.6 C 1.6 km/h
3203 05-03-2020 02:50:00 4.7 C 6.19 g/m*3 2.37 C 9.7 km/h
3204 05-03-2020 02:55:00 4.7 C 6.19 g/m*3 4.7 C 1.6 km/h
3205 05-03-2020 03:00:00 4.8 C 6.17 g/m*3 4.8 C 4.8 km/h
3206 05-03-2020 03:05:00 4.8 C 6.17 g/m*3 4.8 C 1.6 km/h
3207 05-03-2020 03:10:00 4.8 C 6.17 g/m*3 4.8 C 3.2 km/h
3208 05-03-2020 03:15:00 4.8 C 6.17 g/m*3 4.8 C 1.6 km/h
3209 05-03-2020 03:20:00 4.8 C 6.17 g/m*3 4.8 C 3.2 km/h
3210 05-03-2020 03:25:00 4.9 C 6.21 g/m*3 4.9 C 4.8 km/h
3211 05-03-2020 03:30:00 4.9 C 6.21 g/m*3 4.9 C 3.2 km/h
3212 05-03-2020 03:35:00 4.9 C 6.14 g/m*3 4.9 C 4.8 km/h
3213 05-03-2020 03:40:00 4.9 C 6.14 g/m*3 4.9 C 3.2 km/h
3214 05-03-2020 03:45:00 4.9 C 6.14 g/m*3 4.9 C 0 km/h
3215 05-03-2020 03:50:00 4.9 C 6.14 g/m*3 4.9 C 1.6 km/h
3216 05-03-2020 03:55:00 4.9 C 6.14 g/m*3 4.9 C 3.2 km/h
3217 05-03-2020 04:00:00 4.9 C 6.14 g/m*3 4.9 C 1.6 km/h
3218 05-03-2020 04:05:00 4.9 C 6.14 g/m*3 4.9 C 3.2 km/h
3219 05-03-2020 04:10:00 4.9 C